<?xml version="1.0" encoding="UTF-8" standalone="no" ?>
<gpx xmlns="http://www.topografix.com/GPX/1/1" xmlns:xsi="http://www.w3.org/2001/XMLSchema-instance" xsi:schemaLocation="http://www.topografix.com/GPX/1/1 http://www.topografix.com/GPX/1/1/gpx.xsd" version="1.1" creator="VisuGPX - https://www.visugpx.com">
  <metadata>
    <name>Les coteaux de l'Hautil</name>
    <desc><![CDATA[Randonnée de 18 km en boucle à partir de la gare de Cergy-Le-Haut]]></desc>
  </metadata>
  <trk>
    <name><![CDATA[Les coteaux de l'Hautil_R1]]></name>
    <trkseg>
      <trkpt lat="49.04814" lon="2.01114">
        <ele>114.06</ele>
        <time>2021-05-30T07:35:37Z</time>
      </trkpt>
      <trkpt lat="49.04804" lon="2.01089">
        <ele>113.67</ele>
        <time>2021-05-30T07:35:54Z</time>
      </trkpt>
      <trkpt lat="49.04791" lon="2.0107">
        <ele>113.49</ele>
        <time>2021-05-30T07:36:10Z</time>
      </trkpt>
      <trkpt lat="49.04769" lon="2.01048">
        <ele>113.66</ele>
        <time>2021-05-30T07:36:29Z</time>
      </trkpt>
      <trkpt lat="49.04763" lon="2.01025">
        <ele>113.11</ele>
        <time>2021-05-30T07:36:49Z</time>
      </trkpt>
      <trkpt lat="49.04753" lon="2.01007">
        <ele>113.92</ele>
        <time>2021-05-30T07:37:06Z</time>
      </trkpt>
      <trkpt lat="49.04741" lon="2.00981">
        <ele>113.1</ele>
        <time>2021-05-30T07:37:26Z</time>
      </trkpt>
      <trkpt lat="49.04743" lon="2.00964">
        <ele>113.08</ele>
        <time>2021-05-30T07:37:43Z</time>
      </trkpt>
      <trkpt lat="49.04749" lon="2.00949">
        <ele>113</ele>
        <time>2021-05-30T07:38:00Z</time>
      </trkpt>
      <trkpt lat="49.04751" lon="2.00932">
        <ele>112.26</ele>
        <time>2021-05-30T07:38:14Z</time>
      </trkpt>
      <trkpt lat="49.0475" lon="2.00912">
        <ele>111.17</ele>
        <time>2021-05-30T07:38:25Z</time>
      </trkpt>
      <trkpt lat="49.04757" lon="2.00885">
        <ele>111.95</ele>
        <time>2021-05-30T07:38:44Z</time>
      </trkpt>
      <trkpt lat="49.04758" lon="2.00878">
        <ele>111.91</ele>
        <time>2021-05-30T07:38:48Z</time>
      </trkpt>
      <trkpt lat="49.04772" lon="2.00841">
        <ele>111.79</ele>
        <time>2021-05-30T07:39:07Z</time>
      </trkpt>
      <trkpt lat="49.04774" lon="2.00839">
        <ele>111.3</ele>
        <time>2021-05-30T07:39:09Z</time>
      </trkpt>
      <trkpt lat="49.04783" lon="2.00836">
        <ele>111.39</ele>
        <time>2021-05-30T07:39:15Z</time>
      </trkpt>
      <trkpt lat="49.04788" lon="2.00825">
        <ele>111.36</ele>
        <time>2021-05-30T07:39:21Z</time>
      </trkpt>
      <trkpt lat="49.04793" lon="2.00815">
        <ele>110.88</ele>
        <time>2021-05-30T07:39:31Z</time>
      </trkpt>
      <trkpt lat="49.04781" lon="2.00791">
        <ele>111.13</ele>
        <time>2021-05-30T07:39:49Z</time>
      </trkpt>
      <trkpt lat="49.04776" lon="2.00788">
        <ele>110.77</ele>
        <time>2021-05-30T07:39:57Z</time>
      </trkpt>
      <trkpt lat="49.04759" lon="2.00781">
        <ele>110.97</ele>
        <time>2021-05-30T07:40:14Z</time>
      </trkpt>
      <trkpt lat="49.04748" lon="2.00763">
        <ele>110.41</ele>
        <time>2021-05-30T07:40:33Z</time>
      </trkpt>
      <trkpt lat="49.04739" lon="2.00744">
        <ele>110.03</ele>
        <time>2021-05-30T07:40:52Z</time>
      </trkpt>
      <trkpt lat="49.04726" lon="2.00715">
        <ele>110.4</ele>
        <time>2021-05-30T07:41:11Z</time>
      </trkpt>
      <trkpt lat="49.04713" lon="2.00691">
        <ele>109.65</ele>
        <time>2021-05-30T07:41:27Z</time>
      </trkpt>
      <trkpt lat="49.04711" lon="2.00684">
        <ele>109.75</ele>
        <time>2021-05-30T07:41:32Z</time>
      </trkpt>
      <trkpt lat="49.04708" lon="2.00676">
        <ele>109.72</ele>
        <time>2021-05-30T07:41:37Z</time>
      </trkpt>
      <trkpt lat="49.04703" lon="2.00662">
        <ele>109.55</ele>
        <time>2021-05-30T07:41:45Z</time>
      </trkpt>
      <trkpt lat="49.04696" lon="2.00644">
        <ele>108.33</ele>
        <time>2021-05-30T07:41:56Z</time>
      </trkpt>
      <trkpt lat="49.04686" lon="2.00619">
        <ele>106.33</ele>
        <time>2021-05-30T07:42:11Z</time>
      </trkpt>
      <trkpt lat="49.04675" lon="2.00597">
        <ele>106.45</ele>
        <time>2021-05-30T07:42:25Z</time>
      </trkpt>
      <trkpt lat="49.04672" lon="2.00593">
        <ele>106.6</ele>
        <time>2021-05-30T07:42:29Z</time>
      </trkpt>
      <trkpt lat="49.04672" lon="2.00581">
        <ele>107.09</ele>
        <time>2021-05-30T07:42:39Z</time>
      </trkpt>
      <trkpt lat="49.04665" lon="2.00567">
        <ele>106.88</ele>
        <time>2021-05-30T07:42:48Z</time>
      </trkpt>
      <trkpt lat="49.04664" lon="2.00564">
        <ele>106.97</ele>
        <time>2021-05-30T07:42:50Z</time>
      </trkpt>
      <trkpt lat="49.04659" lon="2.00555">
        <ele>106.67</ele>
        <time>2021-05-30T07:42:57Z</time>
      </trkpt>
      <trkpt lat="49.04649" lon="2.00538">
        <ele>106.77</ele>
        <time>2021-05-30T07:43:12Z</time>
      </trkpt>
      <trkpt lat="49.04645" lon="2.00531">
        <ele>106.83</ele>
        <time>2021-05-30T07:43:18Z</time>
      </trkpt>
      <trkpt lat="49.04644" lon="2.00529">
        <ele>107.11</ele>
        <time>2021-05-30T07:43:20Z</time>
      </trkpt>
      <trkpt lat="49.04639" lon="2.00513">
        <ele>107.97</ele>
        <time>2021-05-30T07:43:31Z</time>
      </trkpt>
      <trkpt lat="49.04635" lon="2.00506">
        <ele>108.46</ele>
        <time>2021-05-30T07:43:36Z</time>
      </trkpt>
      <trkpt lat="49.04623" lon="2.00485">
        <ele>109.53</ele>
        <time>2021-05-30T07:43:54Z</time>
      </trkpt>
      <trkpt lat="49.04615" lon="2.00469">
        <ele>109.81</ele>
        <time>2021-05-30T07:44:10Z</time>
      </trkpt>
      <trkpt lat="49.04608" lon="2.00452">
        <ele>109.59</ele>
        <time>2021-05-30T07:44:24Z</time>
      </trkpt>
      <trkpt lat="49.04605" lon="2.00447">
        <ele>109.43</ele>
        <time>2021-05-30T07:44:28Z</time>
      </trkpt>
      <trkpt lat="49.04603" lon="2.0044">
        <ele>109.08</ele>
        <time>2021-05-30T07:44:33Z</time>
      </trkpt>
      <trkpt lat="49.04592" lon="2.00421">
        <ele>109.48</ele>
        <time>2021-05-30T07:44:46Z</time>
      </trkpt>
      <trkpt lat="49.04591" lon="2.0042">
        <ele>109.74</ele>
        <time>2021-05-30T07:44:47Z</time>
      </trkpt>
      <trkpt lat="49.04589" lon="2.00415">
        <ele>109.92</ele>
        <time>2021-05-30T07:44:50Z</time>
      </trkpt>
      <trkpt lat="49.04585" lon="2.00401">
        <ele>109.7</ele>
        <time>2021-05-30T07:44:59Z</time>
      </trkpt>
      <trkpt lat="49.04579" lon="2.00391">
        <ele>109.09</ele>
        <time>2021-05-30T07:45:10Z</time>
      </trkpt>
      <trkpt lat="49.04573" lon="2.00391">
        <ele>109.71</ele>
        <time>2021-05-30T07:45:28Z</time>
      </trkpt>
      <trkpt lat="49.04561" lon="2.00386">
        <ele>109.71</ele>
        <time>2021-05-30T07:45:48Z</time>
      </trkpt>
      <trkpt lat="49.0454" lon="2.00378">
        <ele>109.68</ele>
        <time>2021-05-30T07:46:11Z</time>
      </trkpt>
      <trkpt lat="49.04536" lon="2.00384">
        <ele>109.6</ele>
        <time>2021-05-30T07:46:23Z</time>
      </trkpt>
      <trkpt lat="49.04534" lon="2.00409">
        <ele>110.13</ele>
        <time>2021-05-30T07:46:44Z</time>
      </trkpt>
      <trkpt lat="49.04529" lon="2.00438">
        <ele>109.36</ele>
        <time>2021-05-30T07:47:07Z</time>
      </trkpt>
      <trkpt lat="49.04526" lon="2.00457">
        <ele>109.86</ele>
        <time>2021-05-30T07:47:18Z</time>
      </trkpt>
      <trkpt lat="49.04523" lon="2.0048">
        <ele>110.59</ele>
        <time>2021-05-30T07:47:33Z</time>
      </trkpt>
      <trkpt lat="49.04522" lon="2.00503">
        <ele>110.31</ele>
        <time>2021-05-30T07:47:48Z</time>
      </trkpt>
      <trkpt lat="49.04516" lon="2.00535">
        <ele>110.72</ele>
        <time>2021-05-30T07:48:04Z</time>
      </trkpt>
      <trkpt lat="49.04504" lon="2.00558">
        <ele>110.55</ele>
        <time>2021-05-30T07:48:20Z</time>
      </trkpt>
      <trkpt lat="49.045" lon="2.00559">
        <ele>109.92</ele>
        <time>2021-05-30T07:48:37Z</time>
      </trkpt>
      <trkpt lat="49.0448" lon="2.00551">
        <ele>110.59</ele>
        <time>2021-05-30T07:48:55Z</time>
      </trkpt>
      <trkpt lat="49.04464" lon="2.00555">
        <ele>110.5</ele>
        <time>2021-05-30T07:49:10Z</time>
      </trkpt>
      <trkpt lat="49.04465" lon="2.00554">
        <ele>110.52</ele>
        <time>2021-05-30T07:49:20Z</time>
      </trkpt>
      <trkpt lat="49.04479" lon="2.00551">
        <ele>110.35</ele>
        <time>2021-05-30T07:49:35Z</time>
      </trkpt>
      <trkpt lat="49.04483" lon="2.00539">
        <ele>109.89</ele>
        <time>2021-05-30T07:49:45Z</time>
      </trkpt>
      <trkpt lat="49.04484" lon="2.00532">
        <ele>110.02</ele>
        <time>2021-05-30T07:49:50Z</time>
      </trkpt>
      <trkpt lat="49.04481" lon="2.00527">
        <ele>109.93</ele>
        <time>2021-05-30T07:49:54Z</time>
      </trkpt>
      <trkpt lat="49.04476" lon="2.00526">
        <ele>109.75</ele>
        <time>2021-05-30T07:49:58Z</time>
      </trkpt>
      <trkpt lat="49.04474" lon="2.00525">
        <ele>109.76</ele>
        <time>2021-05-30T07:50:00Z</time>
      </trkpt>
      <trkpt lat="49.04462" lon="2.00509">
        <ele>110.15</ele>
        <time>2021-05-30T07:50:18Z</time>
      </trkpt>
      <trkpt lat="49.04455" lon="2.0048">
        <ele>109.71</ele>
        <time>2021-05-30T07:50:38Z</time>
      </trkpt>
      <trkpt lat="49.04446" lon="2.00455">
        <ele>109.51</ele>
        <time>2021-05-30T07:50:58Z</time>
      </trkpt>
      <trkpt lat="49.04442" lon="2.00443">
        <ele>109.38</ele>
        <time>2021-05-30T07:51:07Z</time>
      </trkpt>
      <trkpt lat="49.04436" lon="2.00406">
        <ele>109.1</ele>
        <time>2021-05-30T07:51:26Z</time>
      </trkpt>
      <trkpt lat="49.04428" lon="2.0037">
        <ele>109.29</ele>
        <time>2021-05-30T07:51:46Z</time>
      </trkpt>
      <trkpt lat="49.04425" lon="2.00362">
        <ele>107.8</ele>
        <time>2021-05-30T07:51:52Z</time>
      </trkpt>
      <trkpt lat="49.0442" lon="2.0034">
        <ele>107.51</ele>
        <time>2021-05-30T07:52:07Z</time>
      </trkpt>
      <trkpt lat="49.04416" lon="2.00298">
        <ele>107.65</ele>
        <time>2021-05-30T07:52:28Z</time>
      </trkpt>
      <trkpt lat="49.04414" lon="2.00295">
        <ele>107.63</ele>
        <time>2021-05-30T07:52:30Z</time>
      </trkpt>
      <trkpt lat="49.04409" lon="2.0029">
        <ele>107.72</ele>
        <time>2021-05-30T07:52:36Z</time>
      </trkpt>
      <trkpt lat="49.04413" lon="2.00261">
        <ele>107.62</ele>
        <time>2021-05-30T07:52:54Z</time>
      </trkpt>
      <trkpt lat="49.04407" lon="2.00243">
        <ele>107.92</ele>
        <time>2021-05-30T07:53:09Z</time>
      </trkpt>
      <trkpt lat="49.04389" lon="2.00235">
        <ele>108.53</ele>
        <time>2021-05-30T07:53:27Z</time>
      </trkpt>
      <trkpt lat="49.04384" lon="2.00231">
        <ele>108.64</ele>
        <time>2021-05-30T07:53:31Z</time>
      </trkpt>
      <trkpt lat="49.04366" lon="2.00223">
        <ele>109.22</ele>
        <time>2021-05-30T07:53:48Z</time>
      </trkpt>
      <trkpt lat="49.04348" lon="2.00214">
        <ele>109.37</ele>
        <time>2021-05-30T07:54:05Z</time>
      </trkpt>
      <trkpt lat="49.04346" lon="2.00211">
        <ele>109.63</ele>
        <time>2021-05-30T07:54:07Z</time>
      </trkpt>
      <trkpt lat="49.04333" lon="2.00225">
        <ele>110.27</ele>
        <time>2021-05-30T07:54:23Z</time>
      </trkpt>
      <trkpt lat="49.04327" lon="2.00246">
        <ele>110.19</ele>
        <time>2021-05-30T07:54:39Z</time>
      </trkpt>
      <trkpt lat="49.04318" lon="2.00275">
        <ele>111.02</ele>
        <time>2021-05-30T07:54:58Z</time>
      </trkpt>
      <trkpt lat="49.04309" lon="2.003">
        <ele>111.44</ele>
        <time>2021-05-30T07:55:14Z</time>
      </trkpt>
      <trkpt lat="49.04302" lon="2.00308">
        <ele>111.11</ele>
        <time>2021-05-30T07:55:23Z</time>
      </trkpt>
      <trkpt lat="49.043" lon="2.00308">
        <ele>111.26</ele>
        <time>2021-05-30T07:55:25Z</time>
      </trkpt>
      <trkpt lat="49.04283" lon="2.00305">
        <ele>111.34</ele>
        <time>2021-05-30T07:55:39Z</time>
      </trkpt>
      <trkpt lat="49.04275" lon="2.00328">
        <ele>111.4</ele>
        <time>2021-05-30T07:55:55Z</time>
      </trkpt>
      <trkpt lat="49.0427" lon="2.00349">
        <ele>111.48</ele>
        <time>2021-05-30T07:56:10Z</time>
      </trkpt>
      <trkpt lat="49.04262" lon="2.00381">
        <ele>113.62</ele>
        <time>2021-05-30T07:56:32Z</time>
      </trkpt>
      <trkpt lat="49.04256" lon="2.00402">
        <ele>112.8</ele>
        <time>2021-05-30T07:56:49Z</time>
      </trkpt>
      <trkpt lat="49.04249" lon="2.00428">
        <ele>113.31</ele>
        <time>2021-05-30T07:57:06Z</time>
      </trkpt>
      <trkpt lat="49.04238" lon="2.00455">
        <ele>112.96</ele>
        <time>2021-05-30T07:57:20Z</time>
      </trkpt>
      <trkpt lat="49.04245" lon="2.00475">
        <ele>112.98</ele>
        <time>2021-05-30T07:57:36Z</time>
      </trkpt>
      <trkpt lat="49.04241" lon="2.005">
        <ele>113.36</ele>
        <time>2021-05-30T07:57:51Z</time>
      </trkpt>
      <trkpt lat="49.04239" lon="2.00505">
        <ele>113.22</ele>
        <time>2021-05-30T07:57:54Z</time>
      </trkpt>
      <trkpt lat="49.04234" lon="2.00509">
        <ele>113.37</ele>
        <time>2021-05-30T07:57:57Z</time>
      </trkpt>
      <trkpt lat="49.04217" lon="2.00521">
        <ele>113.89</ele>
        <time>2021-05-30T07:58:13Z</time>
      </trkpt>
      <trkpt lat="49.04216" lon="2.00522">
        <ele>113.48</ele>
        <time>2021-05-30T07:58:14Z</time>
      </trkpt>
      <trkpt lat="49.04213" lon="2.00529">
        <ele>113.21</ele>
        <time>2021-05-30T07:58:19Z</time>
      </trkpt>
      <trkpt lat="49.04213" lon="2.00532">
        <ele>113.07</ele>
        <time>2021-05-30T07:58:21Z</time>
      </trkpt>
      <trkpt lat="49.04207" lon="2.00557">
        <ele>113.28</ele>
        <time>2021-05-30T07:58:38Z</time>
      </trkpt>
      <trkpt lat="49.04202" lon="2.00581">
        <ele>112.3</ele>
        <time>2021-05-30T07:58:56Z</time>
      </trkpt>
      <trkpt lat="49.04192" lon="2.00598">
        <ele>112.88</ele>
        <time>2021-05-30T07:59:10Z</time>
      </trkpt>
      <trkpt lat="49.04189" lon="2.00602">
        <ele>112.6</ele>
        <time>2021-05-30T07:59:13Z</time>
      </trkpt>
      <trkpt lat="49.04179" lon="2.00629">
        <ele>111.98</ele>
        <time>2021-05-30T07:59:31Z</time>
      </trkpt>
      <trkpt lat="49.0418" lon="2.00631">
        <ele>112.06</ele>
        <time>2021-05-30T07:59:33Z</time>
      </trkpt>
      <trkpt lat="49.04175" lon="2.00647">
        <ele>111.38</ele>
        <time>2021-05-30T07:59:46Z</time>
      </trkpt>
      <trkpt lat="49.04172" lon="2.00654">
        <ele>111.32</ele>
        <time>2021-05-30T07:59:51Z</time>
      </trkpt>
      <trkpt lat="49.04168" lon="2.00661">
        <ele>111.06</ele>
        <time>2021-05-30T07:59:56Z</time>
      </trkpt>
      <trkpt lat="49.04156" lon="2.00669">
        <ele>111.18</ele>
        <time>2021-05-30T08:00:10Z</time>
      </trkpt>
      <trkpt lat="49.04143" lon="2.00678">
        <ele>110.81</ele>
        <time>2021-05-30T08:00:26Z</time>
      </trkpt>
      <trkpt lat="49.04138" lon="2.00687">
        <ele>111.27</ele>
        <time>2021-05-30T08:00:33Z</time>
      </trkpt>
      <trkpt lat="49.04128" lon="2.00694">
        <ele>110.79</ele>
        <time>2021-05-30T08:00:44Z</time>
      </trkpt>
      <trkpt lat="49.04116" lon="2.00702">
        <ele>109.98</ele>
        <time>2021-05-30T08:00:58Z</time>
      </trkpt>
      <trkpt lat="49.04103" lon="2.00709">
        <ele>110.4</ele>
        <time>2021-05-30T08:01:12Z</time>
      </trkpt>
      <trkpt lat="49.04091" lon="2.00716">
        <ele>110.55</ele>
        <time>2021-05-30T08:01:26Z</time>
      </trkpt>
      <trkpt lat="49.04072" lon="2.00725">
        <ele>110.48</ele>
        <time>2021-05-30T08:01:44Z</time>
      </trkpt>
      <trkpt lat="49.04059" lon="2.00731">
        <ele>110.23</ele>
        <time>2021-05-30T08:02:01Z</time>
      </trkpt>
      <trkpt lat="49.04043" lon="2.00736">
        <ele>111.18</ele>
        <time>2021-05-30T08:02:17Z</time>
      </trkpt>
      <trkpt lat="49.0404" lon="2.00737">
        <ele>110.39</ele>
        <time>2021-05-30T08:02:19Z</time>
      </trkpt>
      <trkpt lat="49.0402" lon="2.00749">
        <ele>110.53</ele>
        <time>2021-05-30T08:02:36Z</time>
      </trkpt>
      <trkpt lat="49.04007" lon="2.00763">
        <ele>111.01</ele>
        <time>2021-05-30T08:02:51Z</time>
      </trkpt>
      <trkpt lat="49.0399" lon="2.00774">
        <ele>110.61</ele>
        <time>2021-05-30T08:03:09Z</time>
      </trkpt>
      <trkpt lat="49.03977" lon="2.00788">
        <ele>109.95</ele>
        <time>2021-05-30T08:03:24Z</time>
      </trkpt>
      <trkpt lat="49.03961" lon="2.00799">
        <ele>109.68</ele>
        <time>2021-05-30T08:03:40Z</time>
      </trkpt>
      <trkpt lat="49.03951" lon="2.00812">
        <ele>109.77</ele>
        <time>2021-05-30T08:03:53Z</time>
      </trkpt>
      <trkpt lat="49.03937" lon="2.00832">
        <ele>109.66</ele>
        <time>2021-05-30T08:04:10Z</time>
      </trkpt>
      <trkpt lat="49.03929" lon="2.00825">
        <ele>109.7</ele>
        <time>2021-05-30T08:04:26Z</time>
      </trkpt>
      <trkpt lat="49.03926" lon="2.00819">
        <ele>110</ele>
        <time>2021-05-30T08:04:45Z</time>
      </trkpt>
      <trkpt lat="49.03922" lon="2.00814">
        <ele>110.21</ele>
        <time>2021-05-30T08:04:53Z</time>
      </trkpt>
      <trkpt lat="49.0392" lon="2.00812">
        <ele>110.21</ele>
        <time>2021-05-30T08:04:55Z</time>
      </trkpt>
      <trkpt lat="49.03907" lon="2.00797">
        <ele>111.55</ele>
        <time>2021-05-30T08:05:11Z</time>
      </trkpt>
      <trkpt lat="49.039" lon="2.00788">
        <ele>111.5</ele>
        <time>2021-05-30T08:05:22Z</time>
      </trkpt>
      <trkpt lat="49.03896" lon="2.00783">
        <ele>112.47</ele>
        <time>2021-05-30T08:05:28Z</time>
      </trkpt>
      <trkpt lat="49.03884" lon="2.00768">
        <ele>112.99</ele>
        <time>2021-05-30T08:05:42Z</time>
      </trkpt>
      <trkpt lat="49.03874" lon="2.00755">
        <ele>114.23</ele>
        <time>2021-05-30T08:05:56Z</time>
      </trkpt>
      <trkpt lat="49.03865" lon="2.00739">
        <ele>115.19</ele>
        <time>2021-05-30T08:06:08Z</time>
      </trkpt>
      <trkpt lat="49.03855" lon="2.00727">
        <ele>116.22</ele>
        <time>2021-05-30T08:06:21Z</time>
      </trkpt>
      <trkpt lat="49.03845" lon="2.00706">
        <ele>116.92</ele>
        <time>2021-05-30T08:06:36Z</time>
      </trkpt>
      <trkpt lat="49.03841" lon="2.00687">
        <ele>117.7</ele>
        <time>2021-05-30T08:06:49Z</time>
      </trkpt>
      <trkpt lat="49.03839" lon="2.00678">
        <ele>118.49</ele>
        <time>2021-05-30T08:06:55Z</time>
      </trkpt>
      <trkpt lat="49.03835" lon="2.00654">
        <ele>120.46</ele>
        <time>2021-05-30T08:07:12Z</time>
      </trkpt>
      <trkpt lat="49.03835" lon="2.00643">
        <ele>120.63</ele>
        <time>2021-05-30T08:07:18Z</time>
      </trkpt>
      <trkpt lat="49.03834" lon="2.00637">
        <ele>120.82</ele>
        <time>2021-05-30T08:07:21Z</time>
      </trkpt>
      <trkpt lat="49.0383" lon="2.00614">
        <ele>121.98</ele>
        <time>2021-05-30T08:07:35Z</time>
      </trkpt>
      <trkpt lat="49.03828" lon="2.00591">
        <ele>122.91</ele>
        <time>2021-05-30T08:07:49Z</time>
      </trkpt>
      <trkpt lat="49.03828" lon="2.00588">
        <ele>122.69</ele>
        <time>2021-05-30T08:07:51Z</time>
      </trkpt>
      <trkpt lat="49.03823" lon="2.00567">
        <ele>124.41</ele>
        <time>2021-05-30T08:08:05Z</time>
      </trkpt>
      <trkpt lat="49.03821" lon="2.00545">
        <ele>125.09</ele>
        <time>2021-05-30T08:08:19Z</time>
      </trkpt>
      <trkpt lat="49.0382" lon="2.00537">
        <ele>125.52</ele>
        <time>2021-05-30T08:08:24Z</time>
      </trkpt>
      <trkpt lat="49.03814" lon="2.00514">
        <ele>127.12</ele>
        <time>2021-05-30T08:08:42Z</time>
      </trkpt>
      <trkpt lat="49.03809" lon="2.00487">
        <ele>129.12</ele>
        <time>2021-05-30T08:09:01Z</time>
      </trkpt>
      <trkpt lat="49.03803" lon="2.00469">
        <ele>129.91</ele>
        <time>2021-05-30T08:09:14Z</time>
      </trkpt>
      <trkpt lat="49.03798" lon="2.00474">
        <ele>128.74</ele>
        <time>2021-05-30T08:09:31Z</time>
      </trkpt>
      <trkpt lat="49.03798" lon="2.00485">
        <ele>128.27</ele>
        <time>2021-05-30T08:09:45Z</time>
      </trkpt>
      <trkpt lat="49.03794" lon="2.00508">
        <ele>127.47</ele>
        <time>2021-05-30T08:10:02Z</time>
      </trkpt>
      <trkpt lat="49.03787" lon="2.00538">
        <ele>126.8</ele>
        <time>2021-05-30T08:10:24Z</time>
      </trkpt>
      <trkpt lat="49.03785" lon="2.0054">
        <ele>126.76</ele>
        <time>2021-05-30T08:10:31Z</time>
      </trkpt>
      <trkpt lat="49.03782" lon="2.00543">
        <ele>126.87</ele>
        <time>2021-05-30T08:10:52Z</time>
      </trkpt>
      <trkpt lat="49.03783" lon="2.00543">
        <ele>126.84</ele>
        <time>2021-05-30T08:11:12Z</time>
      </trkpt>
      <trkpt lat="49.03777" lon="2.00544">
        <ele>126.11</ele>
        <time>2021-05-30T08:11:34Z</time>
      </trkpt>
      <trkpt lat="49.03773" lon="2.00544">
        <ele>126.41</ele>
        <time>2021-05-30T08:11:52Z</time>
      </trkpt>
      <trkpt lat="49.03779" lon="2.00543">
        <ele>126.53</ele>
        <time>2021-05-30T08:12:10Z</time>
      </trkpt>
      <trkpt lat="49.03784" lon="2.00546">
        <ele>126.7</ele>
        <time>2021-05-30T08:12:32Z</time>
      </trkpt>
      <trkpt lat="49.03785" lon="2.00543">
        <ele>127.22</ele>
        <time>2021-05-30T08:12:52Z</time>
      </trkpt>
      <trkpt lat="49.03784" lon="2.00548">
        <ele>126.43</ele>
        <time>2021-05-30T08:13:14Z</time>
      </trkpt>
      <trkpt lat="49.03784" lon="2.00546">
        <ele>126.65</ele>
        <time>2021-05-30T08:13:44Z</time>
      </trkpt>
      <trkpt lat="49.03785" lon="2.00527">
        <ele>127.59</ele>
        <time>2021-05-30T08:14:03Z</time>
      </trkpt>
      <trkpt lat="49.03791" lon="2.00509">
        <ele>128.92</ele>
        <time>2021-05-30T08:14:21Z</time>
      </trkpt>
      <trkpt lat="49.03795" lon="2.00495">
        <ele>129.17</ele>
        <time>2021-05-30T08:14:31Z</time>
      </trkpt>
      <trkpt lat="49.038" lon="2.00464">
        <ele>129.7</ele>
        <time>2021-05-30T08:14:52Z</time>
      </trkpt>
      <trkpt lat="49.03796" lon="2.00461">
        <ele>130.38</ele>
        <time>2021-05-30T08:15:01Z</time>
      </trkpt>
      <trkpt lat="49.03781" lon="2.00442">
        <ele>130.95</ele>
        <time>2021-05-30T08:15:19Z</time>
      </trkpt>
      <trkpt lat="49.03774" lon="2.00434">
        <ele>132.3</ele>
        <time>2021-05-30T08:15:30Z</time>
      </trkpt>
      <trkpt lat="49.03764" lon="2.00425">
        <ele>132.82</ele>
        <time>2021-05-30T08:15:41Z</time>
      </trkpt>
      <trkpt lat="49.03756" lon="2.00416">
        <ele>133.27</ele>
        <time>2021-05-30T08:15:50Z</time>
      </trkpt>
      <trkpt lat="49.03753" lon="2.00393">
        <ele>134.27</ele>
        <time>2021-05-30T08:16:05Z</time>
      </trkpt>
      <trkpt lat="49.03753" lon="2.0039">
        <ele>134.56</ele>
        <time>2021-05-30T08:16:07Z</time>
      </trkpt>
      <trkpt lat="49.03752" lon="2.00372">
        <ele>133.88</ele>
        <time>2021-05-30T08:16:19Z</time>
      </trkpt>
      <trkpt lat="49.03755" lon="2.00344">
        <ele>134.13</ele>
        <time>2021-05-30T08:16:34Z</time>
      </trkpt>
      <trkpt lat="49.03754" lon="2.00332">
        <ele>134.49</ele>
        <time>2021-05-30T08:16:40Z</time>
      </trkpt>
      <trkpt lat="49.03753" lon="2.00329">
        <ele>134.73</ele>
        <time>2021-05-30T08:16:42Z</time>
      </trkpt>
      <trkpt lat="49.03753" lon="2.00325">
        <ele>134.85</ele>
        <time>2021-05-30T08:16:45Z</time>
      </trkpt>
      <trkpt lat="49.03751" lon="2.00311">
        <ele>135.58</ele>
        <time>2021-05-30T08:16:52Z</time>
      </trkpt>
      <trkpt lat="49.0375" lon="2.00302">
        <ele>135.43</ele>
        <time>2021-05-30T08:17:03Z</time>
      </trkpt>
      <trkpt lat="49.0375" lon="2.00294">
        <ele>135.69</ele>
        <time>2021-05-30T08:17:09Z</time>
      </trkpt>
      <trkpt lat="49.03749" lon="2.00287">
        <ele>135.56</ele>
        <time>2021-05-30T08:17:14Z</time>
      </trkpt>
      <trkpt lat="49.03746" lon="2.00283">
        <ele>135.79</ele>
        <time>2021-05-30T08:17:17Z</time>
      </trkpt>
      <trkpt lat="49.03743" lon="2.00271">
        <ele>136.6</ele>
        <time>2021-05-30T08:17:25Z</time>
      </trkpt>
      <trkpt lat="49.03742" lon="2.00267">
        <ele>136.69</ele>
        <time>2021-05-30T08:17:28Z</time>
      </trkpt>
      <trkpt lat="49.0374" lon="2.00262">
        <ele>137.72</ele>
        <time>2021-05-30T08:17:32Z</time>
      </trkpt>
      <trkpt lat="49.03732" lon="2.00244">
        <ele>139.03</ele>
        <time>2021-05-30T08:17:47Z</time>
      </trkpt>
      <trkpt lat="49.03722" lon="2.00224">
        <ele>140.42</ele>
        <time>2021-05-30T08:18:04Z</time>
      </trkpt>
      <trkpt lat="49.03719" lon="2.00217">
        <ele>141.55</ele>
        <time>2021-05-30T08:18:11Z</time>
      </trkpt>
      <trkpt lat="49.03708" lon="2.002">
        <ele>141.89</ele>
        <time>2021-05-30T08:18:24Z</time>
      </trkpt>
      <trkpt lat="49.03698" lon="2.00192">
        <ele>141.88</ele>
        <time>2021-05-30T08:18:34Z</time>
      </trkpt>
      <trkpt lat="49.03694" lon="2.00184">
        <ele>142.34</ele>
        <time>2021-05-30T08:18:40Z</time>
      </trkpt>
      <trkpt lat="49.03688" lon="2.00177">
        <ele>143.24</ele>
        <time>2021-05-30T08:18:47Z</time>
      </trkpt>
      <trkpt lat="49.03678" lon="2.00168">
        <ele>143.95</ele>
        <time>2021-05-30T08:18:57Z</time>
      </trkpt>
      <trkpt lat="49.03672" lon="2.00164">
        <ele>144.24</ele>
        <time>2021-05-30T08:19:02Z</time>
      </trkpt>
      <trkpt lat="49.03667" lon="2.00161">
        <ele>145.06</ele>
        <time>2021-05-30T08:19:07Z</time>
      </trkpt>
      <trkpt lat="49.03655" lon="2.00158">
        <ele>145.76</ele>
        <time>2021-05-30T08:19:17Z</time>
      </trkpt>
      <trkpt lat="49.03641" lon="2.00143">
        <ele>146.29</ele>
        <time>2021-05-30T08:19:32Z</time>
      </trkpt>
      <trkpt lat="49.03638" lon="2.00141">
        <ele>146.28</ele>
        <time>2021-05-30T08:19:35Z</time>
      </trkpt>
      <trkpt lat="49.03636" lon="2.00139">
        <ele>146.32</ele>
        <time>2021-05-30T08:19:37Z</time>
      </trkpt>
      <trkpt lat="49.03624" lon="2.00132">
        <ele>146.66</ele>
        <time>2021-05-30T08:19:50Z</time>
      </trkpt>
      <trkpt lat="49.03607" lon="2.00124">
        <ele>147.04</ele>
        <time>2021-05-30T08:20:05Z</time>
      </trkpt>
      <trkpt lat="49.03602" lon="2.00123">
        <ele>146.65</ele>
        <time>2021-05-30T08:20:09Z</time>
      </trkpt>
      <trkpt lat="49.03596" lon="2.00137">
        <ele>146.71</ele>
        <time>2021-05-30T08:20:22Z</time>
      </trkpt>
      <trkpt lat="49.03595" lon="2.00165">
        <ele>147.35</ele>
        <time>2021-05-30T08:20:43Z</time>
      </trkpt>
      <trkpt lat="49.03583" lon="2.00182">
        <ele>147.08</ele>
        <time>2021-05-30T08:20:59Z</time>
      </trkpt>
      <trkpt lat="49.03568" lon="2.00191">
        <ele>146.37</ele>
        <time>2021-05-30T08:21:18Z</time>
      </trkpt>
      <trkpt lat="49.03562" lon="2.00195">
        <ele>145.49</ele>
        <time>2021-05-30T08:21:27Z</time>
      </trkpt>
      <trkpt lat="49.03551" lon="2.002">
        <ele>145.42</ele>
        <time>2021-05-30T08:21:44Z</time>
      </trkpt>
      <trkpt lat="49.03537" lon="2.00209">
        <ele>144.88</ele>
        <time>2021-05-30T08:22:00Z</time>
      </trkpt>
      <trkpt lat="49.03528" lon="2.0021">
        <ele>146.87</ele>
        <time>2021-05-30T08:22:13Z</time>
      </trkpt>
      <trkpt lat="49.03523" lon="2.00208">
        <ele>147.06</ele>
        <time>2021-05-30T08:22:21Z</time>
      </trkpt>
      <trkpt lat="49.03519" lon="2.00197">
        <ele>148.21</ele>
        <time>2021-05-30T08:22:32Z</time>
      </trkpt>
      <trkpt lat="49.0352" lon="2.00184">
        <ele>147.42</ele>
        <time>2021-05-30T08:22:59Z</time>
      </trkpt>
      <trkpt lat="49.03515" lon="2.00179">
        <ele>147.84</ele>
        <time>2021-05-30T08:23:06Z</time>
      </trkpt>
      <trkpt lat="49.0351" lon="2.00176">
        <ele>147.87</ele>
        <time>2021-05-30T08:23:23Z</time>
      </trkpt>
      <trkpt lat="49.03505" lon="2.00177">
        <ele>147.84</ele>
        <time>2021-05-30T08:23:44Z</time>
      </trkpt>
      <trkpt lat="49.03499" lon="2.00181">
        <ele>146.02</ele>
        <time>2021-05-30T08:24:00Z</time>
      </trkpt>
      <trkpt lat="49.03489" lon="2.00184">
        <ele>145.76</ele>
        <time>2021-05-30T08:24:10Z</time>
      </trkpt>
      <trkpt lat="49.03472" lon="2.00193">
        <ele>145.24</ele>
        <time>2021-05-30T08:24:30Z</time>
      </trkpt>
      <trkpt lat="49.03464" lon="2.00193">
        <ele>144.96</ele>
        <time>2021-05-30T08:24:47Z</time>
      </trkpt>
      <trkpt lat="49.03456" lon="2.00186">
        <ele>145.39</ele>
        <time>2021-05-30T08:25:04Z</time>
      </trkpt>
      <trkpt lat="49.03455" lon="2.00186">
        <ele>145.19</ele>
        <time>2021-05-30T08:25:05Z</time>
      </trkpt>
      <trkpt lat="49.03451" lon="2.00186">
        <ele>144.98</ele>
        <time>2021-05-30T08:25:09Z</time>
      </trkpt>
      <trkpt lat="49.03445" lon="2.00186">
        <ele>144.81</ele>
        <time>2021-05-30T08:25:13Z</time>
      </trkpt>
      <trkpt lat="49.03443" lon="2.00186">
        <ele>144.7</ele>
        <time>2021-05-30T08:25:14Z</time>
      </trkpt>
      <trkpt lat="49.0344" lon="2.00186">
        <ele>144.82</ele>
        <time>2021-05-30T08:25:20Z</time>
      </trkpt>
      <trkpt lat="49.03427" lon="2.00195">
        <ele>145</ele>
        <time>2021-05-30T08:25:31Z</time>
      </trkpt>
      <trkpt lat="49.03416" lon="2.00203">
        <ele>143.98</ele>
        <time>2021-05-30T08:25:41Z</time>
      </trkpt>
      <trkpt lat="49.03416" lon="2.00202">
        <ele>143.82</ele>
        <time>2021-05-30T08:25:43Z</time>
      </trkpt>
      <trkpt lat="49.03417" lon="2.00201">
        <ele>142.71</ele>
        <time>2021-05-30T08:25:58Z</time>
      </trkpt>
      <trkpt lat="49.03406" lon="2.00216">
        <ele>140.67</ele>
        <time>2021-05-30T08:26:22Z</time>
      </trkpt>
      <trkpt lat="49.03396" lon="2.00206">
        <ele>139.83</ele>
        <time>2021-05-30T08:26:39Z</time>
      </trkpt>
      <trkpt lat="49.03376" lon="2.00197">
        <ele>138.75</ele>
        <time>2021-05-30T08:27:01Z</time>
      </trkpt>
      <trkpt lat="49.03357" lon="2.00199">
        <ele>137.59</ele>
        <time>2021-05-30T08:27:20Z</time>
      </trkpt>
      <trkpt lat="49.03351" lon="2.00199">
        <ele>137.91</ele>
        <time>2021-05-30T08:27:26Z</time>
      </trkpt>
      <trkpt lat="49.03343" lon="2.00196">
        <ele>137.86</ele>
        <time>2021-05-30T08:27:33Z</time>
      </trkpt>
      <trkpt lat="49.03335" lon="2.00193">
        <ele>136.76</ele>
        <time>2021-05-30T08:27:39Z</time>
      </trkpt>
      <trkpt lat="49.03334" lon="2.00194">
        <ele>137.02</ele>
        <time>2021-05-30T08:27:40Z</time>
      </trkpt>
      <trkpt lat="49.03333" lon="2.00194">
        <ele>137.03</ele>
        <time>2021-05-30T08:27:41Z</time>
      </trkpt>
      <trkpt lat="49.03327" lon="2.00194">
        <ele>136.87</ele>
        <time>2021-05-30T08:27:46Z</time>
      </trkpt>
      <trkpt lat="49.03326" lon="2.00195">
        <ele>136.86</ele>
        <time>2021-05-30T08:27:47Z</time>
      </trkpt>
      <trkpt lat="49.03307" lon="2.00195">
        <ele>135.66</ele>
        <time>2021-05-30T08:28:05Z</time>
      </trkpt>
      <trkpt lat="49.03292" lon="2.00198">
        <ele>134.88</ele>
        <time>2021-05-30T08:28:19Z</time>
      </trkpt>
      <trkpt lat="49.03285" lon="2.00201">
        <ele>134.22</ele>
        <time>2021-05-30T08:28:37Z</time>
      </trkpt>
      <trkpt lat="49.03282" lon="2.00204">
        <ele>134.73</ele>
        <time>2021-05-30T08:28:42Z</time>
      </trkpt>
      <trkpt lat="49.03281" lon="2.00205">
        <ele>134.87</ele>
        <time>2021-05-30T08:28:43Z</time>
      </trkpt>
      <trkpt lat="49.0328" lon="2.00206">
        <ele>134.76</ele>
        <time>2021-05-30T08:28:44Z</time>
      </trkpt>
      <trkpt lat="49.03273" lon="2.00215">
        <ele>134.29</ele>
        <time>2021-05-30T08:28:57Z</time>
      </trkpt>
      <trkpt lat="49.03259" lon="2.00225">
        <ele>132.59</ele>
        <time>2021-05-30T08:29:17Z</time>
      </trkpt>
      <trkpt lat="49.03249" lon="2.00233">
        <ele>132.42</ele>
        <time>2021-05-30T08:29:27Z</time>
      </trkpt>
      <trkpt lat="49.03231" lon="2.00246">
        <ele>130.9</ele>
        <time>2021-05-30T08:29:42Z</time>
      </trkpt>
      <trkpt lat="49.03227" lon="2.00248">
        <ele>131.01</ele>
        <time>2021-05-30T08:29:45Z</time>
      </trkpt>
      <trkpt lat="49.03215" lon="2.00256">
        <ele>130.24</ele>
        <time>2021-05-30T08:29:57Z</time>
      </trkpt>
      <trkpt lat="49.03213" lon="2.00257">
        <ele>130.09</ele>
        <time>2021-05-30T08:29:58Z</time>
      </trkpt>
      <trkpt lat="49.03194" lon="2.00267">
        <ele>129.68</ele>
        <time>2021-05-30T08:30:13Z</time>
      </trkpt>
      <trkpt lat="49.03192" lon="2.00268">
        <ele>129.39</ele>
        <time>2021-05-30T08:30:14Z</time>
      </trkpt>
      <trkpt lat="49.03177" lon="2.00273">
        <ele>129.68</ele>
        <time>2021-05-30T08:30:27Z</time>
      </trkpt>
      <trkpt lat="49.0316" lon="2.00277">
        <ele>128.94</ele>
        <time>2021-05-30T08:30:41Z</time>
      </trkpt>
      <trkpt lat="49.03145" lon="2.00271">
        <ele>127.88</ele>
        <time>2021-05-30T08:30:55Z</time>
      </trkpt>
      <trkpt lat="49.03129" lon="2.00263">
        <ele>127.55</ele>
        <time>2021-05-30T08:31:10Z</time>
      </trkpt>
      <trkpt lat="49.03114" lon="2.00263">
        <ele>127.22</ele>
        <time>2021-05-30T08:31:23Z</time>
      </trkpt>
      <trkpt lat="49.03109" lon="2.00262">
        <ele>126.84</ele>
        <time>2021-05-30T08:31:28Z</time>
      </trkpt>
      <trkpt lat="49.03095" lon="2.00268">
        <ele>127.22</ele>
        <time>2021-05-30T08:31:40Z</time>
      </trkpt>
      <trkpt lat="49.03089" lon="2.00268">
        <ele>127.34</ele>
        <time>2021-05-30T08:31:46Z</time>
      </trkpt>
      <trkpt lat="49.03087" lon="2.00268">
        <ele>127.22</ele>
        <time>2021-05-30T08:31:47Z</time>
      </trkpt>
      <trkpt lat="49.03086" lon="2.00268">
        <ele>127.04</ele>
        <time>2021-05-30T08:31:48Z</time>
      </trkpt>
      <trkpt lat="49.03085" lon="2.00267">
        <ele>126.91</ele>
        <time>2021-05-30T08:31:49Z</time>
      </trkpt>
      <trkpt lat="49.03083" lon="2.00268">
        <ele>126.96</ele>
        <time>2021-05-30T08:31:51Z</time>
      </trkpt>
      <trkpt lat="49.03081" lon="2.00269">
        <ele>127.09</ele>
        <time>2021-05-30T08:31:52Z</time>
      </trkpt>
      <trkpt lat="49.0308" lon="2.00269">
        <ele>126.92</ele>
        <time>2021-05-30T08:31:53Z</time>
      </trkpt>
      <trkpt lat="49.03078" lon="2.00269">
        <ele>127.38</ele>
        <time>2021-05-30T08:31:54Z</time>
      </trkpt>
      <trkpt lat="49.03077" lon="2.00269">
        <ele>127.23</ele>
        <time>2021-05-30T08:31:55Z</time>
      </trkpt>
      <trkpt lat="49.03065" lon="2.0027">
        <ele>128.16</ele>
        <time>2021-05-30T08:32:06Z</time>
      </trkpt>
      <trkpt lat="49.03048" lon="2.00275">
        <ele>127.84</ele>
        <time>2021-05-30T08:32:20Z</time>
      </trkpt>
      <trkpt lat="49.03041" lon="2.00276">
        <ele>128.53</ele>
        <time>2021-05-30T08:32:26Z</time>
      </trkpt>
      <trkpt lat="49.0304" lon="2.00276">
        <ele>128.49</ele>
        <time>2021-05-30T08:32:27Z</time>
      </trkpt>
      <trkpt lat="49.03038" lon="2.00276">
        <ele>128.67</ele>
        <time>2021-05-30T08:32:28Z</time>
      </trkpt>
      <trkpt lat="49.03032" lon="2.00279">
        <ele>129.05</ele>
        <time>2021-05-30T08:32:34Z</time>
      </trkpt>
      <trkpt lat="49.03031" lon="2.0028">
        <ele>128.76</ele>
        <time>2021-05-30T08:32:35Z</time>
      </trkpt>
      <trkpt lat="49.03017" lon="2.00283">
        <ele>128.19</ele>
        <time>2021-05-30T08:32:49Z</time>
      </trkpt>
      <trkpt lat="49.03003" lon="2.00285">
        <ele>128.78</ele>
        <time>2021-05-30T08:33:02Z</time>
      </trkpt>
      <trkpt lat="49.02985" lon="2.00291">
        <ele>128.62</ele>
        <time>2021-05-30T08:33:16Z</time>
      </trkpt>
      <trkpt lat="49.02983" lon="2.00292">
        <ele>128.45</ele>
        <time>2021-05-30T08:33:18Z</time>
      </trkpt>
      <trkpt lat="49.02982" lon="2.00293">
        <ele>128.37</ele>
        <time>2021-05-30T08:33:19Z</time>
      </trkpt>
      <trkpt lat="49.0298" lon="2.00293">
        <ele>128.38</ele>
        <time>2021-05-30T08:33:20Z</time>
      </trkpt>
      <trkpt lat="49.02979" lon="2.00294">
        <ele>128.8</ele>
        <time>2021-05-30T08:33:21Z</time>
      </trkpt>
      <trkpt lat="49.02966" lon="2.00299">
        <ele>128.98</ele>
        <time>2021-05-30T08:33:32Z</time>
      </trkpt>
      <trkpt lat="49.02954" lon="2.00304">
        <ele>128.81</ele>
        <time>2021-05-30T08:33:46Z</time>
      </trkpt>
      <trkpt lat="49.02939" lon="2.00307">
        <ele>129.32</ele>
        <time>2021-05-30T08:34:00Z</time>
      </trkpt>
      <trkpt lat="49.02931" lon="2.00305">
        <ele>129.86</ele>
        <time>2021-05-30T08:34:11Z</time>
      </trkpt>
      <trkpt lat="49.02926" lon="2.0031">
        <ele>129.73</ele>
        <time>2021-05-30T08:34:29Z</time>
      </trkpt>
      <trkpt lat="49.02922" lon="2.00312">
        <ele>130.22</ele>
        <time>2021-05-30T08:34:50Z</time>
      </trkpt>
      <trkpt lat="49.02916" lon="2.00315">
        <ele>130.37</ele>
        <time>2021-05-30T08:34:56Z</time>
      </trkpt>
      <trkpt lat="49.02915" lon="2.00315">
        <ele>129.97</ele>
        <time>2021-05-30T08:34:57Z</time>
      </trkpt>
      <trkpt lat="49.02903" lon="2.0032">
        <ele>130.45</ele>
        <time>2021-05-30T08:35:08Z</time>
      </trkpt>
      <trkpt lat="49.02892" lon="2.00323">
        <ele>131.47</ele>
        <time>2021-05-30T08:35:18Z</time>
      </trkpt>
      <trkpt lat="49.0289" lon="2.00323">
        <ele>131.28</ele>
        <time>2021-05-30T08:35:19Z</time>
      </trkpt>
      <trkpt lat="49.02889" lon="2.00324">
        <ele>131.33</ele>
        <time>2021-05-30T08:35:20Z</time>
      </trkpt>
      <trkpt lat="49.02888" lon="2.00324">
        <ele>131.47</ele>
        <time>2021-05-30T08:35:21Z</time>
      </trkpt>
      <trkpt lat="49.02876" lon="2.00328">
        <ele>132.05</ele>
        <time>2021-05-30T08:35:36Z</time>
      </trkpt>
      <trkpt lat="49.02861" lon="2.00334">
        <ele>132.5</ele>
        <time>2021-05-30T08:35:52Z</time>
      </trkpt>
      <trkpt lat="49.02848" lon="2.00341">
        <ele>133.46</ele>
        <time>2021-05-30T08:36:04Z</time>
      </trkpt>
      <trkpt lat="49.02846" lon="2.00342">
        <ele>133.96</ele>
        <time>2021-05-30T08:36:05Z</time>
      </trkpt>
      <trkpt lat="49.02842" lon="2.00344">
        <ele>134.34</ele>
        <time>2021-05-30T08:36:09Z</time>
      </trkpt>
      <trkpt lat="49.02841" lon="2.00344">
        <ele>133.69</ele>
        <time>2021-05-30T08:36:10Z</time>
      </trkpt>
      <trkpt lat="49.0284" lon="2.00345">
        <ele>134.13</ele>
        <time>2021-05-30T08:36:11Z</time>
      </trkpt>
      <trkpt lat="49.02829" lon="2.00348">
        <ele>134.84</ele>
        <time>2021-05-30T08:36:22Z</time>
      </trkpt>
      <trkpt lat="49.02828" lon="2.00348">
        <ele>134.93</ele>
        <time>2021-05-30T08:36:23Z</time>
      </trkpt>
      <trkpt lat="49.02827" lon="2.00349">
        <ele>134.83</ele>
        <time>2021-05-30T08:36:24Z</time>
      </trkpt>
      <trkpt lat="49.02815" lon="2.00354">
        <ele>134.86</ele>
        <time>2021-05-30T08:36:35Z</time>
      </trkpt>
      <trkpt lat="49.02811" lon="2.00355">
        <ele>135.24</ele>
        <time>2021-05-30T08:36:39Z</time>
      </trkpt>
      <trkpt lat="49.02809" lon="2.00356">
        <ele>135.6</ele>
        <time>2021-05-30T08:36:41Z</time>
      </trkpt>
      <trkpt lat="49.02808" lon="2.00357">
        <ele>135.38</ele>
        <time>2021-05-30T08:36:42Z</time>
      </trkpt>
      <trkpt lat="49.02806" lon="2.00357">
        <ele>135.44</ele>
        <time>2021-05-30T08:36:43Z</time>
      </trkpt>
      <trkpt lat="49.02805" lon="2.00358">
        <ele>135.11</ele>
        <time>2021-05-30T08:36:44Z</time>
      </trkpt>
      <trkpt lat="49.02803" lon="2.00359">
        <ele>134.89</ele>
        <time>2021-05-30T08:36:45Z</time>
      </trkpt>
      <trkpt lat="49.028" lon="2.00359">
        <ele>135.14</ele>
        <time>2021-05-30T08:36:48Z</time>
      </trkpt>
      <trkpt lat="49.02797" lon="2.0036">
        <ele>135.43</ele>
        <time>2021-05-30T08:36:51Z</time>
      </trkpt>
      <trkpt lat="49.02785" lon="2.00363">
        <ele>135.31</ele>
        <time>2021-05-30T08:37:02Z</time>
      </trkpt>
      <trkpt lat="49.02784" lon="2.00363">
        <ele>135.55</ele>
        <time>2021-05-30T08:37:03Z</time>
      </trkpt>
      <trkpt lat="49.02778" lon="2.00364">
        <ele>135.4</ele>
        <time>2021-05-30T08:37:09Z</time>
      </trkpt>
      <trkpt lat="49.02777" lon="2.00364">
        <ele>135.32</ele>
        <time>2021-05-30T08:37:10Z</time>
      </trkpt>
      <trkpt lat="49.02776" lon="2.00365">
        <ele>135.39</ele>
        <time>2021-05-30T08:37:11Z</time>
      </trkpt>
      <trkpt lat="49.02765" lon="2.00367">
        <ele>135.2</ele>
        <time>2021-05-30T08:37:23Z</time>
      </trkpt>
      <trkpt lat="49.02742" lon="2.00374">
        <ele>134.22</ele>
        <time>2021-05-30T08:37:42Z</time>
      </trkpt>
      <trkpt lat="49.02727" lon="2.0038">
        <ele>133.96</ele>
        <time>2021-05-30T08:37:54Z</time>
      </trkpt>
      <trkpt lat="49.02719" lon="2.00383">
        <ele>133.29</ele>
        <time>2021-05-30T08:38:01Z</time>
      </trkpt>
      <trkpt lat="49.02717" lon="2.00384">
        <ele>133.36</ele>
        <time>2021-05-30T08:38:02Z</time>
      </trkpt>
      <trkpt lat="49.02716" lon="2.00384">
        <ele>133.1</ele>
        <time>2021-05-30T08:38:03Z</time>
      </trkpt>
      <trkpt lat="49.02706" lon="2.00388">
        <ele>132.75</ele>
        <time>2021-05-30T08:38:13Z</time>
      </trkpt>
      <trkpt lat="49.0269" lon="2.00396">
        <ele>131.92</ele>
        <time>2021-05-30T08:38:27Z</time>
      </trkpt>
      <trkpt lat="49.02674" lon="2.00404">
        <ele>130.68</ele>
        <time>2021-05-30T08:38:40Z</time>
      </trkpt>
      <trkpt lat="49.02657" lon="2.00415">
        <ele>129.8</ele>
        <time>2021-05-30T08:38:53Z</time>
      </trkpt>
      <trkpt lat="49.02652" lon="2.0042">
        <ele>128.77</ele>
        <time>2021-05-30T08:38:59Z</time>
      </trkpt>
      <trkpt lat="49.02651" lon="2.0042">
        <ele>129.54</ele>
        <time>2021-05-30T08:39:00Z</time>
      </trkpt>
      <trkpt lat="49.0265" lon="2.00422">
        <ele>128.42</ele>
        <time>2021-05-30T08:39:01Z</time>
      </trkpt>
      <trkpt lat="49.0264" lon="2.00438">
        <ele>128.27</ele>
        <time>2021-05-30T08:39:13Z</time>
      </trkpt>
      <trkpt lat="49.02638" lon="2.00442">
        <ele>128.82</ele>
        <time>2021-05-30T08:39:16Z</time>
      </trkpt>
      <trkpt lat="49.0263" lon="2.00462">
        <ele>127.58</ele>
        <time>2021-05-30T08:39:29Z</time>
      </trkpt>
      <trkpt lat="49.02624" lon="2.00482">
        <ele>127.23</ele>
        <time>2021-05-30T08:39:41Z</time>
      </trkpt>
      <trkpt lat="49.02622" lon="2.00487">
        <ele>127.16</ele>
        <time>2021-05-30T08:39:44Z</time>
      </trkpt>
      <trkpt lat="49.0262" lon="2.00501">
        <ele>126.53</ele>
        <time>2021-05-30T08:39:52Z</time>
      </trkpt>
      <trkpt lat="49.0262" lon="2.00503">
        <ele>127.09</ele>
        <time>2021-05-30T08:39:53Z</time>
      </trkpt>
      <trkpt lat="49.02619" lon="2.00505">
        <ele>126.54</ele>
        <time>2021-05-30T08:39:54Z</time>
      </trkpt>
      <trkpt lat="49.02613" lon="2.00511">
        <ele>126.8</ele>
        <time>2021-05-30T08:40:02Z</time>
      </trkpt>
      <trkpt lat="49.02611" lon="2.00511">
        <ele>127.07</ele>
        <time>2021-05-30T08:40:03Z</time>
      </trkpt>
      <trkpt lat="49.02609" lon="2.00513">
        <ele>127.07</ele>
        <time>2021-05-30T08:40:05Z</time>
      </trkpt>
      <trkpt lat="49.02608" lon="2.00514">
        <ele>127.06</ele>
        <time>2021-05-30T08:40:06Z</time>
      </trkpt>
      <trkpt lat="49.02597" lon="2.00518">
        <ele>127.12</ele>
        <time>2021-05-30T08:40:17Z</time>
      </trkpt>
      <trkpt lat="49.02588" lon="2.00527">
        <ele>126.77</ele>
        <time>2021-05-30T08:40:32Z</time>
      </trkpt>
      <trkpt lat="49.02585" lon="2.00529">
        <ele>126.18</ele>
        <time>2021-05-30T08:40:35Z</time>
      </trkpt>
      <trkpt lat="49.02579" lon="2.00525">
        <ele>126.8</ele>
        <time>2021-05-30T08:40:41Z</time>
      </trkpt>
      <trkpt lat="49.02577" lon="2.0052">
        <ele>127.48</ele>
        <time>2021-05-30T08:40:45Z</time>
      </trkpt>
      <trkpt lat="49.02574" lon="2.00515">
        <ele>127.92</ele>
        <time>2021-05-30T08:40:49Z</time>
      </trkpt>
      <trkpt lat="49.0257" lon="2.00507">
        <ele>128.05</ele>
        <time>2021-05-30T08:40:56Z</time>
      </trkpt>
      <trkpt lat="49.02562" lon="2.00494">
        <ele>128.77</ele>
        <time>2021-05-30T08:41:08Z</time>
      </trkpt>
      <trkpt lat="49.0255" lon="2.00474">
        <ele>130.28</ele>
        <time>2021-05-30T08:41:26Z</time>
      </trkpt>
      <trkpt lat="49.02548" lon="2.0047">
        <ele>130.04</ele>
        <time>2021-05-30T08:41:29Z</time>
      </trkpt>
      <trkpt lat="49.02541" lon="2.0045">
        <ele>131.9</ele>
        <time>2021-05-30T08:41:46Z</time>
      </trkpt>
      <trkpt lat="49.02536" lon="2.00434">
        <ele>132.98</ele>
        <time>2021-05-30T08:41:56Z</time>
      </trkpt>
      <trkpt lat="49.02533" lon="2.00427">
        <ele>132.81</ele>
        <time>2021-05-30T08:42:00Z</time>
      </trkpt>
      <trkpt lat="49.02529" lon="2.00423">
        <ele>133.53</ele>
        <time>2021-05-30T08:42:04Z</time>
      </trkpt>
      <trkpt lat="49.02525" lon="2.00419">
        <ele>133.68</ele>
        <time>2021-05-30T08:42:08Z</time>
      </trkpt>
      <trkpt lat="49.02517" lon="2.00416">
        <ele>134.58</ele>
        <time>2021-05-30T08:42:16Z</time>
      </trkpt>
      <trkpt lat="49.02509" lon="2.0041">
        <ele>134.9</ele>
        <time>2021-05-30T08:42:22Z</time>
      </trkpt>
      <trkpt lat="49.02502" lon="2.00409">
        <ele>135.44</ele>
        <time>2021-05-30T08:42:28Z</time>
      </trkpt>
      <trkpt lat="49.0249" lon="2.00404">
        <ele>136.73</ele>
        <time>2021-05-30T08:42:39Z</time>
      </trkpt>
      <trkpt lat="49.02475" lon="2.00395">
        <ele>137.05</ele>
        <time>2021-05-30T08:42:53Z</time>
      </trkpt>
      <trkpt lat="49.02473" lon="2.00394">
        <ele>137.29</ele>
        <time>2021-05-30T08:42:55Z</time>
      </trkpt>
      <trkpt lat="49.0247" lon="2.00393">
        <ele>137.58</ele>
        <time>2021-05-30T08:42:58Z</time>
      </trkpt>
      <trkpt lat="49.0246" lon="2.00386">
        <ele>138.41</ele>
        <time>2021-05-30T08:43:11Z</time>
      </trkpt>
      <trkpt lat="49.02461" lon="2.00386">
        <ele>138.78</ele>
        <time>2021-05-30T08:43:12Z</time>
      </trkpt>
      <trkpt lat="49.02475" lon="2.00394">
        <ele>137.77</ele>
        <time>2021-05-30T08:43:26Z</time>
      </trkpt>
      <trkpt lat="49.0248" lon="2.00397">
        <ele>137.39</ele>
        <time>2021-05-30T08:43:30Z</time>
      </trkpt>
      <trkpt lat="49.02477" lon="2.00406">
        <ele>138.12</ele>
        <time>2021-05-30T08:43:43Z</time>
      </trkpt>
      <trkpt lat="49.02466" lon="2.00412">
        <ele>137.42</ele>
        <time>2021-05-30T08:43:55Z</time>
      </trkpt>
      <trkpt lat="49.02452" lon="2.00419">
        <ele>137.42</ele>
        <time>2021-05-30T08:44:09Z</time>
      </trkpt>
      <trkpt lat="49.02437" lon="2.00423">
        <ele>136.35</ele>
        <time>2021-05-30T08:44:24Z</time>
      </trkpt>
      <trkpt lat="49.02424" lon="2.00433">
        <ele>135.14</ele>
        <time>2021-05-30T08:44:44Z</time>
      </trkpt>
      <trkpt lat="49.02414" lon="2.0044">
        <ele>132.8</ele>
        <time>2021-05-30T08:45:04Z</time>
      </trkpt>
      <trkpt lat="49.02402" lon="2.0045">
        <ele>131.45</ele>
        <time>2021-05-30T08:45:20Z</time>
      </trkpt>
      <trkpt lat="49.02388" lon="2.00455">
        <ele>130.89</ele>
        <time>2021-05-30T08:45:33Z</time>
      </trkpt>
      <trkpt lat="49.02373" lon="2.00475">
        <ele>130.1</ele>
        <time>2021-05-30T08:45:46Z</time>
      </trkpt>
      <trkpt lat="49.02373" lon="2.00491">
        <ele>128.7</ele>
        <time>2021-05-30T08:46:03Z</time>
      </trkpt>
      <trkpt lat="49.02363" lon="2.00492">
        <ele>127.46</ele>
        <time>2021-05-30T08:46:20Z</time>
      </trkpt>
      <trkpt lat="49.02361" lon="2.00492">
        <ele>127.46</ele>
        <time>2021-05-30T08:46:24Z</time>
      </trkpt>
      <trkpt lat="49.02349" lon="2.00499">
        <ele>125.98</ele>
        <time>2021-05-30T08:46:41Z</time>
      </trkpt>
      <trkpt lat="49.02348" lon="2.00501">
        <ele>125.78</ele>
        <time>2021-05-30T08:46:44Z</time>
      </trkpt>
      <trkpt lat="49.02332" lon="2.00513">
        <ele>123.75</ele>
        <time>2021-05-30T08:46:59Z</time>
      </trkpt>
      <trkpt lat="49.02315" lon="2.00525">
        <ele>122.37</ele>
        <time>2021-05-30T08:47:18Z</time>
      </trkpt>
      <trkpt lat="49.02313" lon="2.00528">
        <ele>122.79</ele>
        <time>2021-05-30T08:47:20Z</time>
      </trkpt>
      <trkpt lat="49.0231" lon="2.00539">
        <ele>122.13</ele>
        <time>2021-05-30T08:47:27Z</time>
      </trkpt>
      <trkpt lat="49.02315" lon="2.00549">
        <ele>122.31</ele>
        <time>2021-05-30T08:47:45Z</time>
      </trkpt>
      <trkpt lat="49.02317" lon="2.00548">
        <ele>122.08</ele>
        <time>2021-05-30T08:48:14Z</time>
      </trkpt>
      <trkpt lat="49.02323" lon="2.00552">
        <ele>122.28</ele>
        <time>2021-05-30T08:48:32Z</time>
      </trkpt>
      <trkpt lat="49.0232" lon="2.00552">
        <ele>122.49</ele>
        <time>2021-05-30T08:48:56Z</time>
      </trkpt>
      <trkpt lat="49.02318" lon="2.00553">
        <ele>122.06</ele>
        <time>2021-05-30T08:49:17Z</time>
      </trkpt>
      <trkpt lat="49.0232" lon="2.00558">
        <ele>122.11</ele>
        <time>2021-05-30T08:49:32Z</time>
      </trkpt>
      <trkpt lat="49.02327" lon="2.00576">
        <ele>121.45</ele>
        <time>2021-05-30T08:49:52Z</time>
      </trkpt>
      <trkpt lat="49.02329" lon="2.00583">
        <ele>121.12</ele>
        <time>2021-05-30T08:49:59Z</time>
      </trkpt>
      <trkpt lat="49.02323" lon="2.00601">
        <ele>120.18</ele>
        <time>2021-05-30T08:50:13Z</time>
      </trkpt>
      <trkpt lat="49.02322" lon="2.00601">
        <ele>120.32</ele>
        <time>2021-05-30T08:50:37Z</time>
      </trkpt>
      <trkpt lat="49.02321" lon="2.00601">
        <ele>120.5</ele>
        <time>2021-05-30T08:51:01Z</time>
      </trkpt>
      <trkpt lat="49.02316" lon="2.006">
        <ele>120.11</ele>
        <time>2021-05-30T08:51:27Z</time>
      </trkpt>
      <trkpt lat="49.0231" lon="2.00611">
        <ele>119.22</ele>
        <time>2021-05-30T08:51:40Z</time>
      </trkpt>
      <trkpt lat="49.02305" lon="2.00613">
        <ele>119.05</ele>
        <time>2021-05-30T08:51:58Z</time>
      </trkpt>
      <trkpt lat="49.02295" lon="2.00624">
        <ele>117.51</ele>
        <time>2021-05-30T08:52:15Z</time>
      </trkpt>
      <trkpt lat="49.02288" lon="2.00631">
        <ele>116.54</ele>
        <time>2021-05-30T08:52:23Z</time>
      </trkpt>
      <trkpt lat="49.02273" lon="2.00645">
        <ele>115.44</ele>
        <time>2021-05-30T08:52:38Z</time>
      </trkpt>
      <trkpt lat="49.02264" lon="2.00652">
        <ele>114.7</ele>
        <time>2021-05-30T08:52:47Z</time>
      </trkpt>
      <trkpt lat="49.02262" lon="2.00654">
        <ele>114.29</ele>
        <time>2021-05-30T08:52:49Z</time>
      </trkpt>
      <trkpt lat="49.02243" lon="2.0067">
        <ele>113.36</ele>
        <time>2021-05-30T08:53:05Z</time>
      </trkpt>
      <trkpt lat="49.02226" lon="2.00684">
        <ele>111.88</ele>
        <time>2021-05-30T08:53:18Z</time>
      </trkpt>
      <trkpt lat="49.02215" lon="2.00695">
        <ele>110.95</ele>
        <time>2021-05-30T08:53:31Z</time>
      </trkpt>
      <trkpt lat="49.02211" lon="2.00701">
        <ele>111.37</ele>
        <time>2021-05-30T08:53:41Z</time>
      </trkpt>
      <trkpt lat="49.02209" lon="2.00702">
        <ele>111.51</ele>
        <time>2021-05-30T08:53:42Z</time>
      </trkpt>
      <trkpt lat="49.02208" lon="2.00703">
        <ele>110.94</ele>
        <time>2021-05-30T08:53:43Z</time>
      </trkpt>
      <trkpt lat="49.02207" lon="2.00704">
        <ele>111.1</ele>
        <time>2021-05-30T08:53:44Z</time>
      </trkpt>
      <trkpt lat="49.02205" lon="2.00705">
        <ele>110.99</ele>
        <time>2021-05-30T08:53:45Z</time>
      </trkpt>
      <trkpt lat="49.022" lon="2.0071">
        <ele>111.11</ele>
        <time>2021-05-30T08:53:51Z</time>
      </trkpt>
      <trkpt lat="49.02197" lon="2.0071">
        <ele>110.94</ele>
        <time>2021-05-30T08:54:03Z</time>
      </trkpt>
      <trkpt lat="49.02195" lon="2.0071">
        <ele>111.56</ele>
        <time>2021-05-30T08:54:32Z</time>
      </trkpt>
      <trkpt lat="49.02193" lon="2.0071">
        <ele>114.98</ele>
        <time>2021-05-30T08:54:47Z</time>
      </trkpt>
      <trkpt lat="49.02193" lon="2.0071">
        <ele>111.68</ele>
        <time>2021-05-30T08:54:48Z</time>
      </trkpt>
      <trkpt lat="49.02193" lon="2.00712">
        <ele>111.03</ele>
        <time>2021-05-30T08:55:10Z</time>
      </trkpt>
      <trkpt lat="49.02186" lon="2.00721">
        <ele>109.97</ele>
        <time>2021-05-30T08:55:30Z</time>
      </trkpt>
      <trkpt lat="49.02182" lon="2.00723">
        <ele>110.19</ele>
        <time>2021-05-30T08:55:34Z</time>
      </trkpt>
      <trkpt lat="49.02167" lon="2.00738">
        <ele>109.85</ele>
        <time>2021-05-30T08:55:48Z</time>
      </trkpt>
      <trkpt lat="49.02159" lon="2.00746">
        <ele>109.62</ele>
        <time>2021-05-30T08:55:57Z</time>
      </trkpt>
      <trkpt lat="49.02157" lon="2.00747">
        <ele>109.76</ele>
        <time>2021-05-30T08:55:58Z</time>
      </trkpt>
      <trkpt lat="49.02154" lon="2.0075">
        <ele>109.82</ele>
        <time>2021-05-30T08:56:08Z</time>
      </trkpt>
      <trkpt lat="49.0214" lon="2.00761">
        <ele>109.08</ele>
        <time>2021-05-30T08:56:26Z</time>
      </trkpt>
      <trkpt lat="49.02125" lon="2.00774">
        <ele>108.86</ele>
        <time>2021-05-30T08:56:41Z</time>
      </trkpt>
      <trkpt lat="49.02111" lon="2.00789">
        <ele>108.45</ele>
        <time>2021-05-30T08:56:57Z</time>
      </trkpt>
      <trkpt lat="49.02098" lon="2.008">
        <ele>108.26</ele>
        <time>2021-05-30T08:57:11Z</time>
      </trkpt>
      <trkpt lat="49.02091" lon="2.00806">
        <ele>108.17</ele>
        <time>2021-05-30T08:57:18Z</time>
      </trkpt>
      <trkpt lat="49.0209" lon="2.00807">
        <ele>108.53</ele>
        <time>2021-05-30T08:57:19Z</time>
      </trkpt>
      <trkpt lat="49.02078" lon="2.00816">
        <ele>107.54</ele>
        <time>2021-05-30T08:57:34Z</time>
      </trkpt>
      <trkpt lat="49.02059" lon="2.00833">
        <ele>106.39</ele>
        <time>2021-05-30T08:57:56Z</time>
      </trkpt>
      <trkpt lat="49.02054" lon="2.00838">
        <ele>106.62</ele>
        <time>2021-05-30T08:58:11Z</time>
      </trkpt>
      <trkpt lat="49.02052" lon="2.00838">
        <ele>106.73</ele>
        <time>2021-05-30T08:58:31Z</time>
      </trkpt>
      <trkpt lat="49.02047" lon="2.00827">
        <ele>106.96</ele>
        <time>2021-05-30T08:58:47Z</time>
      </trkpt>
      <trkpt lat="49.02047" lon="2.00823">
        <ele>107.53</ele>
        <time>2021-05-30T08:58:50Z</time>
      </trkpt>
      <trkpt lat="49.02047" lon="2.00821">
        <ele>107.2</ele>
        <time>2021-05-30T08:58:51Z</time>
      </trkpt>
      <trkpt lat="49.02046" lon="2.00806">
        <ele>107.49</ele>
        <time>2021-05-30T08:59:06Z</time>
      </trkpt>
      <trkpt lat="49.02047" lon="2.00806">
        <ele>109.14</ele>
        <time>2021-05-30T08:59:09Z</time>
      </trkpt>
      <trkpt lat="49.02045" lon="2.00792">
        <ele>108.77</ele>
        <time>2021-05-30T08:59:27Z</time>
      </trkpt>
      <trkpt lat="49.02044" lon="2.00766">
        <ele>110.38</ele>
        <time>2021-05-30T08:59:46Z</time>
      </trkpt>
      <trkpt lat="49.0204" lon="2.00736">
        <ele>111.98</ele>
        <time>2021-05-30T09:00:09Z</time>
      </trkpt>
      <trkpt lat="49.02038" lon="2.0071">
        <ele>112.75</ele>
        <time>2021-05-30T09:00:26Z</time>
      </trkpt>
      <trkpt lat="49.02036" lon="2.00693">
        <ele>113.55</ele>
        <time>2021-05-30T09:00:36Z</time>
      </trkpt>
      <trkpt lat="49.02035" lon="2.00674">
        <ele>114.35</ele>
        <time>2021-05-30T09:00:49Z</time>
      </trkpt>
      <trkpt lat="49.02034" lon="2.00672">
        <ele>114.31</ele>
        <time>2021-05-30T09:00:51Z</time>
      </trkpt>
      <trkpt lat="49.02031" lon="2.00651">
        <ele>115.75</ele>
        <time>2021-05-30T09:01:03Z</time>
      </trkpt>
      <trkpt lat="49.02029" lon="2.00633">
        <ele>116.14</ele>
        <time>2021-05-30T09:01:15Z</time>
      </trkpt>
      <trkpt lat="49.02027" lon="2.00607">
        <ele>117.73</ele>
        <time>2021-05-30T09:01:34Z</time>
      </trkpt>
      <trkpt lat="49.02024" lon="2.00581">
        <ele>119.31</ele>
        <time>2021-05-30T09:01:50Z</time>
      </trkpt>
      <trkpt lat="49.0202" lon="2.00562">
        <ele>120.02</ele>
        <time>2021-05-30T09:02:03Z</time>
      </trkpt>
      <trkpt lat="49.02018" lon="2.00553">
        <ele>120.17</ele>
        <time>2021-05-30T09:02:09Z</time>
      </trkpt>
      <trkpt lat="49.02014" lon="2.00542">
        <ele>120.94</ele>
        <time>2021-05-30T09:02:17Z</time>
      </trkpt>
      <trkpt lat="49.02006" lon="2.00514">
        <ele>121.93</ele>
        <time>2021-05-30T09:02:35Z</time>
      </trkpt>
      <trkpt lat="49.02001" lon="2.00491">
        <ele>123.45</ele>
        <time>2021-05-30T09:02:51Z</time>
      </trkpt>
      <trkpt lat="49.01995" lon="2.0047">
        <ele>124.4</ele>
        <time>2021-05-30T09:03:06Z</time>
      </trkpt>
      <trkpt lat="49.0199" lon="2.00449">
        <ele>125.89</ele>
        <time>2021-05-30T09:03:20Z</time>
      </trkpt>
      <trkpt lat="49.01986" lon="2.00436">
        <ele>126.2</ele>
        <time>2021-05-30T09:03:29Z</time>
      </trkpt>
      <trkpt lat="49.01987" lon="2.00433">
        <ele>125.91</ele>
        <time>2021-05-30T09:03:31Z</time>
      </trkpt>
      <trkpt lat="49.01986" lon="2.00424">
        <ele>126.83</ele>
        <time>2021-05-30T09:03:37Z</time>
      </trkpt>
      <trkpt lat="49.01985" lon="2.00413">
        <ele>127.61</ele>
        <time>2021-05-30T09:03:45Z</time>
      </trkpt>
      <trkpt lat="49.01982" lon="2.00397">
        <ele>127.9</ele>
        <time>2021-05-30T09:03:55Z</time>
      </trkpt>
      <trkpt lat="49.01984" lon="2.00386">
        <ele>129.26</ele>
        <time>2021-05-30T09:04:10Z</time>
      </trkpt>
      <trkpt lat="49.01983" lon="2.00377">
        <ele>130.56</ele>
        <time>2021-05-30T09:04:25Z</time>
      </trkpt>
      <trkpt lat="49.01989" lon="2.00376">
        <ele>130.38</ele>
        <time>2021-05-30T09:04:44Z</time>
      </trkpt>
      <trkpt lat="49.01984" lon="2.00372">
        <ele>130.09</ele>
        <time>2021-05-30T09:05:05Z</time>
      </trkpt>
      <trkpt lat="49.01984" lon="2.00362">
        <ele>131.31</ele>
        <time>2021-05-30T09:05:20Z</time>
      </trkpt>
      <trkpt lat="49.01984" lon="2.00351">
        <ele>132.07</ele>
        <time>2021-05-30T09:05:37Z</time>
      </trkpt>
      <trkpt lat="49.01984" lon="2.00338">
        <ele>133.29</ele>
        <time>2021-05-30T09:05:48Z</time>
      </trkpt>
      <trkpt lat="49.01984" lon="2.00314">
        <ele>134.77</ele>
        <time>2021-05-30T09:06:03Z</time>
      </trkpt>
      <trkpt lat="49.01985" lon="2.00297">
        <ele>135.91</ele>
        <time>2021-05-30T09:06:18Z</time>
      </trkpt>
      <trkpt lat="49.01985" lon="2.00274">
        <ele>138.15</ele>
        <time>2021-05-30T09:06:41Z</time>
      </trkpt>
      <trkpt lat="49.01983" lon="2.00256">
        <ele>139.09</ele>
        <time>2021-05-30T09:07:01Z</time>
      </trkpt>
      <trkpt lat="49.01987" lon="2.00249">
        <ele>139.96</ele>
        <time>2021-05-30T09:07:17Z</time>
      </trkpt>
      <trkpt lat="49.01991" lon="2.00247">
        <ele>139.96</ele>
        <time>2021-05-30T09:07:29Z</time>
      </trkpt>
      <trkpt lat="49.0199" lon="2.00233">
        <ele>140.34</ele>
        <time>2021-05-30T09:07:50Z</time>
      </trkpt>
      <trkpt lat="49.01991" lon="2.00215">
        <ele>142.52</ele>
        <time>2021-05-30T09:08:08Z</time>
      </trkpt>
      <trkpt lat="49.01986" lon="2.002">
        <ele>143.31</ele>
        <time>2021-05-30T09:08:20Z</time>
      </trkpt>
      <trkpt lat="49.01985" lon="2.00177">
        <ele>144.12</ele>
        <time>2021-05-30T09:08:39Z</time>
      </trkpt>
      <trkpt lat="49.01986" lon="2.00163">
        <ele>144.81</ele>
        <time>2021-05-30T09:08:49Z</time>
      </trkpt>
      <trkpt lat="49.01988" lon="2.00137">
        <ele>146.69</ele>
        <time>2021-05-30T09:09:05Z</time>
      </trkpt>
      <trkpt lat="49.01992" lon="2.00112">
        <ele>147.93</ele>
        <time>2021-05-30T09:09:26Z</time>
      </trkpt>
      <trkpt lat="49.01986" lon="2.00096">
        <ele>148.57</ele>
        <time>2021-05-30T09:09:41Z</time>
      </trkpt>
      <trkpt lat="49.01982" lon="2.00095">
        <ele>148.6</ele>
        <time>2021-05-30T09:10:06Z</time>
      </trkpt>
      <trkpt lat="49.01979" lon="2.00097">
        <ele>148.68</ele>
        <time>2021-05-30T09:10:29Z</time>
      </trkpt>
      <trkpt lat="49.01973" lon="2.00097">
        <ele>147.99</ele>
        <time>2021-05-30T09:10:49Z</time>
      </trkpt>
      <trkpt lat="49.01969" lon="2.00093">
        <ele>147.57</ele>
        <time>2021-05-30T09:11:01Z</time>
      </trkpt>
      <trkpt lat="49.01968" lon="2.00092">
        <ele>148.08</ele>
        <time>2021-05-30T09:11:03Z</time>
      </trkpt>
      <trkpt lat="49.01964" lon="2.00089">
        <ele>148.19</ele>
        <time>2021-05-30T09:11:26Z</time>
      </trkpt>
      <trkpt lat="49.01956" lon="2.00092">
        <ele>147.1</ele>
        <time>2021-05-30T09:11:48Z</time>
      </trkpt>
      <trkpt lat="49.0194" lon="2.00103">
        <ele>143.92</ele>
        <time>2021-05-30T09:12:10Z</time>
      </trkpt>
      <trkpt lat="49.01932" lon="2.00107">
        <ele>143.23</ele>
        <time>2021-05-30T09:12:30Z</time>
      </trkpt>
      <trkpt lat="49.01923" lon="2.00111">
        <ele>142.19</ele>
        <time>2021-05-30T09:12:46Z</time>
      </trkpt>
      <trkpt lat="49.01906" lon="2.00118">
        <ele>140.34</ele>
        <time>2021-05-30T09:13:08Z</time>
      </trkpt>
      <trkpt lat="49.01887" lon="2.00124">
        <ele>138.63</ele>
        <time>2021-05-30T09:13:28Z</time>
      </trkpt>
      <trkpt lat="49.01869" lon="2.00142">
        <ele>137.33</ele>
        <time>2021-05-30T09:13:49Z</time>
      </trkpt>
      <trkpt lat="49.01851" lon="2.00154">
        <ele>136.99</ele>
        <time>2021-05-30T09:14:07Z</time>
      </trkpt>
      <trkpt lat="49.01834" lon="2.00172">
        <ele>136.42</ele>
        <time>2021-05-30T09:14:27Z</time>
      </trkpt>
      <trkpt lat="49.01812" lon="2.00182">
        <ele>137.47</ele>
        <time>2021-05-30T09:14:45Z</time>
      </trkpt>
      <trkpt lat="49.01805" lon="2.00202">
        <ele>138.44</ele>
        <time>2021-05-30T09:15:04Z</time>
      </trkpt>
      <trkpt lat="49.01804" lon="2.00202">
        <ele>138.5</ele>
        <time>2021-05-30T09:15:05Z</time>
      </trkpt>
      <trkpt lat="49.01787" lon="2.00208">
        <ele>139.81</ele>
        <time>2021-05-30T09:15:25Z</time>
      </trkpt>
      <trkpt lat="49.01777" lon="2.00213">
        <ele>140.23</ele>
        <time>2021-05-30T09:15:36Z</time>
      </trkpt>
      <trkpt lat="49.01773" lon="2.00216">
        <ele>140.11</ele>
        <time>2021-05-30T09:15:41Z</time>
      </trkpt>
      <trkpt lat="49.01755" lon="2.00232">
        <ele>139.96</ele>
        <time>2021-05-30T09:15:58Z</time>
      </trkpt>
      <trkpt lat="49.01735" lon="2.0025">
        <ele>140.27</ele>
        <time>2021-05-30T09:16:16Z</time>
      </trkpt>
      <trkpt lat="49.01725" lon="2.00265">
        <ele>140.83</ele>
        <time>2021-05-30T09:16:32Z</time>
      </trkpt>
      <trkpt lat="49.01723" lon="2.00268">
        <ele>141.01</ele>
        <time>2021-05-30T09:16:35Z</time>
      </trkpt>
      <trkpt lat="49.01706" lon="2.00284">
        <ele>141.74</ele>
        <time>2021-05-30T09:16:50Z</time>
      </trkpt>
      <trkpt lat="49.01698" lon="2.00301">
        <ele>142.02</ele>
        <time>2021-05-30T09:17:04Z</time>
      </trkpt>
      <trkpt lat="49.01688" lon="2.00341">
        <ele>142.06</ele>
        <time>2021-05-30T09:17:28Z</time>
      </trkpt>
      <trkpt lat="49.01684" lon="2.00362">
        <ele>141</ele>
        <time>2021-05-30T09:17:51Z</time>
      </trkpt>
      <trkpt lat="49.01676" lon="2.00383">
        <ele>140.72</ele>
        <time>2021-05-30T09:18:05Z</time>
      </trkpt>
      <trkpt lat="49.01658" lon="2.00398">
        <ele>139.31</ele>
        <time>2021-05-30T09:18:26Z</time>
      </trkpt>
      <trkpt lat="49.01656" lon="2.00403">
        <ele>138.83</ele>
        <time>2021-05-30T09:18:31Z</time>
      </trkpt>
      <trkpt lat="49.01639" lon="2.00415">
        <ele>137.23</ele>
        <time>2021-05-30T09:18:53Z</time>
      </trkpt>
      <trkpt lat="49.01618" lon="2.00423">
        <ele>135.07</ele>
        <time>2021-05-30T09:19:16Z</time>
      </trkpt>
      <trkpt lat="49.01593" lon="2.00426">
        <ele>133.19</ele>
        <time>2021-05-30T09:19:39Z</time>
      </trkpt>
      <trkpt lat="49.01577" lon="2.0042">
        <ele>132.08</ele>
        <time>2021-05-30T09:19:57Z</time>
      </trkpt>
      <trkpt lat="49.01553" lon="2.00419">
        <ele>131.02</ele>
        <time>2021-05-30T09:20:19Z</time>
      </trkpt>
      <trkpt lat="49.01531" lon="2.00424">
        <ele>129.79</ele>
        <time>2021-05-30T09:20:43Z</time>
      </trkpt>
      <trkpt lat="49.01524" lon="2.00422">
        <ele>129.59</ele>
        <time>2021-05-30T09:20:51Z</time>
      </trkpt>
      <trkpt lat="49.01519" lon="2.00422">
        <ele>129.24</ele>
        <time>2021-05-30T09:20:55Z</time>
      </trkpt>
      <trkpt lat="49.015" lon="2.0043">
        <ele>128.99</ele>
        <time>2021-05-30T09:21:14Z</time>
      </trkpt>
      <trkpt lat="49.01483" lon="2.00437">
        <ele>129.65</ele>
        <time>2021-05-30T09:21:31Z</time>
      </trkpt>
      <trkpt lat="49.0147" lon="2.00444">
        <ele>130.7</ele>
        <time>2021-05-30T09:21:41Z</time>
      </trkpt>
      <trkpt lat="49.01465" lon="2.00453">
        <ele>131.22</ele>
        <time>2021-05-30T09:21:50Z</time>
      </trkpt>
      <trkpt lat="49.01463" lon="2.00456">
        <ele>131.64</ele>
        <time>2021-05-30T09:21:54Z</time>
      </trkpt>
      <trkpt lat="49.01459" lon="2.00461">
        <ele>132.43</ele>
        <time>2021-05-30T09:22:00Z</time>
      </trkpt>
      <trkpt lat="49.01456" lon="2.00462">
        <ele>132.42</ele>
        <time>2021-05-30T09:22:02Z</time>
      </trkpt>
      <trkpt lat="49.01445" lon="2.00477">
        <ele>135.36</ele>
        <time>2021-05-30T09:22:24Z</time>
      </trkpt>
      <trkpt lat="49.01435" lon="2.00499">
        <ele>136.86</ele>
        <time>2021-05-30T09:22:43Z</time>
      </trkpt>
      <trkpt lat="49.01425" lon="2.00506">
        <ele>137.09</ele>
        <time>2021-05-30T09:22:56Z</time>
      </trkpt>
      <trkpt lat="49.01419" lon="2.00513">
        <ele>137.22</ele>
        <time>2021-05-30T09:23:05Z</time>
      </trkpt>
      <trkpt lat="49.01405" lon="2.00516">
        <ele>138.26</ele>
        <time>2021-05-30T09:23:24Z</time>
      </trkpt>
      <trkpt lat="49.01404" lon="2.00527">
        <ele>137.23</ele>
        <time>2021-05-30T09:23:48Z</time>
      </trkpt>
      <trkpt lat="49.01404" lon="2.00531">
        <ele>139.55</ele>
        <time>2021-05-30T09:32:34Z</time>
      </trkpt>
      <trkpt lat="49.014" lon="2.00539">
        <ele>139.44</ele>
        <time>2021-05-30T09:32:56Z</time>
      </trkpt>
      <trkpt lat="49.01395" lon="2.00544">
        <ele>139.55</ele>
        <time>2021-05-30T09:33:10Z</time>
      </trkpt>
      <trkpt lat="49.01386" lon="2.00554">
        <ele>139.13</ele>
        <time>2021-05-30T09:33:29Z</time>
      </trkpt>
      <trkpt lat="49.01367" lon="2.00574">
        <ele>139.68</ele>
        <time>2021-05-30T09:33:50Z</time>
      </trkpt>
      <trkpt lat="49.0135" lon="2.00592">
        <ele>139.1</ele>
        <time>2021-05-30T09:34:11Z</time>
      </trkpt>
      <trkpt lat="49.01349" lon="2.00593">
        <ele>139.31</ele>
        <time>2021-05-30T09:34:13Z</time>
      </trkpt>
      <trkpt lat="49.01334" lon="2.00608">
        <ele>138.54</ele>
        <time>2021-05-30T09:34:36Z</time>
      </trkpt>
      <trkpt lat="49.01333" lon="2.00611">
        <ele>138.33</ele>
        <time>2021-05-30T09:34:40Z</time>
      </trkpt>
      <trkpt lat="49.01321" lon="2.00629">
        <ele>136.69</ele>
        <time>2021-05-30T09:35:01Z</time>
      </trkpt>
      <trkpt lat="49.01319" lon="2.00633">
        <ele>136.26</ele>
        <time>2021-05-30T09:35:05Z</time>
      </trkpt>
      <trkpt lat="49.01307" lon="2.00662">
        <ele>134.66</ele>
        <time>2021-05-30T09:35:27Z</time>
      </trkpt>
      <trkpt lat="49.01292" lon="2.00687">
        <ele>132.89</ele>
        <time>2021-05-30T09:35:49Z</time>
      </trkpt>
      <trkpt lat="49.01283" lon="2.00704">
        <ele>129.74</ele>
        <time>2021-05-30T09:36:06Z</time>
      </trkpt>
      <trkpt lat="49.01269" lon="2.0071">
        <ele>127.48</ele>
        <time>2021-05-30T09:36:26Z</time>
      </trkpt>
      <trkpt lat="49.0125" lon="2.00728">
        <ele>125.86</ele>
        <time>2021-05-30T09:36:49Z</time>
      </trkpt>
      <trkpt lat="49.01233" lon="2.00748">
        <ele>125.44</ele>
        <time>2021-05-30T09:37:08Z</time>
      </trkpt>
      <trkpt lat="49.01213" lon="2.00763">
        <ele>124.65</ele>
        <time>2021-05-30T09:37:26Z</time>
      </trkpt>
      <trkpt lat="49.01202" lon="2.00769">
        <ele>124.44</ele>
        <time>2021-05-30T09:37:44Z</time>
      </trkpt>
      <trkpt lat="49.01192" lon="2.00793">
        <ele>124.72</ele>
        <time>2021-05-30T09:38:06Z</time>
      </trkpt>
      <trkpt lat="49.01177" lon="2.00815">
        <ele>126.53</ele>
        <time>2021-05-30T09:38:27Z</time>
      </trkpt>
      <trkpt lat="49.01167" lon="2.00839">
        <ele>127.58</ele>
        <time>2021-05-30T09:38:45Z</time>
      </trkpt>
      <trkpt lat="49.01152" lon="2.00866">
        <ele>129.68</ele>
        <time>2021-05-30T09:39:05Z</time>
      </trkpt>
      <trkpt lat="49.01152" lon="2.00867">
        <ele>129.82</ele>
        <time>2021-05-30T09:39:06Z</time>
      </trkpt>
      <trkpt lat="49.01141" lon="2.00893">
        <ele>131.34</ele>
        <time>2021-05-30T09:39:26Z</time>
      </trkpt>
      <trkpt lat="49.01126" lon="2.00907">
        <ele>132.08</ele>
        <time>2021-05-30T09:39:45Z</time>
      </trkpt>
      <trkpt lat="49.01108" lon="2.00922">
        <ele>132.65</ele>
        <time>2021-05-30T09:40:07Z</time>
      </trkpt>
      <trkpt lat="49.01091" lon="2.00936">
        <ele>131.6</ele>
        <time>2021-05-30T09:40:30Z</time>
      </trkpt>
      <trkpt lat="49.01066" lon="2.00949">
        <ele>131.27</ele>
        <time>2021-05-30T09:40:53Z</time>
      </trkpt>
      <trkpt lat="49.01047" lon="2.00963">
        <ele>131.93</ele>
        <time>2021-05-30T09:41:14Z</time>
      </trkpt>
      <trkpt lat="49.01031" lon="2.00976">
        <ele>130.99</ele>
        <time>2021-05-30T09:41:34Z</time>
      </trkpt>
      <trkpt lat="49.0101" lon="2.00983">
        <ele>127.87</ele>
        <time>2021-05-30T09:41:55Z</time>
      </trkpt>
      <trkpt lat="49.00992" lon="2.01002">
        <ele>125.94</ele>
        <time>2021-05-30T09:42:14Z</time>
      </trkpt>
      <trkpt lat="49.00972" lon="2.01019">
        <ele>123.36</ele>
        <time>2021-05-30T09:42:34Z</time>
      </trkpt>
      <trkpt lat="49.00951" lon="2.01033">
        <ele>123.32</ele>
        <time>2021-05-30T09:42:55Z</time>
      </trkpt>
      <trkpt lat="49.00928" lon="2.01055">
        <ele>122.84</ele>
        <time>2021-05-30T09:43:14Z</time>
      </trkpt>
      <trkpt lat="49.00904" lon="2.01074">
        <ele>123.12</ele>
        <time>2021-05-30T09:43:34Z</time>
      </trkpt>
      <trkpt lat="49.00891" lon="2.01087">
        <ele>122.76</ele>
        <time>2021-05-30T09:43:50Z</time>
      </trkpt>
      <trkpt lat="49.00882" lon="2.011">
        <ele>122.2</ele>
        <time>2021-05-30T09:44:04Z</time>
      </trkpt>
      <trkpt lat="49.00867" lon="2.01109">
        <ele>121.35</ele>
        <time>2021-05-30T09:44:18Z</time>
      </trkpt>
      <trkpt lat="49.00853" lon="2.01122">
        <ele>121.03</ele>
        <time>2021-05-30T09:44:37Z</time>
      </trkpt>
      <trkpt lat="49.00836" lon="2.01137">
        <ele>120.69</ele>
        <time>2021-05-30T09:44:57Z</time>
      </trkpt>
      <trkpt lat="49.00815" lon="2.01156">
        <ele>120.8</ele>
        <time>2021-05-30T09:45:18Z</time>
      </trkpt>
      <trkpt lat="49.00797" lon="2.0118">
        <ele>122.07</ele>
        <time>2021-05-30T09:45:38Z</time>
      </trkpt>
      <trkpt lat="49.00786" lon="2.01193">
        <ele>123.95</ele>
        <time>2021-05-30T09:45:53Z</time>
      </trkpt>
      <trkpt lat="49.00779" lon="2.01209">
        <ele>124.84</ele>
        <time>2021-05-30T09:46:06Z</time>
      </trkpt>
      <trkpt lat="49.00768" lon="2.01238">
        <ele>125.13</ele>
        <time>2021-05-30T09:46:24Z</time>
      </trkpt>
      <trkpt lat="49.00759" lon="2.01252">
        <ele>124.26</ele>
        <time>2021-05-30T09:46:37Z</time>
      </trkpt>
      <trkpt lat="49.00754" lon="2.01258">
        <ele>122.73</ele>
        <time>2021-05-30T09:46:48Z</time>
      </trkpt>
      <trkpt lat="49.00738" lon="2.0128">
        <ele>121.12</ele>
        <time>2021-05-30T09:47:08Z</time>
      </trkpt>
      <trkpt lat="49.00726" lon="2.01306">
        <ele>119.26</ele>
        <time>2021-05-30T09:47:25Z</time>
      </trkpt>
      <trkpt lat="49.00714" lon="2.01335">
        <ele>118.65</ele>
        <time>2021-05-30T09:47:41Z</time>
      </trkpt>
      <trkpt lat="49.0071" lon="2.01355">
        <ele>117.71</ele>
        <time>2021-05-30T09:47:54Z</time>
      </trkpt>
      <trkpt lat="49.00708" lon="2.01359">
        <ele>116.07</ele>
        <time>2021-05-30T09:48:09Z</time>
      </trkpt>
      <trkpt lat="49.00711" lon="2.01369">
        <ele>116.42</ele>
        <time>2021-05-30T09:48:39Z</time>
      </trkpt>
      <trkpt lat="49.00712" lon="2.01379">
        <ele>114.58</ele>
        <time>2021-05-30T09:49:00Z</time>
      </trkpt>
      <trkpt lat="49.00711" lon="2.0139">
        <ele>114.56</ele>
        <time>2021-05-30T09:49:18Z</time>
      </trkpt>
      <trkpt lat="49.00707" lon="2.01397">
        <ele>114.47</ele>
        <time>2021-05-30T09:49:35Z</time>
      </trkpt>
      <trkpt lat="49.00705" lon="2.01397">
        <ele>114.52</ele>
        <time>2021-05-30T09:49:50Z</time>
      </trkpt>
      <trkpt lat="49.00704" lon="2.01398">
        <ele>114.52</ele>
        <time>2021-05-30T09:49:52Z</time>
      </trkpt>
      <trkpt lat="49.00702" lon="2.01403">
        <ele>114.5</ele>
        <time>2021-05-30T09:50:12Z</time>
      </trkpt>
      <trkpt lat="49.00698" lon="2.01398">
        <ele>114.83</ele>
        <time>2021-05-30T09:50:30Z</time>
      </trkpt>
      <trkpt lat="49.00707" lon="2.01396">
        <ele>114.77</ele>
        <time>2021-05-30T09:50:48Z</time>
      </trkpt>
      <trkpt lat="49.00712" lon="2.01405">
        <ele>114.62</ele>
        <time>2021-05-30T09:51:05Z</time>
      </trkpt>
      <trkpt lat="49.00714" lon="2.0142">
        <ele>113.9</ele>
        <time>2021-05-30T09:51:25Z</time>
      </trkpt>
      <trkpt lat="49.00714" lon="2.01423">
        <ele>114.57</ele>
        <time>2021-05-30T09:51:42Z</time>
      </trkpt>
      <trkpt lat="49.00712" lon="2.01424">
        <ele>114.87</ele>
        <time>2021-05-30T09:52:03Z</time>
      </trkpt>
      <trkpt lat="49.00708" lon="2.01422">
        <ele>114.52</ele>
        <time>2021-05-30T09:52:23Z</time>
      </trkpt>
      <trkpt lat="49.00722" lon="2.0144">
        <ele>114.28</ele>
        <time>2021-05-30T09:52:42Z</time>
      </trkpt>
      <trkpt lat="49.0073" lon="2.01438">
        <ele>114.28</ele>
        <time>2021-05-30T09:52:56Z</time>
      </trkpt>
      <trkpt lat="49.00727" lon="2.01439">
        <ele>114.56</ele>
        <time>2021-05-30T09:53:16Z</time>
      </trkpt>
      <trkpt lat="49.0073" lon="2.01446">
        <ele>113.92</ele>
        <time>2021-05-30T09:53:30Z</time>
      </trkpt>
      <trkpt lat="49.00729" lon="2.01448">
        <ele>114.26</ele>
        <time>2021-05-30T09:53:32Z</time>
      </trkpt>
      <trkpt lat="49.0073" lon="2.01451">
        <ele>112.91</ele>
        <time>2021-05-30T09:53:34Z</time>
      </trkpt>
      <trkpt lat="49.0073" lon="2.01452">
        <ele>112.91</ele>
        <time>2021-05-30T09:53:35Z</time>
      </trkpt>
      <trkpt lat="49.00733" lon="2.01456">
        <ele>112.86</ele>
        <time>2021-05-30T09:53:41Z</time>
      </trkpt>
      <trkpt lat="49.00738" lon="2.01454">
        <ele>114.2</ele>
        <time>2021-05-30T09:53:59Z</time>
      </trkpt>
      <trkpt lat="49.00733" lon="2.01457">
        <ele>114.43</ele>
        <time>2021-05-30T09:54:12Z</time>
      </trkpt>
      <trkpt lat="49.00728" lon="2.0146">
        <ele>114.67</ele>
        <time>2021-05-30T09:54:17Z</time>
      </trkpt>
      <trkpt lat="49.00722" lon="2.01471">
        <ele>113.05</ele>
        <time>2021-05-30T09:54:32Z</time>
      </trkpt>
      <trkpt lat="49.00723" lon="2.01476">
        <ele>113.37</ele>
        <time>2021-05-30T09:54:41Z</time>
      </trkpt>
      <trkpt lat="49.00724" lon="2.01481">
        <ele>113.43</ele>
        <time>2021-05-30T09:54:44Z</time>
      </trkpt>
      <trkpt lat="49.00727" lon="2.01485">
        <ele>112.44</ele>
        <time>2021-05-30T09:54:48Z</time>
      </trkpt>
      <trkpt lat="49.00733" lon="2.01513">
        <ele>111.1</ele>
        <time>2021-05-30T09:55:08Z</time>
      </trkpt>
      <trkpt lat="49.00739" lon="2.0153">
        <ele>110.39</ele>
        <time>2021-05-30T09:55:24Z</time>
      </trkpt>
      <trkpt lat="49.00732" lon="2.01541">
        <ele>109.73</ele>
        <time>2021-05-30T09:55:44Z</time>
      </trkpt>
      <trkpt lat="49.00726" lon="2.01546">
        <ele>109.78</ele>
        <time>2021-05-30T09:56:01Z</time>
      </trkpt>
      <trkpt lat="49.00725" lon="2.01547">
        <ele>110.05</ele>
        <time>2021-05-30T09:56:03Z</time>
      </trkpt>
      <trkpt lat="49.00707" lon="2.01559">
        <ele>110.05</ele>
        <time>2021-05-30T09:56:25Z</time>
      </trkpt>
      <trkpt lat="49.00703" lon="2.0157">
        <ele>110.06</ele>
        <time>2021-05-30T09:56:43Z</time>
      </trkpt>
      <trkpt lat="49.0069" lon="2.01571">
        <ele>110.5</ele>
        <time>2021-05-30T09:56:58Z</time>
      </trkpt>
      <trkpt lat="49.00669" lon="2.01588">
        <ele>110.27</ele>
        <time>2021-05-30T09:57:18Z</time>
      </trkpt>
      <trkpt lat="49.0065" lon="2.01595">
        <ele>110.16</ele>
        <time>2021-05-30T09:57:40Z</time>
      </trkpt>
      <trkpt lat="49.00632" lon="2.01604">
        <ele>109.93</ele>
        <time>2021-05-30T09:58:00Z</time>
      </trkpt>
      <trkpt lat="49.00631" lon="2.01608">
        <ele>108.99</ele>
        <time>2021-05-30T09:58:05Z</time>
      </trkpt>
      <trkpt lat="49.00632" lon="2.01611">
        <ele>108.98</ele>
        <time>2021-05-30T09:58:08Z</time>
      </trkpt>
      <trkpt lat="49.00637" lon="2.01638">
        <ele>108.18</ele>
        <time>2021-05-30T09:58:25Z</time>
      </trkpt>
      <trkpt lat="49.0064" lon="2.0165">
        <ele>107.66</ele>
        <time>2021-05-30T09:58:32Z</time>
      </trkpt>
      <trkpt lat="49.00645" lon="2.01683">
        <ele>105.85</ele>
        <time>2021-05-30T09:58:49Z</time>
      </trkpt>
      <trkpt lat="49.00649" lon="2.01706">
        <ele>104.61</ele>
        <time>2021-05-30T09:59:06Z</time>
      </trkpt>
      <trkpt lat="49.00641" lon="2.01709">
        <ele>104.11</ele>
        <time>2021-05-30T09:59:19Z</time>
      </trkpt>
      <trkpt lat="49.00637" lon="2.0172">
        <ele>103.56</ele>
        <time>2021-05-30T09:59:28Z</time>
      </trkpt>
      <trkpt lat="49.00639" lon="2.01754">
        <ele>102.52</ele>
        <time>2021-05-30T09:59:49Z</time>
      </trkpt>
      <trkpt lat="49.00631" lon="2.01764">
        <ele>102.3</ele>
        <time>2021-05-30T10:00:02Z</time>
      </trkpt>
      <trkpt lat="49.00626" lon="2.01772">
        <ele>102.31</ele>
        <time>2021-05-30T10:00:10Z</time>
      </trkpt>
      <trkpt lat="49.00617" lon="2.01777">
        <ele>101.93</ele>
        <time>2021-05-30T10:00:19Z</time>
      </trkpt>
      <trkpt lat="49.00618" lon="2.01782">
        <ele>102</ele>
        <time>2021-05-30T10:00:40Z</time>
      </trkpt>
      <trkpt lat="49.00618" lon="2.01781">
        <ele>101.68</ele>
        <time>2021-05-30T10:00:42Z</time>
      </trkpt>
      <trkpt lat="49.00624" lon="2.01782">
        <ele>102.66</ele>
        <time>2021-05-30T10:01:07Z</time>
      </trkpt>
      <trkpt lat="49.00624" lon="2.01781">
        <ele>102.99</ele>
        <time>2021-05-30T10:01:29Z</time>
      </trkpt>
      <trkpt lat="49.00617" lon="2.01784">
        <ele>102.33</ele>
        <time>2021-05-30T10:01:48Z</time>
      </trkpt>
      <trkpt lat="49.00603" lon="2.0179">
        <ele>101.86</ele>
        <time>2021-05-30T10:02:07Z</time>
      </trkpt>
      <trkpt lat="49.00585" lon="2.01798">
        <ele>100.91</ele>
        <time>2021-05-30T10:02:29Z</time>
      </trkpt>
      <trkpt lat="49.00567" lon="2.01814">
        <ele>100.15</ele>
        <time>2021-05-30T10:02:48Z</time>
      </trkpt>
      <trkpt lat="49.00559" lon="2.01821">
        <ele>99.53</ele>
        <time>2021-05-30T10:03:02Z</time>
      </trkpt>
      <trkpt lat="49.00539" lon="2.01834">
        <ele>99.44</ele>
        <time>2021-05-30T10:03:26Z</time>
      </trkpt>
      <trkpt lat="49.00535" lon="2.0184">
        <ele>99.59</ele>
        <time>2021-05-30T10:03:32Z</time>
      </trkpt>
      <trkpt lat="49.0052" lon="2.0186">
        <ele>99.65</ele>
        <time>2021-05-30T10:03:49Z</time>
      </trkpt>
      <trkpt lat="49.00508" lon="2.01871">
        <ele>100.59</ele>
        <time>2021-05-30T10:04:05Z</time>
      </trkpt>
      <trkpt lat="49.0049" lon="2.01893">
        <ele>101.87</ele>
        <time>2021-05-30T10:04:26Z</time>
      </trkpt>
      <trkpt lat="49.00474" lon="2.01915">
        <ele>103.93</ele>
        <time>2021-05-30T10:04:46Z</time>
      </trkpt>
      <trkpt lat="49.00465" lon="2.01929">
        <ele>104.96</ele>
        <time>2021-05-30T10:05:03Z</time>
      </trkpt>
      <trkpt lat="49.00455" lon="2.01944">
        <ele>105.52</ele>
        <time>2021-05-30T10:05:16Z</time>
      </trkpt>
      <trkpt lat="49.00436" lon="2.01967">
        <ele>107.34</ele>
        <time>2021-05-30T10:05:40Z</time>
      </trkpt>
      <trkpt lat="49.00421" lon="2.01992">
        <ele>107.87</ele>
        <time>2021-05-30T10:06:04Z</time>
      </trkpt>
      <trkpt lat="49.00414" lon="2.02003">
        <ele>107.86</ele>
        <time>2021-05-30T10:06:15Z</time>
      </trkpt>
      <trkpt lat="49.00398" lon="2.02027">
        <ele>108.73</ele>
        <time>2021-05-30T10:06:34Z</time>
      </trkpt>
      <trkpt lat="49.00387" lon="2.02049">
        <ele>108.53</ele>
        <time>2021-05-30T10:06:54Z</time>
      </trkpt>
      <trkpt lat="49.00372" lon="2.02065">
        <ele>109.8</ele>
        <time>2021-05-30T10:07:16Z</time>
      </trkpt>
      <trkpt lat="49.00357" lon="2.02086">
        <ele>110.72</ele>
        <time>2021-05-30T10:07:35Z</time>
      </trkpt>
      <trkpt lat="49.00341" lon="2.0211">
        <ele>111.61</ele>
        <time>2021-05-30T10:07:57Z</time>
      </trkpt>
      <trkpt lat="49.00331" lon="2.02127">
        <ele>111.92</ele>
        <time>2021-05-30T10:08:18Z</time>
      </trkpt>
      <trkpt lat="49.00312" lon="2.02155">
        <ele>114.12</ele>
        <time>2021-05-30T10:08:39Z</time>
      </trkpt>
      <trkpt lat="49.00308" lon="2.02166">
        <ele>112.31</ele>
        <time>2021-05-30T10:08:59Z</time>
      </trkpt>
      <trkpt lat="49.00297" lon="2.02187">
        <ele>112.86</ele>
        <time>2021-05-30T10:09:22Z</time>
      </trkpt>
      <trkpt lat="49.0028" lon="2.02205">
        <ele>113.63</ele>
        <time>2021-05-30T10:09:43Z</time>
      </trkpt>
      <trkpt lat="49.00261" lon="2.02229">
        <ele>114.82</ele>
        <time>2021-05-30T10:10:05Z</time>
      </trkpt>
      <trkpt lat="49.00247" lon="2.02246">
        <ele>114.64</ele>
        <time>2021-05-30T10:10:26Z</time>
      </trkpt>
      <trkpt lat="49.0024" lon="2.02257">
        <ele>115.08</ele>
        <time>2021-05-30T10:10:33Z</time>
      </trkpt>
      <trkpt lat="49.00234" lon="2.02262">
        <ele>114.92</ele>
        <time>2021-05-30T10:10:52Z</time>
      </trkpt>
      <trkpt lat="49.0023" lon="2.02273">
        <ele>114.31</ele>
        <time>2021-05-30T10:11:10Z</time>
      </trkpt>
      <trkpt lat="49.0022" lon="2.02283">
        <ele>113.02</ele>
        <time>2021-05-30T10:11:30Z</time>
      </trkpt>
      <trkpt lat="49.0022" lon="2.02283">
        <ele>112.87</ele>
        <time>2021-05-30T10:11:31Z</time>
      </trkpt>
      <trkpt lat="49.002" lon="2.02309">
        <ele>111.52</ele>
        <time>2021-05-30T10:11:52Z</time>
      </trkpt>
      <trkpt lat="49.0019" lon="2.02315">
        <ele>110.48</ele>
        <time>2021-05-30T10:12:03Z</time>
      </trkpt>
      <trkpt lat="49.00184" lon="2.02318">
        <ele>110.57</ele>
        <time>2021-05-30T10:12:07Z</time>
      </trkpt>
      <trkpt lat="49.00181" lon="2.02319">
        <ele>111.63</ele>
        <time>2021-05-30T10:12:10Z</time>
      </trkpt>
      <trkpt lat="49.00179" lon="2.02324">
        <ele>110.46</ele>
        <time>2021-05-30T10:12:17Z</time>
      </trkpt>
      <trkpt lat="49.00172" lon="2.02335">
        <ele>109.44</ele>
        <time>2021-05-30T10:12:28Z</time>
      </trkpt>
      <trkpt lat="49.00155" lon="2.0235">
        <ele>108.84</ele>
        <time>2021-05-30T10:12:43Z</time>
      </trkpt>
      <trkpt lat="49.0015" lon="2.02378">
        <ele>107.97</ele>
        <time>2021-05-30T10:13:01Z</time>
      </trkpt>
      <trkpt lat="49.00148" lon="2.02402">
        <ele>106.03</ele>
        <time>2021-05-30T10:13:22Z</time>
      </trkpt>
      <trkpt lat="49.00149" lon="2.02409">
        <ele>105.12</ele>
        <time>2021-05-30T10:13:27Z</time>
      </trkpt>
      <trkpt lat="49.00153" lon="2.02416">
        <ele>112.78</ele>
        <time>2021-05-30T11:03:36Z</time>
      </trkpt>
      <trkpt lat="49.00154" lon="2.02417">
        <ele>112.26</ele>
        <time>2021-05-30T11:04:00Z</time>
      </trkpt>
      <trkpt lat="49.00149" lon="2.02418">
        <ele>112.38</ele>
        <time>2021-05-30T11:04:24Z</time>
      </trkpt>
      <trkpt lat="49.00146" lon="2.02424">
        <ele>111.31</ele>
        <time>2021-05-30T11:04:51Z</time>
      </trkpt>
      <trkpt lat="49.00154" lon="2.02443">
        <ele>110.43</ele>
        <time>2021-05-30T11:05:02Z</time>
      </trkpt>
      <trkpt lat="49.00157" lon="2.0245">
        <ele>109.71</ele>
        <time>2021-05-30T11:05:05Z</time>
      </trkpt>
      <trkpt lat="49.00161" lon="2.02476">
        <ele>109.47</ele>
        <time>2021-05-30T11:05:24Z</time>
      </trkpt>
      <trkpt lat="49.00164" lon="2.0249">
        <ele>109.1</ele>
        <time>2021-05-30T11:05:37Z</time>
      </trkpt>
      <trkpt lat="49.00164" lon="2.02491">
        <ele>108.68</ele>
        <time>2021-05-30T11:05:38Z</time>
      </trkpt>
      <trkpt lat="49.00167" lon="2.02497">
        <ele>108.48</ele>
        <time>2021-05-30T11:05:43Z</time>
      </trkpt>
      <trkpt lat="49.00171" lon="2.02508">
        <ele>108.46</ele>
        <time>2021-05-30T11:05:52Z</time>
      </trkpt>
      <trkpt lat="49.00176" lon="2.02522">
        <ele>107.83</ele>
        <time>2021-05-30T11:06:01Z</time>
      </trkpt>
      <trkpt lat="49.00183" lon="2.02539">
        <ele>106.99</ele>
        <time>2021-05-30T11:06:14Z</time>
      </trkpt>
      <trkpt lat="49.00186" lon="2.02544">
        <ele>106.69</ele>
        <time>2021-05-30T11:06:26Z</time>
      </trkpt>
      <trkpt lat="49.00196" lon="2.02557">
        <ele>105.93</ele>
        <time>2021-05-30T11:06:42Z</time>
      </trkpt>
      <trkpt lat="49.00204" lon="2.02562">
        <ele>105.39</ele>
        <time>2021-05-30T11:07:10Z</time>
      </trkpt>
      <trkpt lat="49.00205" lon="2.02563">
        <ele>104.6</ele>
        <time>2021-05-30T11:07:11Z</time>
      </trkpt>
      <trkpt lat="49.00222" lon="2.02576">
        <ele>105.21</ele>
        <time>2021-05-30T11:07:26Z</time>
      </trkpt>
      <trkpt lat="49.00233" lon="2.02588">
        <ele>103.36</ele>
        <time>2021-05-30T11:07:39Z</time>
      </trkpt>
      <trkpt lat="49.0025" lon="2.02601">
        <ele>102.18</ele>
        <time>2021-05-30T11:07:55Z</time>
      </trkpt>
      <trkpt lat="49.0027" lon="2.02615">
        <ele>101.28</ele>
        <time>2021-05-30T11:08:13Z</time>
      </trkpt>
      <trkpt lat="49.00277" lon="2.0262">
        <ele>101.61</ele>
        <time>2021-05-30T11:08:19Z</time>
      </trkpt>
      <trkpt lat="49.00293" lon="2.02637">
        <ele>100.69</ele>
        <time>2021-05-30T11:08:35Z</time>
      </trkpt>
      <trkpt lat="49.00306" lon="2.0265">
        <ele>99.7</ele>
        <time>2021-05-30T11:08:49Z</time>
      </trkpt>
      <trkpt lat="49.00318" lon="2.02663">
        <ele>98.85</ele>
        <time>2021-05-30T11:09:03Z</time>
      </trkpt>
      <trkpt lat="49.00321" lon="2.02669">
        <ele>98.11</ele>
        <time>2021-05-30T11:09:07Z</time>
      </trkpt>
      <trkpt lat="49.00324" lon="2.02675">
        <ele>97.65</ele>
        <time>2021-05-30T11:09:11Z</time>
      </trkpt>
      <trkpt lat="49.00334" lon="2.02689">
        <ele>97.36</ele>
        <time>2021-05-30T11:09:22Z</time>
      </trkpt>
      <trkpt lat="49.00347" lon="2.02715">
        <ele>96.56</ele>
        <time>2021-05-30T11:09:39Z</time>
      </trkpt>
      <trkpt lat="49.0035" lon="2.02723">
        <ele>95.86</ele>
        <time>2021-05-30T11:09:46Z</time>
      </trkpt>
      <trkpt lat="49.00359" lon="2.0274">
        <ele>94.77</ele>
        <time>2021-05-30T11:10:01Z</time>
      </trkpt>
      <trkpt lat="49.00371" lon="2.02776">
        <ele>93.77</ele>
        <time>2021-05-30T11:10:19Z</time>
      </trkpt>
      <trkpt lat="49.00376" lon="2.02794">
        <ele>93.46</ele>
        <time>2021-05-30T11:10:29Z</time>
      </trkpt>
      <trkpt lat="49.0038" lon="2.02802">
        <ele>93.24</ele>
        <time>2021-05-30T11:10:35Z</time>
      </trkpt>
      <trkpt lat="49.00388" lon="2.02828">
        <ele>92.61</ele>
        <time>2021-05-30T11:10:52Z</time>
      </trkpt>
      <trkpt lat="49.00389" lon="2.0283">
        <ele>92.68</ele>
        <time>2021-05-30T11:10:53Z</time>
      </trkpt>
      <trkpt lat="49.00393" lon="2.02845">
        <ele>92.38</ele>
        <time>2021-05-30T11:11:04Z</time>
      </trkpt>
      <trkpt lat="49.00397" lon="2.02852">
        <ele>91.93</ele>
        <time>2021-05-30T11:11:13Z</time>
      </trkpt>
      <trkpt lat="49.00409" lon="2.02882">
        <ele>90.96</ele>
        <time>2021-05-30T11:11:32Z</time>
      </trkpt>
      <trkpt lat="49.00418" lon="2.02907">
        <ele>91.4</ele>
        <time>2021-05-30T11:11:47Z</time>
      </trkpt>
      <trkpt lat="49.00421" lon="2.02919">
        <ele>91.24</ele>
        <time>2021-05-30T11:11:54Z</time>
      </trkpt>
      <trkpt lat="49.00422" lon="2.02926">
        <ele>90.82</ele>
        <time>2021-05-30T11:12:00Z</time>
      </trkpt>
      <trkpt lat="49.00431" lon="2.02947">
        <ele>90.62</ele>
        <time>2021-05-30T11:12:18Z</time>
      </trkpt>
      <trkpt lat="49.00433" lon="2.02953">
        <ele>90.47</ele>
        <time>2021-05-30T11:12:32Z</time>
      </trkpt>
      <trkpt lat="49.00441" lon="2.02976">
        <ele>89.43</ele>
        <time>2021-05-30T11:12:48Z</time>
      </trkpt>
      <trkpt lat="49.00445" lon="2.02999">
        <ele>89.37</ele>
        <time>2021-05-30T11:13:01Z</time>
      </trkpt>
      <trkpt lat="49.00447" lon="2.03006">
        <ele>89.46</ele>
        <time>2021-05-30T11:13:06Z</time>
      </trkpt>
      <trkpt lat="49.00451" lon="2.03035">
        <ele>89.21</ele>
        <time>2021-05-30T11:13:25Z</time>
      </trkpt>
      <trkpt lat="49.00454" lon="2.03052">
        <ele>89.7</ele>
        <time>2021-05-30T11:13:40Z</time>
      </trkpt>
      <trkpt lat="49.00456" lon="2.03075">
        <ele>88.87</ele>
        <time>2021-05-30T11:13:57Z</time>
      </trkpt>
      <trkpt lat="49.0046" lon="2.03104">
        <ele>88</ele>
        <time>2021-05-30T11:14:14Z</time>
      </trkpt>
      <trkpt lat="49.00465" lon="2.03136">
        <ele>87.01</ele>
        <time>2021-05-30T11:14:32Z</time>
      </trkpt>
      <trkpt lat="49.00471" lon="2.03163">
        <ele>86.53</ele>
        <time>2021-05-30T11:14:48Z</time>
      </trkpt>
      <trkpt lat="49.00477" lon="2.03195">
        <ele>86.04</ele>
        <time>2021-05-30T11:15:06Z</time>
      </trkpt>
      <trkpt lat="49.00484" lon="2.03221">
        <ele>85.48</ele>
        <time>2021-05-30T11:15:23Z</time>
      </trkpt>
      <trkpt lat="49.00489" lon="2.03245">
        <ele>85.21</ele>
        <time>2021-05-30T11:15:39Z</time>
      </trkpt>
      <trkpt lat="49.00495" lon="2.03272">
        <ele>84.62</ele>
        <time>2021-05-30T11:15:56Z</time>
      </trkpt>
      <trkpt lat="49.00497" lon="2.03277">
        <ele>84.7</ele>
        <time>2021-05-30T11:15:59Z</time>
      </trkpt>
      <trkpt lat="49.00501" lon="2.03293">
        <ele>84.36</ele>
        <time>2021-05-30T11:16:08Z</time>
      </trkpt>
      <trkpt lat="49.00507" lon="2.03318">
        <ele>84.03</ele>
        <time>2021-05-30T11:16:22Z</time>
      </trkpt>
      <trkpt lat="49.00507" lon="2.03328">
        <ele>83.59</ele>
        <time>2021-05-30T11:16:30Z</time>
      </trkpt>
      <trkpt lat="49.00508" lon="2.03346">
        <ele>83.09</ele>
        <time>2021-05-30T11:16:40Z</time>
      </trkpt>
      <trkpt lat="49.00509" lon="2.03353">
        <ele>83.03</ele>
        <time>2021-05-30T11:16:44Z</time>
      </trkpt>
      <trkpt lat="49.00508" lon="2.03358">
        <ele>82.22</ele>
        <time>2021-05-30T11:16:46Z</time>
      </trkpt>
      <trkpt lat="49.00511" lon="2.03387">
        <ele>81.99</ele>
        <time>2021-05-30T11:17:02Z</time>
      </trkpt>
      <trkpt lat="49.00515" lon="2.03417">
        <ele>82.36</ele>
        <time>2021-05-30T11:17:17Z</time>
      </trkpt>
      <trkpt lat="49.00518" lon="2.0343">
        <ele>81.58</ele>
        <time>2021-05-30T11:17:30Z</time>
      </trkpt>
      <trkpt lat="49.00518" lon="2.03431">
        <ele>81.67</ele>
        <time>2021-05-30T11:17:31Z</time>
      </trkpt>
      <trkpt lat="49.00521" lon="2.03451">
        <ele>80.97</ele>
        <time>2021-05-30T11:17:41Z</time>
      </trkpt>
      <trkpt lat="49.00522" lon="2.0346">
        <ele>81.28</ele>
        <time>2021-05-30T11:17:46Z</time>
      </trkpt>
      <trkpt lat="49.00522" lon="2.03465">
        <ele>81.24</ele>
        <time>2021-05-30T11:17:49Z</time>
      </trkpt>
      <trkpt lat="49.0052" lon="2.03483">
        <ele>80.96</ele>
        <time>2021-05-30T11:17:58Z</time>
      </trkpt>
      <trkpt lat="49.00518" lon="2.03518">
        <ele>80.18</ele>
        <time>2021-05-30T11:18:16Z</time>
      </trkpt>
      <trkpt lat="49.00513" lon="2.03554">
        <ele>79.05</ele>
        <time>2021-05-30T11:18:33Z</time>
      </trkpt>
      <trkpt lat="49.00509" lon="2.0359">
        <ele>78.63</ele>
        <time>2021-05-30T11:18:51Z</time>
      </trkpt>
      <trkpt lat="49.00496" lon="2.03612">
        <ele>78.26</ele>
        <time>2021-05-30T11:19:06Z</time>
      </trkpt>
      <trkpt lat="49.00486" lon="2.03632">
        <ele>77.58</ele>
        <time>2021-05-30T11:19:22Z</time>
      </trkpt>
      <trkpt lat="49.00487" lon="2.03634">
        <ele>77.85</ele>
        <time>2021-05-30T11:19:24Z</time>
      </trkpt>
      <trkpt lat="49.005" lon="2.03642">
        <ele>78.46</ele>
        <time>2021-05-30T11:19:41Z</time>
      </trkpt>
      <trkpt lat="49.00498" lon="2.0365">
        <ele>77.75</ele>
        <time>2021-05-30T11:19:49Z</time>
      </trkpt>
      <trkpt lat="49.00495" lon="2.03676">
        <ele>77.57</ele>
        <time>2021-05-30T11:20:04Z</time>
      </trkpt>
      <trkpt lat="49.00496" lon="2.03692">
        <ele>77.09</ele>
        <time>2021-05-30T11:20:14Z</time>
      </trkpt>
      <trkpt lat="49.005" lon="2.03695">
        <ele>77.57</ele>
        <time>2021-05-30T11:20:29Z</time>
      </trkpt>
      <trkpt lat="49.00501" lon="2.03701">
        <ele>77.4</ele>
        <time>2021-05-30T11:20:35Z</time>
      </trkpt>
      <trkpt lat="49.00501" lon="2.0371">
        <ele>77.56</ele>
        <time>2021-05-30T11:20:40Z</time>
      </trkpt>
      <trkpt lat="49.00499" lon="2.03722">
        <ele>76.67</ele>
        <time>2021-05-30T11:20:46Z</time>
      </trkpt>
      <trkpt lat="49.00501" lon="2.0374">
        <ele>76.61</ele>
        <time>2021-05-30T11:20:56Z</time>
      </trkpt>
      <trkpt lat="49.005" lon="2.03751">
        <ele>76.66</ele>
        <time>2021-05-30T11:21:02Z</time>
      </trkpt>
      <trkpt lat="49.00498" lon="2.03771">
        <ele>76.7</ele>
        <time>2021-05-30T11:21:12Z</time>
      </trkpt>
      <trkpt lat="49.00501" lon="2.03795">
        <ele>77.32</ele>
        <time>2021-05-30T11:21:27Z</time>
      </trkpt>
      <trkpt lat="49.00502" lon="2.03803">
        <ele>77.17</ele>
        <time>2021-05-30T11:21:32Z</time>
      </trkpt>
      <trkpt lat="49.005" lon="2.03814">
        <ele>77.34</ele>
        <time>2021-05-30T11:21:38Z</time>
      </trkpt>
      <trkpt lat="49.00486" lon="2.03839">
        <ele>74.53</ele>
        <time>2021-05-30T11:21:55Z</time>
      </trkpt>
      <trkpt lat="49.0048" lon="2.03858">
        <ele>73.87</ele>
        <time>2021-05-30T11:22:11Z</time>
      </trkpt>
      <trkpt lat="49.00466" lon="2.03881">
        <ele>73.2</ele>
        <time>2021-05-30T11:22:29Z</time>
      </trkpt>
      <trkpt lat="49.00463" lon="2.03889">
        <ele>72.95</ele>
        <time>2021-05-30T11:22:34Z</time>
      </trkpt>
      <trkpt lat="49.00463" lon="2.03908">
        <ele>72.6</ele>
        <time>2021-05-30T11:22:49Z</time>
      </trkpt>
      <trkpt lat="49.00461" lon="2.03944">
        <ele>72.02</ele>
        <time>2021-05-30T11:23:08Z</time>
      </trkpt>
      <trkpt lat="49.00461" lon="2.03948">
        <ele>72</ele>
        <time>2021-05-30T11:23:10Z</time>
      </trkpt>
      <trkpt lat="49.00459" lon="2.03968">
        <ele>71.7</ele>
        <time>2021-05-30T11:23:20Z</time>
      </trkpt>
      <trkpt lat="49.00458" lon="2.03971">
        <ele>71.6</ele>
        <time>2021-05-30T11:23:22Z</time>
      </trkpt>
      <trkpt lat="49.00458" lon="2.04002">
        <ele>71.4</ele>
        <time>2021-05-30T11:23:38Z</time>
      </trkpt>
      <trkpt lat="49.00461" lon="2.04021">
        <ele>70.86</ele>
        <time>2021-05-30T11:23:48Z</time>
      </trkpt>
      <trkpt lat="49.00464" lon="2.04048">
        <ele>70.33</ele>
        <time>2021-05-30T11:24:03Z</time>
      </trkpt>
      <trkpt lat="49.00462" lon="2.04085">
        <ele>69.67</ele>
        <time>2021-05-30T11:24:22Z</time>
      </trkpt>
      <trkpt lat="49.00462" lon="2.04109">
        <ele>69.03</ele>
        <time>2021-05-30T11:24:33Z</time>
      </trkpt>
      <trkpt lat="49.00462" lon="2.04133">
        <ele>68.78</ele>
        <time>2021-05-30T11:24:45Z</time>
      </trkpt>
      <trkpt lat="49.00462" lon="2.04161">
        <ele>67.77</ele>
        <time>2021-05-30T11:24:58Z</time>
      </trkpt>
      <trkpt lat="49.00462" lon="2.04186">
        <ele>66.87</ele>
        <time>2021-05-30T11:25:11Z</time>
      </trkpt>
      <trkpt lat="49.00459" lon="2.04214">
        <ele>66.49</ele>
        <time>2021-05-30T11:25:25Z</time>
      </trkpt>
      <trkpt lat="49.00459" lon="2.04219">
        <ele>66.82</ele>
        <time>2021-05-30T11:25:28Z</time>
      </trkpt>
      <trkpt lat="49.00459" lon="2.04227">
        <ele>66.07</ele>
        <time>2021-05-30T11:25:33Z</time>
      </trkpt>
      <trkpt lat="49.00459" lon="2.04247">
        <ele>65.79</ele>
        <time>2021-05-30T11:25:44Z</time>
      </trkpt>
      <trkpt lat="49.00457" lon="2.04273">
        <ele>64.95</ele>
        <time>2021-05-30T11:25:58Z</time>
      </trkpt>
      <trkpt lat="49.00456" lon="2.04276">
        <ele>65.17</ele>
        <time>2021-05-30T11:26:00Z</time>
      </trkpt>
      <trkpt lat="49.00453" lon="2.04313">
        <ele>64.16</ele>
        <time>2021-05-30T11:26:20Z</time>
      </trkpt>
      <trkpt lat="49.00454" lon="2.04349">
        <ele>63.08</ele>
        <time>2021-05-30T11:26:36Z</time>
      </trkpt>
      <trkpt lat="49.00455" lon="2.04367">
        <ele>63.39</ele>
        <time>2021-05-30T11:26:47Z</time>
      </trkpt>
      <trkpt lat="49.00452" lon="2.04403">
        <ele>61.08</ele>
        <time>2021-05-30T11:27:07Z</time>
      </trkpt>
      <trkpt lat="49.00449" lon="2.0444">
        <ele>60.3</ele>
        <time>2021-05-30T11:27:25Z</time>
      </trkpt>
      <trkpt lat="49.0045" lon="2.04458">
        <ele>59.55</ele>
        <time>2021-05-30T11:27:36Z</time>
      </trkpt>
      <trkpt lat="49.0045" lon="2.0446">
        <ele>59.3</ele>
        <time>2021-05-30T11:27:37Z</time>
      </trkpt>
      <trkpt lat="49.00449" lon="2.04487">
        <ele>57.9</ele>
        <time>2021-05-30T11:27:54Z</time>
      </trkpt>
      <trkpt lat="49.00446" lon="2.04519">
        <ele>56.37</ele>
        <time>2021-05-30T11:28:11Z</time>
      </trkpt>
      <trkpt lat="49.00442" lon="2.04558">
        <ele>54.3</ele>
        <time>2021-05-30T11:28:31Z</time>
      </trkpt>
      <trkpt lat="49.00442" lon="2.04588">
        <ele>53.94</ele>
        <time>2021-05-30T11:28:51Z</time>
      </trkpt>
      <trkpt lat="49.00442" lon="2.04592">
        <ele>53.32</ele>
        <time>2021-05-30T11:28:56Z</time>
      </trkpt>
      <trkpt lat="49.00442" lon="2.04604">
        <ele>52.39</ele>
        <time>2021-05-30T11:29:03Z</time>
      </trkpt>
      <trkpt lat="49.00444" lon="2.04629">
        <ele>50.5</ele>
        <time>2021-05-30T11:29:16Z</time>
      </trkpt>
      <trkpt lat="49.00447" lon="2.04646">
        <ele>50.48</ele>
        <time>2021-05-30T11:29:24Z</time>
      </trkpt>
      <trkpt lat="49.00453" lon="2.04666">
        <ele>50.25</ele>
        <time>2021-05-30T11:29:34Z</time>
      </trkpt>
      <trkpt lat="49.00458" lon="2.04687">
        <ele>49.1</ele>
        <time>2021-05-30T11:29:46Z</time>
      </trkpt>
      <trkpt lat="49.0046" lon="2.04696">
        <ele>48.6</ele>
        <time>2021-05-30T11:29:51Z</time>
      </trkpt>
      <trkpt lat="49.00463" lon="2.04698">
        <ele>49.06</ele>
        <time>2021-05-30T11:29:54Z</time>
      </trkpt>
      <trkpt lat="49.00466" lon="2.04703">
        <ele>48.69</ele>
        <time>2021-05-30T11:29:58Z</time>
      </trkpt>
      <trkpt lat="49.00468" lon="2.04706">
        <ele>47.67</ele>
        <time>2021-05-30T11:30:00Z</time>
      </trkpt>
      <trkpt lat="49.00478" lon="2.04731">
        <ele>47.87</ele>
        <time>2021-05-30T11:30:15Z</time>
      </trkpt>
      <trkpt lat="49.00479" lon="2.04734">
        <ele>47.19</ele>
        <time>2021-05-30T11:30:17Z</time>
      </trkpt>
      <trkpt lat="49.00481" lon="2.04742">
        <ele>47.15</ele>
        <time>2021-05-30T11:30:21Z</time>
      </trkpt>
      <trkpt lat="49.00485" lon="2.04753">
        <ele>46.22</ele>
        <time>2021-05-30T11:30:29Z</time>
      </trkpt>
      <trkpt lat="49.00488" lon="2.04763">
        <ele>46.41</ele>
        <time>2021-05-30T11:30:36Z</time>
      </trkpt>
      <trkpt lat="49.0049" lon="2.04767">
        <ele>46.59</ele>
        <time>2021-05-30T11:30:39Z</time>
      </trkpt>
      <trkpt lat="49.00497" lon="2.04784">
        <ele>45.27</ele>
        <time>2021-05-30T11:30:50Z</time>
      </trkpt>
      <trkpt lat="49.00497" lon="2.04788">
        <ele>45.29</ele>
        <time>2021-05-30T11:30:52Z</time>
      </trkpt>
      <trkpt lat="49.00503" lon="2.04807">
        <ele>44.84</ele>
        <time>2021-05-30T11:31:02Z</time>
      </trkpt>
      <trkpt lat="49.00504" lon="2.04809">
        <ele>43.89</ele>
        <time>2021-05-30T11:31:04Z</time>
      </trkpt>
      <trkpt lat="49.00511" lon="2.04827">
        <ele>43.59</ele>
        <time>2021-05-30T11:31:14Z</time>
      </trkpt>
      <trkpt lat="49.00514" lon="2.04835">
        <ele>42.2</ele>
        <time>2021-05-30T11:31:19Z</time>
      </trkpt>
      <trkpt lat="49.00516" lon="2.0484">
        <ele>42.77</ele>
        <time>2021-05-30T11:31:22Z</time>
      </trkpt>
      <trkpt lat="49.00518" lon="2.04851">
        <ele>42.2</ele>
        <time>2021-05-30T11:31:28Z</time>
      </trkpt>
      <trkpt lat="49.00519" lon="2.04855">
        <ele>41.87</ele>
        <time>2021-05-30T11:31:31Z</time>
      </trkpt>
      <trkpt lat="49.00523" lon="2.04875">
        <ele>42.49</ele>
        <time>2021-05-30T11:31:42Z</time>
      </trkpt>
      <trkpt lat="49.00527" lon="2.04887">
        <ele>41.76</ele>
        <time>2021-05-30T11:31:48Z</time>
      </trkpt>
      <trkpt lat="49.00529" lon="2.04892">
        <ele>41.27</ele>
        <time>2021-05-30T11:31:51Z</time>
      </trkpt>
      <trkpt lat="49.00534" lon="2.04918">
        <ele>40.75</ele>
        <time>2021-05-30T11:32:05Z</time>
      </trkpt>
      <trkpt lat="49.00534" lon="2.04924">
        <ele>40.7</ele>
        <time>2021-05-30T11:32:08Z</time>
      </trkpt>
      <trkpt lat="49.00537" lon="2.04933">
        <ele>40.51</ele>
        <time>2021-05-30T11:32:14Z</time>
      </trkpt>
      <trkpt lat="49.00538" lon="2.0494">
        <ele>40.19</ele>
        <time>2021-05-30T11:32:18Z</time>
      </trkpt>
      <trkpt lat="49.00538" lon="2.0495">
        <ele>39.57</ele>
        <time>2021-05-30T11:32:23Z</time>
      </trkpt>
      <trkpt lat="49.00539" lon="2.04957">
        <ele>38.93</ele>
        <time>2021-05-30T11:32:27Z</time>
      </trkpt>
      <trkpt lat="49.00539" lon="2.0496">
        <ele>38.57</ele>
        <time>2021-05-30T11:32:29Z</time>
      </trkpt>
      <trkpt lat="49.00541" lon="2.04966">
        <ele>38.34</ele>
        <time>2021-05-30T11:32:33Z</time>
      </trkpt>
      <trkpt lat="49.00542" lon="2.04995">
        <ele>37.51</ele>
        <time>2021-05-30T11:32:47Z</time>
      </trkpt>
      <trkpt lat="49.00542" lon="2.05018">
        <ele>37.3</ele>
        <time>2021-05-30T11:33:01Z</time>
      </trkpt>
      <trkpt lat="49.0054" lon="2.05055">
        <ele>36.38</ele>
        <time>2021-05-30T11:33:21Z</time>
      </trkpt>
      <trkpt lat="49.0054" lon="2.05094">
        <ele>34.8</ele>
        <time>2021-05-30T11:33:42Z</time>
      </trkpt>
      <trkpt lat="49.00548" lon="2.05135">
        <ele>33.71</ele>
        <time>2021-05-30T11:34:06Z</time>
      </trkpt>
      <trkpt lat="49.00554" lon="2.05173">
        <ele>33.18</ele>
        <time>2021-05-30T11:34:29Z</time>
      </trkpt>
      <trkpt lat="49.00558" lon="2.05195">
        <ele>32.65</ele>
        <time>2021-05-30T11:34:41Z</time>
      </trkpt>
      <trkpt lat="49.0056" lon="2.052">
        <ele>32.12</ele>
        <time>2021-05-30T11:34:44Z</time>
      </trkpt>
      <trkpt lat="49.00567" lon="2.05222">
        <ele>31.75</ele>
        <time>2021-05-30T11:34:57Z</time>
      </trkpt>
      <trkpt lat="49.00567" lon="2.05224">
        <ele>31.94</ele>
        <time>2021-05-30T11:34:58Z</time>
      </trkpt>
      <trkpt lat="49.00568" lon="2.05228">
        <ele>31.47</ele>
        <time>2021-05-30T11:35:00Z</time>
      </trkpt>
      <trkpt lat="49.00573" lon="2.05256">
        <ele>31.08</ele>
        <time>2021-05-30T11:35:15Z</time>
      </trkpt>
      <trkpt lat="49.00575" lon="2.05262">
        <ele>29.67</ele>
        <time>2021-05-30T11:35:19Z</time>
      </trkpt>
      <trkpt lat="49.00577" lon="2.05266">
        <ele>30.78</ele>
        <time>2021-05-30T11:35:21Z</time>
      </trkpt>
      <trkpt lat="49.00578" lon="2.05277">
        <ele>29.57</ele>
        <time>2021-05-30T11:35:27Z</time>
      </trkpt>
      <trkpt lat="49.00579" lon="2.0528">
        <ele>29.5</ele>
        <time>2021-05-30T11:35:29Z</time>
      </trkpt>
      <trkpt lat="49.00579" lon="2.05285">
        <ele>29.02</ele>
        <time>2021-05-30T11:35:32Z</time>
      </trkpt>
      <trkpt lat="49.00583" lon="2.05302">
        <ele>30.29</ele>
        <time>2021-05-30T11:35:42Z</time>
      </trkpt>
      <trkpt lat="49.00588" lon="2.05322">
        <ele>29.19</ele>
        <time>2021-05-30T11:35:55Z</time>
      </trkpt>
      <trkpt lat="49.00594" lon="2.05352">
        <ele>28.94</ele>
        <time>2021-05-30T11:36:11Z</time>
      </trkpt>
      <trkpt lat="49.006" lon="2.05375">
        <ele>28.4</ele>
        <time>2021-05-30T11:36:25Z</time>
      </trkpt>
      <trkpt lat="49.00606" lon="2.05401">
        <ele>28.05</ele>
        <time>2021-05-30T11:36:39Z</time>
      </trkpt>
      <trkpt lat="49.00609" lon="2.05415">
        <ele>27.83</ele>
        <time>2021-05-30T11:36:47Z</time>
      </trkpt>
      <trkpt lat="49.00612" lon="2.05426">
        <ele>27.56</ele>
        <time>2021-05-30T11:36:53Z</time>
      </trkpt>
      <trkpt lat="49.00612" lon="2.05431">
        <ele>27.38</ele>
        <time>2021-05-30T11:36:56Z</time>
      </trkpt>
      <trkpt lat="49.00613" lon="2.05439">
        <ele>27.78</ele>
        <time>2021-05-30T11:37:01Z</time>
      </trkpt>
      <trkpt lat="49.00621" lon="2.05468">
        <ele>27.37</ele>
        <time>2021-05-30T11:37:16Z</time>
      </trkpt>
      <trkpt lat="49.00622" lon="2.05474">
        <ele>28.02</ele>
        <time>2021-05-30T11:37:20Z</time>
      </trkpt>
      <trkpt lat="49.00624" lon="2.05479">
        <ele>27.9</ele>
        <time>2021-05-30T11:37:23Z</time>
      </trkpt>
      <trkpt lat="49.00631" lon="2.05504">
        <ele>27.69</ele>
        <time>2021-05-30T11:37:39Z</time>
      </trkpt>
      <trkpt lat="49.00638" lon="2.05524">
        <ele>27.42</ele>
        <time>2021-05-30T11:37:56Z</time>
      </trkpt>
      <trkpt lat="49.0064" lon="2.05523">
        <ele>27.04</ele>
        <time>2021-05-30T11:37:58Z</time>
      </trkpt>
      <trkpt lat="49.00644" lon="2.05521">
        <ele>27.83</ele>
        <time>2021-05-30T11:38:07Z</time>
      </trkpt>
      <trkpt lat="49.00647" lon="2.05516">
        <ele>27.01</ele>
        <time>2021-05-30T11:38:10Z</time>
      </trkpt>
      <trkpt lat="49.00659" lon="2.05503">
        <ele>27.54</ele>
        <time>2021-05-30T11:38:22Z</time>
      </trkpt>
      <trkpt lat="49.00662" lon="2.05499">
        <ele>27.34</ele>
        <time>2021-05-30T11:38:27Z</time>
      </trkpt>
      <trkpt lat="49.00679" lon="2.05487">
        <ele>28.02</ele>
        <time>2021-05-30T11:38:40Z</time>
      </trkpt>
      <trkpt lat="49.00689" lon="2.05482">
        <ele>28.43</ele>
        <time>2021-05-30T11:38:48Z</time>
      </trkpt>
      <trkpt lat="49.00705" lon="2.05474">
        <ele>28.57</ele>
        <time>2021-05-30T11:39:04Z</time>
      </trkpt>
      <trkpt lat="49.00719" lon="2.05468">
        <ele>29.28</ele>
        <time>2021-05-30T11:39:16Z</time>
      </trkpt>
      <trkpt lat="49.00725" lon="2.05462">
        <ele>29.53</ele>
        <time>2021-05-30T11:39:21Z</time>
      </trkpt>
      <trkpt lat="49.00734" lon="2.05455">
        <ele>29.68</ele>
        <time>2021-05-30T11:39:30Z</time>
      </trkpt>
      <trkpt lat="49.00737" lon="2.05453">
        <ele>29.37</ele>
        <time>2021-05-30T11:39:33Z</time>
      </trkpt>
      <trkpt lat="49.00759" lon="2.05437">
        <ele>30.47</ele>
        <time>2021-05-30T11:39:54Z</time>
      </trkpt>
      <trkpt lat="49.00778" lon="2.05421">
        <ele>30.7</ele>
        <time>2021-05-30T11:40:13Z</time>
      </trkpt>
      <trkpt lat="49.00797" lon="2.05412">
        <ele>30.8</ele>
        <time>2021-05-30T11:40:26Z</time>
      </trkpt>
      <trkpt lat="49.00802" lon="2.05409">
        <ele>31.25</ele>
        <time>2021-05-30T11:40:31Z</time>
      </trkpt>
      <trkpt lat="49.00817" lon="2.05402">
        <ele>31.67</ele>
        <time>2021-05-30T11:40:44Z</time>
      </trkpt>
      <trkpt lat="49.00831" lon="2.0539">
        <ele>30.28</ele>
        <time>2021-05-30T11:41:00Z</time>
      </trkpt>
      <trkpt lat="49.00856" lon="2.05373">
        <ele>30.82</ele>
        <time>2021-05-30T11:41:21Z</time>
      </trkpt>
      <trkpt lat="49.00877" lon="2.05356">
        <ele>31.22</ele>
        <time>2021-05-30T11:41:39Z</time>
      </trkpt>
      <trkpt lat="49.00887" lon="2.05349">
        <ele>31.37</ele>
        <time>2021-05-30T11:41:50Z</time>
      </trkpt>
      <trkpt lat="49.00913" lon="2.05331">
        <ele>31.91</ele>
        <time>2021-05-30T11:42:11Z</time>
      </trkpt>
      <trkpt lat="49.00935" lon="2.05323">
        <ele>32.13</ele>
        <time>2021-05-30T11:42:32Z</time>
      </trkpt>
      <trkpt lat="49.00955" lon="2.05317">
        <ele>31.74</ele>
        <time>2021-05-30T11:42:48Z</time>
      </trkpt>
      <trkpt lat="49.00956" lon="2.05316">
        <ele>31.6</ele>
        <time>2021-05-30T11:42:49Z</time>
      </trkpt>
      <trkpt lat="49.00967" lon="2.05313">
        <ele>31.88</ele>
        <time>2021-05-30T11:42:57Z</time>
      </trkpt>
      <trkpt lat="49.00974" lon="2.05312">
        <ele>32.01</ele>
        <time>2021-05-30T11:43:02Z</time>
      </trkpt>
      <trkpt lat="49.00988" lon="2.05306">
        <ele>32.36</ele>
        <time>2021-05-30T11:43:14Z</time>
      </trkpt>
      <trkpt lat="49.0099" lon="2.05306">
        <ele>32.4</ele>
        <time>2021-05-30T11:43:15Z</time>
      </trkpt>
      <trkpt lat="49.00992" lon="2.05306">
        <ele>32.26</ele>
        <time>2021-05-30T11:43:17Z</time>
      </trkpt>
      <trkpt lat="49.01005" lon="2.053">
        <ele>32.11</ele>
        <time>2021-05-30T11:43:31Z</time>
      </trkpt>
      <trkpt lat="49.01025" lon="2.0529">
        <ele>31.83</ele>
        <time>2021-05-30T11:43:46Z</time>
      </trkpt>
      <trkpt lat="49.01036" lon="2.05287">
        <ele>32.59</ele>
        <time>2021-05-30T11:43:56Z</time>
      </trkpt>
      <trkpt lat="49.01049" lon="2.05275">
        <ele>31.23</ele>
        <time>2021-05-30T11:44:10Z</time>
      </trkpt>
      <trkpt lat="49.01066" lon="2.05266">
        <ele>31.71</ele>
        <time>2021-05-30T11:44:23Z</time>
      </trkpt>
      <trkpt lat="49.01069" lon="2.05265">
        <ele>31.81</ele>
        <time>2021-05-30T11:44:26Z</time>
      </trkpt>
      <trkpt lat="49.01083" lon="2.0525">
        <ele>31.96</ele>
        <time>2021-05-30T11:44:39Z</time>
      </trkpt>
      <trkpt lat="49.011" lon="2.05244">
        <ele>31.69</ele>
        <time>2021-05-30T11:44:51Z</time>
      </trkpt>
      <trkpt lat="49.01104" lon="2.05239">
        <ele>31.84</ele>
        <time>2021-05-30T11:44:55Z</time>
      </trkpt>
      <trkpt lat="49.01118" lon="2.05231">
        <ele>31.27</ele>
        <time>2021-05-30T11:45:08Z</time>
      </trkpt>
      <trkpt lat="49.01136" lon="2.05218">
        <ele>30.98</ele>
        <time>2021-05-30T11:45:24Z</time>
      </trkpt>
      <trkpt lat="49.01151" lon="2.05207">
        <ele>31.31</ele>
        <time>2021-05-30T11:45:38Z</time>
      </trkpt>
      <trkpt lat="49.01162" lon="2.05193">
        <ele>30.83</ele>
        <time>2021-05-30T11:45:53Z</time>
      </trkpt>
      <trkpt lat="49.0117" lon="2.05188">
        <ele>31.39</ele>
        <time>2021-05-30T11:46:11Z</time>
      </trkpt>
      <trkpt lat="49.01171" lon="2.05188">
        <ele>31.05</ele>
        <time>2021-05-30T11:46:12Z</time>
      </trkpt>
      <trkpt lat="49.01189" lon="2.05186">
        <ele>32.39</ele>
        <time>2021-05-30T11:46:28Z</time>
      </trkpt>
      <trkpt lat="49.01197" lon="2.05182">
        <ele>31.23</ele>
        <time>2021-05-30T11:46:35Z</time>
      </trkpt>
      <trkpt lat="49.01212" lon="2.05171">
        <ele>30.93</ele>
        <time>2021-05-30T11:46:48Z</time>
      </trkpt>
      <trkpt lat="49.01224" lon="2.05163">
        <ele>31.08</ele>
        <time>2021-05-30T11:46:58Z</time>
      </trkpt>
      <trkpt lat="49.0123" lon="2.05159">
        <ele>31.33</ele>
        <time>2021-05-30T11:47:03Z</time>
      </trkpt>
      <trkpt lat="49.01245" lon="2.05145">
        <ele>31.32</ele>
        <time>2021-05-30T11:47:18Z</time>
      </trkpt>
      <trkpt lat="49.01258" lon="2.05129">
        <ele>31.23</ele>
        <time>2021-05-30T11:47:31Z</time>
      </trkpt>
      <trkpt lat="49.01264" lon="2.05123">
        <ele>31.14</ele>
        <time>2021-05-30T11:47:37Z</time>
      </trkpt>
      <trkpt lat="49.01267" lon="2.0512">
        <ele>31.23</ele>
        <time>2021-05-30T11:47:40Z</time>
      </trkpt>
      <trkpt lat="49.01272" lon="2.05113">
        <ele>30.82</ele>
        <time>2021-05-30T11:47:47Z</time>
      </trkpt>
      <trkpt lat="49.0128" lon="2.05094">
        <ele>30.97</ele>
        <time>2021-05-30T11:47:59Z</time>
      </trkpt>
      <trkpt lat="49.01288" lon="2.05077">
        <ele>31.12</ele>
        <time>2021-05-30T11:48:12Z</time>
      </trkpt>
      <trkpt lat="49.01302" lon="2.05067">
        <ele>30.96</ele>
        <time>2021-05-30T11:48:23Z</time>
      </trkpt>
      <trkpt lat="49.01308" lon="2.0506">
        <ele>31.07</ele>
        <time>2021-05-30T11:48:31Z</time>
      </trkpt>
      <trkpt lat="49.01318" lon="2.0505">
        <ele>31.48</ele>
        <time>2021-05-30T11:48:40Z</time>
      </trkpt>
      <trkpt lat="49.01333" lon="2.05032">
        <ele>31.64</ele>
        <time>2021-05-30T11:48:55Z</time>
      </trkpt>
      <trkpt lat="49.01347" lon="2.0502">
        <ele>31.68</ele>
        <time>2021-05-30T11:49:11Z</time>
      </trkpt>
      <trkpt lat="49.01349" lon="2.05004">
        <ele>31.55</ele>
        <time>2021-05-30T11:49:18Z</time>
      </trkpt>
      <trkpt lat="49.0136" lon="2.04978">
        <ele>32.19</ele>
        <time>2021-05-30T11:49:32Z</time>
      </trkpt>
      <trkpt lat="49.0137" lon="2.04955">
        <ele>33.23</ele>
        <time>2021-05-30T11:49:47Z</time>
      </trkpt>
      <trkpt lat="49.01378" lon="2.04944">
        <ele>33.45</ele>
        <time>2021-05-30T11:49:56Z</time>
      </trkpt>
      <trkpt lat="49.0138" lon="2.04941">
        <ele>33.19</ele>
        <time>2021-05-30T11:49:58Z</time>
      </trkpt>
      <trkpt lat="49.01384" lon="2.04935">
        <ele>33.37</ele>
        <time>2021-05-30T11:50:03Z</time>
      </trkpt>
      <trkpt lat="49.01391" lon="2.04925">
        <ele>33.37</ele>
        <time>2021-05-30T11:50:11Z</time>
      </trkpt>
      <trkpt lat="49.01399" lon="2.04913">
        <ele>34.39</ele>
        <time>2021-05-30T11:50:21Z</time>
      </trkpt>
      <trkpt lat="49.01406" lon="2.04898">
        <ele>33.79</ele>
        <time>2021-05-30T11:50:32Z</time>
      </trkpt>
      <trkpt lat="49.0142" lon="2.04873">
        <ele>34.58</ele>
        <time>2021-05-30T11:50:49Z</time>
      </trkpt>
      <trkpt lat="49.0143" lon="2.04853">
        <ele>35.44</ele>
        <time>2021-05-30T11:51:03Z</time>
      </trkpt>
      <trkpt lat="49.01431" lon="2.04852">
        <ele>35.42</ele>
        <time>2021-05-30T11:51:04Z</time>
      </trkpt>
      <trkpt lat="49.01432" lon="2.04849">
        <ele>35.64</ele>
        <time>2021-05-30T11:51:06Z</time>
      </trkpt>
      <trkpt lat="49.01437" lon="2.04842">
        <ele>35.18</ele>
        <time>2021-05-30T11:51:12Z</time>
      </trkpt>
      <trkpt lat="49.01438" lon="2.0484">
        <ele>35.17</ele>
        <time>2021-05-30T11:51:14Z</time>
      </trkpt>
      <trkpt lat="49.01451" lon="2.04822">
        <ele>35.5</ele>
        <time>2021-05-30T11:51:28Z</time>
      </trkpt>
      <trkpt lat="49.01458" lon="2.04809">
        <ele>35.96</ele>
        <time>2021-05-30T11:51:40Z</time>
      </trkpt>
      <trkpt lat="49.01463" lon="2.04792">
        <ele>35.78</ele>
        <time>2021-05-30T11:51:58Z</time>
      </trkpt>
      <trkpt lat="49.01466" lon="2.04785">
        <ele>35.92</ele>
        <time>2021-05-30T11:52:04Z</time>
      </trkpt>
      <trkpt lat="49.01468" lon="2.04782">
        <ele>35.88</ele>
        <time>2021-05-30T11:52:07Z</time>
      </trkpt>
      <trkpt lat="49.01472" lon="2.0477">
        <ele>35.95</ele>
        <time>2021-05-30T11:52:15Z</time>
      </trkpt>
      <trkpt lat="49.01483" lon="2.04747">
        <ele>36.24</ele>
        <time>2021-05-30T11:52:28Z</time>
      </trkpt>
      <trkpt lat="49.01487" lon="2.04732">
        <ele>36.09</ele>
        <time>2021-05-30T11:52:40Z</time>
      </trkpt>
      <trkpt lat="49.01487" lon="2.04729">
        <ele>36.43</ele>
        <time>2021-05-30T11:52:42Z</time>
      </trkpt>
      <trkpt lat="49.01489" lon="2.04701">
        <ele>37.03</ele>
        <time>2021-05-30T11:52:56Z</time>
      </trkpt>
      <trkpt lat="49.0149" lon="2.04699">
        <ele>36.79</ele>
        <time>2021-05-30T11:52:57Z</time>
      </trkpt>
      <trkpt lat="49.01506" lon="2.04686">
        <ele>37.59</ele>
        <time>2021-05-30T11:53:15Z</time>
      </trkpt>
      <trkpt lat="49.01511" lon="2.04658">
        <ele>37.26</ele>
        <time>2021-05-30T11:53:37Z</time>
      </trkpt>
      <trkpt lat="49.01521" lon="2.0464">
        <ele>37.45</ele>
        <time>2021-05-30T11:53:51Z</time>
      </trkpt>
      <trkpt lat="49.01524" lon="2.04628">
        <ele>36.85</ele>
        <time>2021-05-30T11:53:59Z</time>
      </trkpt>
      <trkpt lat="49.01529" lon="2.04618">
        <ele>36.87</ele>
        <time>2021-05-30T11:54:03Z</time>
      </trkpt>
      <trkpt lat="49.01531" lon="2.04613">
        <ele>36.35</ele>
        <time>2021-05-30T11:54:06Z</time>
      </trkpt>
      <trkpt lat="49.01537" lon="2.04597">
        <ele>37.15</ele>
        <time>2021-05-30T11:54:16Z</time>
      </trkpt>
      <trkpt lat="49.01548" lon="2.0458">
        <ele>36.7</ele>
        <time>2021-05-30T11:54:27Z</time>
      </trkpt>
      <trkpt lat="49.01561" lon="2.04579">
        <ele>37.69</ele>
        <time>2021-05-30T11:54:43Z</time>
      </trkpt>
      <trkpt lat="49.01562" lon="2.04586">
        <ele>37.72</ele>
        <time>2021-05-30T11:55:02Z</time>
      </trkpt>
      <trkpt lat="49.01562" lon="2.04583">
        <ele>37.73</ele>
        <time>2021-05-30T11:55:20Z</time>
      </trkpt>
      <trkpt lat="49.01564" lon="2.04578">
        <ele>37.57</ele>
        <time>2021-05-30T11:55:33Z</time>
      </trkpt>
      <trkpt lat="49.01567" lon="2.04563">
        <ele>37.2</ele>
        <time>2021-05-30T11:55:48Z</time>
      </trkpt>
      <trkpt lat="49.01577" lon="2.04549">
        <ele>37.75</ele>
        <time>2021-05-30T11:56:01Z</time>
      </trkpt>
      <trkpt lat="49.01591" lon="2.04525">
        <ele>37.6</ele>
        <time>2021-05-30T11:56:20Z</time>
      </trkpt>
      <trkpt lat="49.01603" lon="2.04504">
        <ele>36.94</ele>
        <time>2021-05-30T11:56:37Z</time>
      </trkpt>
      <trkpt lat="49.01617" lon="2.04484">
        <ele>37.32</ele>
        <time>2021-05-30T11:56:52Z</time>
      </trkpt>
      <trkpt lat="49.01628" lon="2.04467">
        <ele>36.7</ele>
        <time>2021-05-30T11:57:06Z</time>
      </trkpt>
      <trkpt lat="49.0163" lon="2.04462">
        <ele>36.8</ele>
        <time>2021-05-30T11:57:10Z</time>
      </trkpt>
      <trkpt lat="49.01647" lon="2.04441">
        <ele>36.15</ele>
        <time>2021-05-30T11:57:27Z</time>
      </trkpt>
      <trkpt lat="49.01656" lon="2.04428">
        <ele>35.47</ele>
        <time>2021-05-30T11:57:38Z</time>
      </trkpt>
      <trkpt lat="49.01672" lon="2.04413">
        <ele>35.69</ele>
        <time>2021-05-30T11:57:55Z</time>
      </trkpt>
      <trkpt lat="49.01683" lon="2.044">
        <ele>35.53</ele>
        <time>2021-05-30T11:58:08Z</time>
      </trkpt>
      <trkpt lat="49.01697" lon="2.04387">
        <ele>34.84</ele>
        <time>2021-05-30T11:58:23Z</time>
      </trkpt>
      <trkpt lat="49.01702" lon="2.04374">
        <ele>34.45</ele>
        <time>2021-05-30T11:58:34Z</time>
      </trkpt>
      <trkpt lat="49.0171" lon="2.04357">
        <ele>34.04</ele>
        <time>2021-05-30T11:58:48Z</time>
      </trkpt>
      <trkpt lat="49.01715" lon="2.04352">
        <ele>34.02</ele>
        <time>2021-05-30T11:58:59Z</time>
      </trkpt>
      <trkpt lat="49.01725" lon="2.04344">
        <ele>33.4</ele>
        <time>2021-05-30T11:59:10Z</time>
      </trkpt>
      <trkpt lat="49.01734" lon="2.04331">
        <ele>33.16</ele>
        <time>2021-05-30T11:59:22Z</time>
      </trkpt>
      <trkpt lat="49.01756" lon="2.04311">
        <ele>32.75</ele>
        <time>2021-05-30T11:59:45Z</time>
      </trkpt>
      <trkpt lat="49.01779" lon="2.04288">
        <ele>32.05</ele>
        <time>2021-05-30T12:00:07Z</time>
      </trkpt>
      <trkpt lat="49.01806" lon="2.04257">
        <ele>31.74</ele>
        <time>2021-05-30T12:00:27Z</time>
      </trkpt>
      <trkpt lat="49.01812" lon="2.0425">
        <ele>31.62</ele>
        <time>2021-05-30T12:00:34Z</time>
      </trkpt>
      <trkpt lat="49.01816" lon="2.04243">
        <ele>30.75</ele>
        <time>2021-05-30T12:00:39Z</time>
      </trkpt>
      <trkpt lat="49.0182" lon="2.04238">
        <ele>30.85</ele>
        <time>2021-05-30T12:00:44Z</time>
      </trkpt>
      <trkpt lat="49.01832" lon="2.04219">
        <ele>30.07</ele>
        <time>2021-05-30T12:00:58Z</time>
      </trkpt>
      <trkpt lat="49.01835" lon="2.04213">
        <ele>29.59</ele>
        <time>2021-05-30T12:01:03Z</time>
      </trkpt>
      <trkpt lat="49.01838" lon="2.04209">
        <ele>28.56</ele>
        <time>2021-05-30T12:01:06Z</time>
      </trkpt>
      <trkpt lat="49.01845" lon="2.04204">
        <ele>29.53</ele>
        <time>2021-05-30T12:01:11Z</time>
      </trkpt>
      <trkpt lat="49.0185" lon="2.04199">
        <ele>29.65</ele>
        <time>2021-05-30T12:01:16Z</time>
      </trkpt>
      <trkpt lat="49.01855" lon="2.04192">
        <ele>29.54</ele>
        <time>2021-05-30T12:01:21Z</time>
      </trkpt>
      <trkpt lat="49.01861" lon="2.0419">
        <ele>29.66</ele>
        <time>2021-05-30T12:01:25Z</time>
      </trkpt>
      <trkpt lat="49.01874" lon="2.04179">
        <ele>29.08</ele>
        <time>2021-05-30T12:01:37Z</time>
      </trkpt>
      <trkpt lat="49.0188" lon="2.04174">
        <ele>29.05</ele>
        <time>2021-05-30T12:01:42Z</time>
      </trkpt>
      <trkpt lat="49.01892" lon="2.04164">
        <ele>28.75</ele>
        <time>2021-05-30T12:01:53Z</time>
      </trkpt>
      <trkpt lat="49.01904" lon="2.04151">
        <ele>28.06</ele>
        <time>2021-05-30T12:02:05Z</time>
      </trkpt>
      <trkpt lat="49.01914" lon="2.04141">
        <ele>28.2</ele>
        <time>2021-05-30T12:02:17Z</time>
      </trkpt>
      <trkpt lat="49.01918" lon="2.04135">
        <ele>27.72</ele>
        <time>2021-05-30T12:02:23Z</time>
      </trkpt>
      <trkpt lat="49.01921" lon="2.04131">
        <ele>28.23</ele>
        <time>2021-05-30T12:02:26Z</time>
      </trkpt>
      <trkpt lat="49.01935" lon="2.04118">
        <ele>27.54</ele>
        <time>2021-05-30T12:02:40Z</time>
      </trkpt>
      <trkpt lat="49.01935" lon="2.04117">
        <ele>27.89</ele>
        <time>2021-05-30T12:02:41Z</time>
      </trkpt>
      <trkpt lat="49.0194" lon="2.04112">
        <ele>27.38</ele>
        <time>2021-05-30T12:02:46Z</time>
      </trkpt>
      <trkpt lat="49.01946" lon="2.04107">
        <ele>27.16</ele>
        <time>2021-05-30T12:02:52Z</time>
      </trkpt>
      <trkpt lat="49.01949" lon="2.04105">
        <ele>27.25</ele>
        <time>2021-05-30T12:02:55Z</time>
      </trkpt>
      <trkpt lat="49.01956" lon="2.04102">
        <ele>27.25</ele>
        <time>2021-05-30T12:03:01Z</time>
      </trkpt>
      <trkpt lat="49.01972" lon="2.0409">
        <ele>26.92</ele>
        <time>2021-05-30T12:03:15Z</time>
      </trkpt>
      <trkpt lat="49.01983" lon="2.0408">
        <ele>28.03</ele>
        <time>2021-05-30T12:03:26Z</time>
      </trkpt>
      <trkpt lat="49.01999" lon="2.04063">
        <ele>28.04</ele>
        <time>2021-05-30T12:03:43Z</time>
      </trkpt>
      <trkpt lat="49.02012" lon="2.04049">
        <ele>28.56</ele>
        <time>2021-05-30T12:03:57Z</time>
      </trkpt>
      <trkpt lat="49.02023" lon="2.04041">
        <ele>28.9</ele>
        <time>2021-05-30T12:04:08Z</time>
      </trkpt>
      <trkpt lat="49.02029" lon="2.04034">
        <ele>28.74</ele>
        <time>2021-05-30T12:04:15Z</time>
      </trkpt>
      <trkpt lat="49.02032" lon="2.0403">
        <ele>28.92</ele>
        <time>2021-05-30T12:04:19Z</time>
      </trkpt>
      <trkpt lat="49.0204" lon="2.04028">
        <ele>29.74</ele>
        <time>2021-05-30T12:04:36Z</time>
      </trkpt>
      <trkpt lat="49.02045" lon="2.04021">
        <ele>29.16</ele>
        <time>2021-05-30T12:04:52Z</time>
      </trkpt>
      <trkpt lat="49.02056" lon="2.04013">
        <ele>29.15</ele>
        <time>2021-05-30T12:05:02Z</time>
      </trkpt>
      <trkpt lat="49.02082" lon="2.04005">
        <ele>31.07</ele>
        <time>2021-05-30T12:05:24Z</time>
      </trkpt>
      <trkpt lat="49.0209" lon="2.03994">
        <ele>31.04</ele>
        <time>2021-05-30T12:05:34Z</time>
      </trkpt>
      <trkpt lat="49.02094" lon="2.0399">
        <ele>31.84</ele>
        <time>2021-05-30T12:05:39Z</time>
      </trkpt>
      <trkpt lat="49.02095" lon="2.03989">
        <ele>31.83</ele>
        <time>2021-05-30T12:05:43Z</time>
      </trkpt>
      <trkpt lat="49.02098" lon="2.03987">
        <ele>31.05</ele>
        <time>2021-05-30T12:05:46Z</time>
      </trkpt>
      <trkpt lat="49.02115" lon="2.03975">
        <ele>29.78</ele>
        <time>2021-05-30T12:06:03Z</time>
      </trkpt>
      <trkpt lat="49.0213" lon="2.03964">
        <ele>29.3</ele>
        <time>2021-05-30T12:06:17Z</time>
      </trkpt>
      <trkpt lat="49.02144" lon="2.03952">
        <ele>28.81</ele>
        <time>2021-05-30T12:06:31Z</time>
      </trkpt>
      <trkpt lat="49.02162" lon="2.03939">
        <ele>28.27</ele>
        <time>2021-05-30T12:06:48Z</time>
      </trkpt>
      <trkpt lat="49.02175" lon="2.03929">
        <ele>27.2</ele>
        <time>2021-05-30T12:07:03Z</time>
      </trkpt>
      <trkpt lat="49.02193" lon="2.03921">
        <ele>27.68</ele>
        <time>2021-05-30T12:07:19Z</time>
      </trkpt>
      <trkpt lat="49.02203" lon="2.03919">
        <ele>27.82</ele>
        <time>2021-05-30T12:07:29Z</time>
      </trkpt>
      <trkpt lat="49.02215" lon="2.03909">
        <ele>27.78</ele>
        <time>2021-05-30T12:07:44Z</time>
      </trkpt>
      <trkpt lat="49.02223" lon="2.03888">
        <ele>30.45</ele>
        <time>2021-05-30T12:08:04Z</time>
      </trkpt>
      <trkpt lat="49.02235" lon="2.03866">
        <ele>32.01</ele>
        <time>2021-05-30T12:08:22Z</time>
      </trkpt>
      <trkpt lat="49.02245" lon="2.03831">
        <ele>31.89</ele>
        <time>2021-05-30T12:08:40Z</time>
      </trkpt>
      <trkpt lat="49.02253" lon="2.03818">
        <ele>31.65</ele>
        <time>2021-05-30T12:08:52Z</time>
      </trkpt>
      <trkpt lat="49.02262" lon="2.03811">
        <ele>32.43</ele>
        <time>2021-05-30T12:09:02Z</time>
      </trkpt>
      <trkpt lat="49.02277" lon="2.03794">
        <ele>32.44</ele>
        <time>2021-05-30T12:09:21Z</time>
      </trkpt>
      <trkpt lat="49.02294" lon="2.03782">
        <ele>32.7</ele>
        <time>2021-05-30T12:09:35Z</time>
      </trkpt>
      <trkpt lat="49.02302" lon="2.03777">
        <ele>32.57</ele>
        <time>2021-05-30T12:09:43Z</time>
      </trkpt>
      <trkpt lat="49.02308" lon="2.03772">
        <ele>32.81</ele>
        <time>2021-05-30T12:09:49Z</time>
      </trkpt>
      <trkpt lat="49.02323" lon="2.03758">
        <ele>33.64</ele>
        <time>2021-05-30T12:10:01Z</time>
      </trkpt>
      <trkpt lat="49.02326" lon="2.03756">
        <ele>33.86</ele>
        <time>2021-05-30T12:10:04Z</time>
      </trkpt>
      <trkpt lat="49.02339" lon="2.03745">
        <ele>33.99</ele>
        <time>2021-05-30T12:10:16Z</time>
      </trkpt>
      <trkpt lat="49.02353" lon="2.03727">
        <ele>33.64</ele>
        <time>2021-05-30T12:10:31Z</time>
      </trkpt>
      <trkpt lat="49.02367" lon="2.03717">
        <ele>33.76</ele>
        <time>2021-05-30T12:10:47Z</time>
      </trkpt>
      <trkpt lat="49.0238" lon="2.03701">
        <ele>34.62</ele>
        <time>2021-05-30T12:11:00Z</time>
      </trkpt>
      <trkpt lat="49.0239" lon="2.03691">
        <ele>34.94</ele>
        <time>2021-05-30T12:11:16Z</time>
      </trkpt>
      <trkpt lat="49.02395" lon="2.03689">
        <ele>34.94</ele>
        <time>2021-05-30T12:11:30Z</time>
      </trkpt>
      <trkpt lat="49.02406" lon="2.03679">
        <ele>34.55</ele>
        <time>2021-05-30T12:11:45Z</time>
      </trkpt>
      <trkpt lat="49.02411" lon="2.03674">
        <ele>33.39</ele>
        <time>2021-05-30T12:11:52Z</time>
      </trkpt>
      <trkpt lat="49.02414" lon="2.03669">
        <ele>34.78</ele>
        <time>2021-05-30T12:11:57Z</time>
      </trkpt>
      <trkpt lat="49.02429" lon="2.03654">
        <ele>34.79</ele>
        <time>2021-05-30T12:12:13Z</time>
      </trkpt>
      <trkpt lat="49.02433" lon="2.03648">
        <ele>34.49</ele>
        <time>2021-05-30T12:12:22Z</time>
      </trkpt>
      <trkpt lat="49.02442" lon="2.03633">
        <ele>34.75</ele>
        <time>2021-05-30T12:12:36Z</time>
      </trkpt>
      <trkpt lat="49.0245" lon="2.03622">
        <ele>34.78</ele>
        <time>2021-05-30T12:12:47Z</time>
      </trkpt>
      <trkpt lat="49.02465" lon="2.0361">
        <ele>34.6</ele>
        <time>2021-05-30T12:13:03Z</time>
      </trkpt>
      <trkpt lat="49.0247" lon="2.03603">
        <ele>35.28</ele>
        <time>2021-05-30T12:13:21Z</time>
      </trkpt>
      <trkpt lat="49.02473" lon="2.03602">
        <ele>34.37</ele>
        <time>2021-05-30T12:13:45Z</time>
      </trkpt>
      <trkpt lat="49.02485" lon="2.03596">
        <ele>34.28</ele>
        <time>2021-05-30T12:14:03Z</time>
      </trkpt>
      <trkpt lat="49.02496" lon="2.03585">
        <ele>34.5</ele>
        <time>2021-05-30T12:14:16Z</time>
      </trkpt>
      <trkpt lat="49.0251" lon="2.03568">
        <ele>33.8</ele>
        <time>2021-05-30T12:14:38Z</time>
      </trkpt>
      <trkpt lat="49.02524" lon="2.03554">
        <ele>34.41</ele>
        <time>2021-05-30T12:15:01Z</time>
      </trkpt>
      <trkpt lat="49.02533" lon="2.03545">
        <ele>34.43</ele>
        <time>2021-05-30T12:15:19Z</time>
      </trkpt>
      <trkpt lat="49.02543" lon="2.03536">
        <ele>34.38</ele>
        <time>2021-05-30T12:15:37Z</time>
      </trkpt>
      <trkpt lat="49.02557" lon="2.03524">
        <ele>35.03</ele>
        <time>2021-05-30T12:15:53Z</time>
      </trkpt>
      <trkpt lat="49.02575" lon="2.03505">
        <ele>35.03</ele>
        <time>2021-05-30T12:16:15Z</time>
      </trkpt>
      <trkpt lat="49.02597" lon="2.0348">
        <ele>34.97</ele>
        <time>2021-05-30T12:16:37Z</time>
      </trkpt>
      <trkpt lat="49.02612" lon="2.03462">
        <ele>35.05</ele>
        <time>2021-05-30T12:16:58Z</time>
      </trkpt>
      <trkpt lat="49.02625" lon="2.03447">
        <ele>34.44</ele>
        <time>2021-05-30T12:17:12Z</time>
      </trkpt>
      <trkpt lat="49.02653" lon="2.03429">
        <ele>35.15</ele>
        <time>2021-05-30T12:17:34Z</time>
      </trkpt>
      <trkpt lat="49.02666" lon="2.03418">
        <ele>35.1</ele>
        <time>2021-05-30T12:17:50Z</time>
      </trkpt>
      <trkpt lat="49.02685" lon="2.03399">
        <ele>36.24</ele>
        <time>2021-05-30T12:18:10Z</time>
      </trkpt>
      <trkpt lat="49.02698" lon="2.0338">
        <ele>36.33</ele>
        <time>2021-05-30T12:18:28Z</time>
      </trkpt>
      <trkpt lat="49.02715" lon="2.03364">
        <ele>37.29</ele>
        <time>2021-05-30T12:18:44Z</time>
      </trkpt>
      <trkpt lat="49.02724" lon="2.03357">
        <ele>37.21</ele>
        <time>2021-05-30T12:18:54Z</time>
      </trkpt>
      <trkpt lat="49.02738" lon="2.03343">
        <ele>37.37</ele>
        <time>2021-05-30T12:19:11Z</time>
      </trkpt>
      <trkpt lat="49.02758" lon="2.03328">
        <ele>37.39</ele>
        <time>2021-05-30T12:19:31Z</time>
      </trkpt>
      <trkpt lat="49.02767" lon="2.03317">
        <ele>38.07</ele>
        <time>2021-05-30T12:19:39Z</time>
      </trkpt>
      <trkpt lat="49.02786" lon="2.03295">
        <ele>38.82</ele>
        <time>2021-05-30T12:19:56Z</time>
      </trkpt>
      <trkpt lat="49.02798" lon="2.03289">
        <ele>39.04</ele>
        <time>2021-05-30T12:20:13Z</time>
      </trkpt>
      <trkpt lat="49.02804" lon="2.03288">
        <ele>39.16</ele>
        <time>2021-05-30T12:20:32Z</time>
      </trkpt>
      <trkpt lat="49.02808" lon="2.03288">
        <ele>38.98</ele>
        <time>2021-05-30T12:20:38Z</time>
      </trkpt>
      <trkpt lat="49.02827" lon="2.03283">
        <ele>39.55</ele>
        <time>2021-05-30T12:20:55Z</time>
      </trkpt>
      <trkpt lat="49.02837" lon="2.0328">
        <ele>39.69</ele>
        <time>2021-05-30T12:21:05Z</time>
      </trkpt>
      <trkpt lat="49.02848" lon="2.03281">
        <ele>38.83</ele>
        <time>2021-05-30T12:21:15Z</time>
      </trkpt>
      <trkpt lat="49.02866" lon="2.03269">
        <ele>37.4</ele>
        <time>2021-05-30T12:21:31Z</time>
      </trkpt>
      <trkpt lat="49.02876" lon="2.03266">
        <ele>37.8</ele>
        <time>2021-05-30T12:21:44Z</time>
      </trkpt>
      <trkpt lat="49.02881" lon="2.03263">
        <ele>38.29</ele>
        <time>2021-05-30T12:21:48Z</time>
      </trkpt>
      <trkpt lat="49.02885" lon="2.03261">
        <ele>38.06</ele>
        <time>2021-05-30T12:21:51Z</time>
      </trkpt>
      <trkpt lat="49.02899" lon="2.03252">
        <ele>37.68</ele>
        <time>2021-05-30T12:22:07Z</time>
      </trkpt>
      <trkpt lat="49.02903" lon="2.03249">
        <ele>38.5</ele>
        <time>2021-05-30T12:22:22Z</time>
      </trkpt>
      <trkpt lat="49.02904" lon="2.03246">
        <ele>38.33</ele>
        <time>2021-05-30T12:22:40Z</time>
      </trkpt>
      <trkpt lat="49.02911" lon="2.03245">
        <ele>37.84</ele>
        <time>2021-05-30T12:22:56Z</time>
      </trkpt>
      <trkpt lat="49.02926" lon="2.03237">
        <ele>37.25</ele>
        <time>2021-05-30T12:23:13Z</time>
      </trkpt>
      <trkpt lat="49.02942" lon="2.03231">
        <ele>37.76</ele>
        <time>2021-05-30T12:23:28Z</time>
      </trkpt>
      <trkpt lat="49.02968" lon="2.03227">
        <ele>37.98</ele>
        <time>2021-05-30T12:23:49Z</time>
      </trkpt>
      <trkpt lat="49.02988" lon="2.03223">
        <ele>37.4</ele>
        <time>2021-05-30T12:24:06Z</time>
      </trkpt>
      <trkpt lat="49.02996" lon="2.03222">
        <ele>37.48</ele>
        <time>2021-05-30T12:24:14Z</time>
      </trkpt>
      <trkpt lat="49.03009" lon="2.03219">
        <ele>37.09</ele>
        <time>2021-05-30T12:24:26Z</time>
      </trkpt>
      <trkpt lat="49.03024" lon="2.03219">
        <ele>36.59</ele>
        <time>2021-05-30T12:24:39Z</time>
      </trkpt>
      <trkpt lat="49.03038" lon="2.0322">
        <ele>37.02</ele>
        <time>2021-05-30T12:24:53Z</time>
      </trkpt>
      <trkpt lat="49.03051" lon="2.03217">
        <ele>36.43</ele>
        <time>2021-05-30T12:25:07Z</time>
      </trkpt>
      <trkpt lat="49.03076" lon="2.03204">
        <ele>36.8</ele>
        <time>2021-05-30T12:25:31Z</time>
      </trkpt>
      <trkpt lat="49.03084" lon="2.03203">
        <ele>36.24</ele>
        <time>2021-05-30T12:25:41Z</time>
      </trkpt>
      <trkpt lat="49.031" lon="2.03197">
        <ele>36.07</ele>
        <time>2021-05-30T12:25:54Z</time>
      </trkpt>
      <trkpt lat="49.03102" lon="2.03197">
        <ele>35.64</ele>
        <time>2021-05-30T12:25:56Z</time>
      </trkpt>
      <trkpt lat="49.03118" lon="2.03193">
        <ele>35.78</ele>
        <time>2021-05-30T12:26:10Z</time>
      </trkpt>
      <trkpt lat="49.03121" lon="2.03191">
        <ele>36.1</ele>
        <time>2021-05-30T12:26:13Z</time>
      </trkpt>
      <trkpt lat="49.03131" lon="2.03187">
        <ele>35.64</ele>
        <time>2021-05-30T12:26:31Z</time>
      </trkpt>
      <trkpt lat="49.03138" lon="2.03188">
        <ele>35.98</ele>
        <time>2021-05-30T12:26:53Z</time>
      </trkpt>
      <trkpt lat="49.03147" lon="2.03193">
        <ele>36.3</ele>
        <time>2021-05-30T12:27:12Z</time>
      </trkpt>
      <trkpt lat="49.03155" lon="2.03196">
        <ele>35.68</ele>
        <time>2021-05-30T12:27:29Z</time>
      </trkpt>
      <trkpt lat="49.03164" lon="2.03195">
        <ele>35.81</ele>
        <time>2021-05-30T12:27:44Z</time>
      </trkpt>
      <trkpt lat="49.03173" lon="2.03194">
        <ele>36.24</ele>
        <time>2021-05-30T12:28:01Z</time>
      </trkpt>
      <trkpt lat="49.03186" lon="2.03194">
        <ele>36.5</ele>
        <time>2021-05-30T12:28:20Z</time>
      </trkpt>
      <trkpt lat="49.032" lon="2.03193">
        <ele>36.69</ele>
        <time>2021-05-30T12:28:40Z</time>
      </trkpt>
      <trkpt lat="49.03214" lon="2.03194">
        <ele>36.84</ele>
        <time>2021-05-30T12:28:59Z</time>
      </trkpt>
      <trkpt lat="49.03225" lon="2.03195">
        <ele>35.7</ele>
        <time>2021-05-30T12:29:12Z</time>
      </trkpt>
      <trkpt lat="49.03229" lon="2.03192">
        <ele>36.12</ele>
        <time>2021-05-30T12:29:16Z</time>
      </trkpt>
      <trkpt lat="49.03241" lon="2.0319">
        <ele>36.62</ele>
        <time>2021-05-30T12:29:31Z</time>
      </trkpt>
      <trkpt lat="49.03252" lon="2.03188">
        <ele>36.29</ele>
        <time>2021-05-30T12:29:51Z</time>
      </trkpt>
      <trkpt lat="49.03251" lon="2.03188">
        <ele>36.87</ele>
        <time>2021-05-30T12:30:07Z</time>
      </trkpt>
      <trkpt lat="49.03261" lon="2.03188">
        <ele>36.51</ele>
        <time>2021-05-30T12:30:26Z</time>
      </trkpt>
      <trkpt lat="49.0327" lon="2.03192">
        <ele>37.09</ele>
        <time>2021-05-30T12:30:44Z</time>
      </trkpt>
      <trkpt lat="49.03275" lon="2.03197">
        <ele>36.4</ele>
        <time>2021-05-30T12:31:10Z</time>
      </trkpt>
      <trkpt lat="49.03278" lon="2.03199">
        <ele>37.1</ele>
        <time>2021-05-30T12:31:41Z</time>
      </trkpt>
      <trkpt lat="49.03279" lon="2.03202">
        <ele>36.46</ele>
        <time>2021-05-30T12:31:58Z</time>
      </trkpt>
      <trkpt lat="49.03277" lon="2.03196">
        <ele>37.11</ele>
        <time>2021-05-30T12:32:03Z</time>
      </trkpt>
      <trkpt lat="49.0328" lon="2.03191">
        <ele>37.5</ele>
        <time>2021-05-30T12:32:30Z</time>
      </trkpt>
      <trkpt lat="49.03278" lon="2.03192">
        <ele>37.53</ele>
        <time>2021-05-30T12:32:58Z</time>
      </trkpt>
      <trkpt lat="49.03278" lon="2.03191">
        <ele>37.57</ele>
        <time>2021-05-30T12:33:25Z</time>
      </trkpt>
      <trkpt lat="49.03275" lon="2.03186">
        <ele>37.54</ele>
        <time>2021-05-30T12:34:20Z</time>
      </trkpt>
      <trkpt lat="49.03278" lon="2.03194">
        <ele>38.62</ele>
        <time>2021-05-30T12:34:51Z</time>
      </trkpt>
      <trkpt lat="49.03278" lon="2.03199">
        <ele>39.68</ele>
        <time>2021-05-30T12:35:20Z</time>
      </trkpt>
      <trkpt lat="49.03278" lon="2.03195">
        <ele>39.07</ele>
        <time>2021-05-30T12:35:46Z</time>
      </trkpt>
      <trkpt lat="49.03277" lon="2.03197">
        <ele>39.58</ele>
        <time>2021-05-30T12:36:13Z</time>
      </trkpt>
      <trkpt lat="49.03276" lon="2.03197">
        <ele>39.25</ele>
        <time>2021-05-30T12:36:39Z</time>
      </trkpt>
      <trkpt lat="49.03276" lon="2.03196">
        <ele>40.01</ele>
        <time>2021-05-30T12:37:07Z</time>
      </trkpt>
      <trkpt lat="49.03276" lon="2.03196">
        <ele>39.47</ele>
        <time>2021-05-30T12:37:34Z</time>
      </trkpt>
      <trkpt lat="49.03276" lon="2.03195">
        <ele>39.75</ele>
        <time>2021-05-30T12:38:00Z</time>
      </trkpt>
      <trkpt lat="49.03273" lon="2.03198">
        <ele>40.09</ele>
        <time>2021-05-30T12:38:28Z</time>
      </trkpt>
      <trkpt lat="49.03274" lon="2.03198">
        <ele>40.1</ele>
        <time>2021-05-30T12:38:57Z</time>
      </trkpt>
      <trkpt lat="49.03275" lon="2.03199">
        <ele>40.66</ele>
        <time>2021-05-30T12:39:24Z</time>
      </trkpt>
      <trkpt lat="49.03277" lon="2.03196">
        <ele>40.72</ele>
        <time>2021-05-30T12:39:55Z</time>
      </trkpt>
      <trkpt lat="49.03279" lon="2.03196">
        <ele>41.14</ele>
        <time>2021-05-30T12:40:20Z</time>
      </trkpt>
      <trkpt lat="49.03277" lon="2.03196">
        <ele>41.08</ele>
        <time>2021-05-30T12:40:48Z</time>
      </trkpt>
      <trkpt lat="49.03276" lon="2.03194">
        <ele>41.49</ele>
        <time>2021-05-30T12:41:13Z</time>
      </trkpt>
      <trkpt lat="49.03278" lon="2.03192">
        <ele>41.03</ele>
        <time>2021-05-30T12:41:39Z</time>
      </trkpt>
      <trkpt lat="49.03278" lon="2.03189">
        <ele>41.53</ele>
        <time>2021-05-30T12:42:08Z</time>
      </trkpt>
      <trkpt lat="49.03276" lon="2.03191">
        <ele>41.18</ele>
        <time>2021-05-30T12:42:36Z</time>
      </trkpt>
      <trkpt lat="49.03275" lon="2.03193">
        <ele>41.56</ele>
        <time>2021-05-30T12:43:03Z</time>
      </trkpt>
      <trkpt lat="49.03274" lon="2.03195">
        <ele>41.53</ele>
        <time>2021-05-30T12:43:29Z</time>
      </trkpt>
      <trkpt lat="49.03275" lon="2.03194">
        <ele>41.65</ele>
        <time>2021-05-30T12:43:57Z</time>
      </trkpt>
      <trkpt lat="49.03277" lon="2.03191">
        <ele>41.1</ele>
        <time>2021-05-30T12:44:24Z</time>
      </trkpt>
      <trkpt lat="49.03282" lon="2.03187">
        <ele>40.29</ele>
        <time>2021-05-30T12:44:41Z</time>
      </trkpt>
      <trkpt lat="49.03293" lon="2.03181">
        <ele>41.26</ele>
        <time>2021-05-30T12:44:59Z</time>
      </trkpt>
      <trkpt lat="49.03306" lon="2.03176">
        <ele>41.53</ele>
        <time>2021-05-30T12:45:11Z</time>
      </trkpt>
      <trkpt lat="49.03324" lon="2.03171">
        <ele>41</ele>
        <time>2021-05-30T12:45:32Z</time>
      </trkpt>
      <trkpt lat="49.03338" lon="2.0317">
        <ele>40.94</ele>
        <time>2021-05-30T12:45:46Z</time>
      </trkpt>
      <trkpt lat="49.03343" lon="2.03168">
        <ele>40.79</ele>
        <time>2021-05-30T12:45:49Z</time>
      </trkpt>
      <trkpt lat="49.03367" lon="2.0316">
        <ele>40.89</ele>
        <time>2021-05-30T12:46:05Z</time>
      </trkpt>
      <trkpt lat="49.03383" lon="2.03159">
        <ele>40.73</ele>
        <time>2021-05-30T12:46:19Z</time>
      </trkpt>
      <trkpt lat="49.03395" lon="2.03157">
        <ele>40.25</ele>
        <time>2021-05-30T12:46:29Z</time>
      </trkpt>
      <trkpt lat="49.0341" lon="2.03144">
        <ele>40.15</ele>
        <time>2021-05-30T12:46:43Z</time>
      </trkpt>
      <trkpt lat="49.03418" lon="2.03137">
        <ele>39.37</ele>
        <time>2021-05-30T12:46:50Z</time>
      </trkpt>
      <trkpt lat="49.03431" lon="2.03137">
        <ele>38.88</ele>
        <time>2021-05-30T12:47:08Z</time>
      </trkpt>
      <trkpt lat="49.03432" lon="2.03136">
        <ele>38.18</ele>
        <time>2021-05-30T12:47:10Z</time>
      </trkpt>
      <trkpt lat="49.03446" lon="2.03134">
        <ele>36.69</ele>
        <time>2021-05-30T12:47:25Z</time>
      </trkpt>
      <trkpt lat="49.03468" lon="2.0313">
        <ele>34.95</ele>
        <time>2021-05-30T12:47:39Z</time>
      </trkpt>
      <trkpt lat="49.03474" lon="2.03122">
        <ele>35.36</ele>
        <time>2021-05-30T12:47:46Z</time>
      </trkpt>
      <trkpt lat="49.03483" lon="2.03104">
        <ele>35.7</ele>
        <time>2021-05-30T12:48:01Z</time>
      </trkpt>
      <trkpt lat="49.03485" lon="2.03101">
        <ele>35.53</ele>
        <time>2021-05-30T12:48:03Z</time>
      </trkpt>
      <trkpt lat="49.03498" lon="2.03075">
        <ele>36.18</ele>
        <time>2021-05-30T12:48:21Z</time>
      </trkpt>
      <trkpt lat="49.035" lon="2.03071">
        <ele>35.99</ele>
        <time>2021-05-30T12:48:23Z</time>
      </trkpt>
      <trkpt lat="49.03505" lon="2.03051">
        <ele>36.87</ele>
        <time>2021-05-30T12:48:36Z</time>
      </trkpt>
      <trkpt lat="49.03505" lon="2.03041">
        <ele>38.15</ele>
        <time>2021-05-30T12:48:52Z</time>
      </trkpt>
      <trkpt lat="49.03508" lon="2.0304">
        <ele>37.97</ele>
        <time>2021-05-30T12:49:02Z</time>
      </trkpt>
      <trkpt lat="49.03509" lon="2.03022">
        <ele>39</ele>
        <time>2021-05-30T12:49:19Z</time>
      </trkpt>
      <trkpt lat="49.03508" lon="2.02995">
        <ele>39.98</ele>
        <time>2021-05-30T12:49:37Z</time>
      </trkpt>
      <trkpt lat="49.03514" lon="2.02986">
        <ele>40.07</ele>
        <time>2021-05-30T12:49:49Z</time>
      </trkpt>
      <trkpt lat="49.03519" lon="2.0298">
        <ele>39.42</ele>
        <time>2021-05-30T12:49:56Z</time>
      </trkpt>
      <trkpt lat="49.03533" lon="2.02972">
        <ele>38.99</ele>
        <time>2021-05-30T12:50:14Z</time>
      </trkpt>
      <trkpt lat="49.03553" lon="2.02966">
        <ele>38.85</ele>
        <time>2021-05-30T12:50:33Z</time>
      </trkpt>
      <trkpt lat="49.03569" lon="2.02962">
        <ele>38.41</ele>
        <time>2021-05-30T12:50:48Z</time>
      </trkpt>
      <trkpt lat="49.0359" lon="2.02965">
        <ele>38.13</ele>
        <time>2021-05-30T12:51:04Z</time>
      </trkpt>
      <trkpt lat="49.03599" lon="2.02967">
        <ele>38.1</ele>
        <time>2021-05-30T12:51:13Z</time>
      </trkpt>
      <trkpt lat="49.03606" lon="2.0297">
        <ele>38.33</ele>
        <time>2021-05-30T12:51:30Z</time>
      </trkpt>
      <trkpt lat="49.03619" lon="2.02979">
        <ele>38.55</ele>
        <time>2021-05-30T12:51:45Z</time>
      </trkpt>
      <trkpt lat="49.03627" lon="2.02987">
        <ele>38.58</ele>
        <time>2021-05-30T12:51:54Z</time>
      </trkpt>
      <trkpt lat="49.03643" lon="2.03005">
        <ele>38.68</ele>
        <time>2021-05-30T12:52:11Z</time>
      </trkpt>
      <trkpt lat="49.03656" lon="2.03028">
        <ele>39.17</ele>
        <time>2021-05-30T12:52:29Z</time>
      </trkpt>
      <trkpt lat="49.03669" lon="2.03048">
        <ele>39.16</ele>
        <time>2021-05-30T12:52:44Z</time>
      </trkpt>
      <trkpt lat="49.03683" lon="2.03063">
        <ele>41.06</ele>
        <time>2021-05-30T12:53:05Z</time>
      </trkpt>
      <trkpt lat="49.03695" lon="2.03052">
        <ele>43.62</ele>
        <time>2021-05-30T12:53:19Z</time>
      </trkpt>
      <trkpt lat="49.03697" lon="2.03035">
        <ele>46.18</ele>
        <time>2021-05-30T12:53:38Z</time>
      </trkpt>
      <trkpt lat="49.03704" lon="2.03011">
        <ele>48.97</ele>
        <time>2021-05-30T12:53:59Z</time>
      </trkpt>
      <trkpt lat="49.03711" lon="2.03">
        <ele>50.73</ele>
        <time>2021-05-30T12:54:21Z</time>
      </trkpt>
      <trkpt lat="49.03717" lon="2.02986">
        <ele>53.02</ele>
        <time>2021-05-30T12:54:42Z</time>
      </trkpt>
      <trkpt lat="49.0372" lon="2.02966">
        <ele>54.41</ele>
        <time>2021-05-30T12:54:59Z</time>
      </trkpt>
      <trkpt lat="49.03724" lon="2.02937">
        <ele>55.74</ele>
        <time>2021-05-30T12:55:20Z</time>
      </trkpt>
      <trkpt lat="49.0372" lon="2.02922">
        <ele>57.15</ele>
        <time>2021-05-30T12:55:31Z</time>
      </trkpt>
      <trkpt lat="49.0372" lon="2.029">
        <ele>57.25</ele>
        <time>2021-05-30T12:55:53Z</time>
      </trkpt>
      <trkpt lat="49.03719" lon="2.02877">
        <ele>58.19</ele>
        <time>2021-05-30T12:56:11Z</time>
      </trkpt>
      <trkpt lat="49.03718" lon="2.0284">
        <ele>60.05</ele>
        <time>2021-05-30T12:56:31Z</time>
      </trkpt>
      <trkpt lat="49.03723" lon="2.02807">
        <ele>61.17</ele>
        <time>2021-05-30T12:56:54Z</time>
      </trkpt>
      <trkpt lat="49.03727" lon="2.02772">
        <ele>61.93</ele>
        <time>2021-05-30T12:57:17Z</time>
      </trkpt>
      <trkpt lat="49.03729" lon="2.02734">
        <ele>62.57</ele>
        <time>2021-05-30T12:57:39Z</time>
      </trkpt>
      <trkpt lat="49.03749" lon="2.02712">
        <ele>63.17</ele>
        <time>2021-05-30T12:58:02Z</time>
      </trkpt>
      <trkpt lat="49.03753" lon="2.02709">
        <ele>63.47</ele>
        <time>2021-05-30T12:58:10Z</time>
      </trkpt>
      <trkpt lat="49.03774" lon="2.0269">
        <ele>64.32</ele>
        <time>2021-05-30T12:58:34Z</time>
      </trkpt>
      <trkpt lat="49.03792" lon="2.02673">
        <ele>64.48</ele>
        <time>2021-05-30T12:58:56Z</time>
      </trkpt>
      <trkpt lat="49.03812" lon="2.02668">
        <ele>63.99</ele>
        <time>2021-05-30T12:59:13Z</time>
      </trkpt>
      <trkpt lat="49.03836" lon="2.02657">
        <ele>63.89</ele>
        <time>2021-05-30T12:59:34Z</time>
      </trkpt>
      <trkpt lat="49.03848" lon="2.02647">
        <ele>64.46</ele>
        <time>2021-05-30T12:59:56Z</time>
      </trkpt>
      <trkpt lat="49.0386" lon="2.02635">
        <ele>64.02</ele>
        <time>2021-05-30T13:00:09Z</time>
      </trkpt>
      <trkpt lat="49.03886" lon="2.02618">
        <ele>63.89</ele>
        <time>2021-05-30T13:00:25Z</time>
      </trkpt>
      <trkpt lat="49.03902" lon="2.02615">
        <ele>63.73</ele>
        <time>2021-05-30T13:00:42Z</time>
      </trkpt>
      <trkpt lat="49.03923" lon="2.02612">
        <ele>62.87</ele>
        <time>2021-05-30T13:01:07Z</time>
      </trkpt>
      <trkpt lat="49.03929" lon="2.02616">
        <ele>63.07</ele>
        <time>2021-05-30T13:01:16Z</time>
      </trkpt>
      <trkpt lat="49.03936" lon="2.02618">
        <ele>63.5</ele>
        <time>2021-05-30T13:01:25Z</time>
      </trkpt>
      <trkpt lat="49.0396" lon="2.02619">
        <ele>64.32</ele>
        <time>2021-05-30T13:01:49Z</time>
      </trkpt>
      <trkpt lat="49.03975" lon="2.02622">
        <ele>64.95</ele>
        <time>2021-05-30T13:02:06Z</time>
      </trkpt>
      <trkpt lat="49.03979" lon="2.02622">
        <ele>65.48</ele>
        <time>2021-05-30T13:02:12Z</time>
      </trkpt>
      <trkpt lat="49.04013" lon="2.02613">
        <ele>64.29</ele>
        <time>2021-05-30T13:02:35Z</time>
      </trkpt>
      <trkpt lat="49.0403" lon="2.02607">
        <ele>64.88</ele>
        <time>2021-05-30T13:02:57Z</time>
      </trkpt>
      <trkpt lat="49.04038" lon="2.02607">
        <ele>64.92</ele>
        <time>2021-05-30T13:03:26Z</time>
      </trkpt>
      <trkpt lat="49.0405" lon="2.02597">
        <ele>66.05</ele>
        <time>2021-05-30T13:03:43Z</time>
      </trkpt>
      <trkpt lat="49.0407" lon="2.02584">
        <ele>67.41</ele>
        <time>2021-05-30T13:04:03Z</time>
      </trkpt>
      <trkpt lat="49.04092" lon="2.0257">
        <ele>69.48</ele>
        <time>2021-05-30T13:04:26Z</time>
      </trkpt>
      <trkpt lat="49.04107" lon="2.02545">
        <ele>71.06</ele>
        <time>2021-05-30T13:04:43Z</time>
      </trkpt>
      <trkpt lat="49.04116" lon="2.02513">
        <ele>72.05</ele>
        <time>2021-05-30T13:05:03Z</time>
      </trkpt>
      <trkpt lat="49.04129" lon="2.02492">
        <ele>72.94</ele>
        <time>2021-05-30T13:05:23Z</time>
      </trkpt>
      <trkpt lat="49.04145" lon="2.0247">
        <ele>73.2</ele>
        <time>2021-05-30T13:05:43Z</time>
      </trkpt>
      <trkpt lat="49.04153" lon="2.0246">
        <ele>73.09</ele>
        <time>2021-05-30T13:05:54Z</time>
      </trkpt>
      <trkpt lat="49.04161" lon="2.02417">
        <ele>72.39</ele>
        <time>2021-05-30T13:06:16Z</time>
      </trkpt>
      <trkpt lat="49.04165" lon="2.02397">
        <ele>72.43</ele>
        <time>2021-05-30T13:06:34Z</time>
      </trkpt>
      <trkpt lat="49.04164" lon="2.02372">
        <ele>71.69</ele>
        <time>2021-05-30T13:06:53Z</time>
      </trkpt>
      <trkpt lat="49.04163" lon="2.02367">
        <ele>71.74</ele>
        <time>2021-05-30T13:06:57Z</time>
      </trkpt>
      <trkpt lat="49.0416" lon="2.02337">
        <ele>71.48</ele>
        <time>2021-05-30T13:07:13Z</time>
      </trkpt>
      <trkpt lat="49.0416" lon="2.02335">
        <ele>71.46</ele>
        <time>2021-05-30T13:07:17Z</time>
      </trkpt>
      <trkpt lat="49.0416" lon="2.02315">
        <ele>72.01</ele>
        <time>2021-05-30T13:07:36Z</time>
      </trkpt>
      <trkpt lat="49.04164" lon="2.02299">
        <ele>71.77</ele>
        <time>2021-05-30T13:07:54Z</time>
      </trkpt>
      <trkpt lat="49.04172" lon="2.02276">
        <ele>72.38</ele>
        <time>2021-05-30T13:08:12Z</time>
      </trkpt>
      <trkpt lat="49.04184" lon="2.02251">
        <ele>72.08</ele>
        <time>2021-05-30T13:08:35Z</time>
      </trkpt>
      <trkpt lat="49.04199" lon="2.02227">
        <ele>71.99</ele>
        <time>2021-05-30T13:08:55Z</time>
      </trkpt>
      <trkpt lat="49.04209" lon="2.02209">
        <ele>72.54</ele>
        <time>2021-05-30T13:09:12Z</time>
      </trkpt>
      <trkpt lat="49.04216" lon="2.02178">
        <ele>73.01</ele>
        <time>2021-05-30T13:09:30Z</time>
      </trkpt>
      <trkpt lat="49.04222" lon="2.02154">
        <ele>74.47</ele>
        <time>2021-05-30T13:09:47Z</time>
      </trkpt>
      <trkpt lat="49.04226" lon="2.02136">
        <ele>73.7</ele>
        <time>2021-05-30T13:10:01Z</time>
      </trkpt>
      <trkpt lat="49.04229" lon="2.02109">
        <ele>74.89</ele>
        <time>2021-05-30T13:10:21Z</time>
      </trkpt>
      <trkpt lat="49.04229" lon="2.02074">
        <ele>77.08</ele>
        <time>2021-05-30T13:10:42Z</time>
      </trkpt>
      <trkpt lat="49.04239" lon="2.0204">
        <ele>76.87</ele>
        <time>2021-05-30T13:11:00Z</time>
      </trkpt>
      <trkpt lat="49.04252" lon="2.02022">
        <ele>77.42</ele>
        <time>2021-05-30T13:11:15Z</time>
      </trkpt>
      <trkpt lat="49.04271" lon="2.02018">
        <ele>77.73</ele>
        <time>2021-05-30T13:11:33Z</time>
      </trkpt>
      <trkpt lat="49.04292" lon="2.02008">
        <ele>76.78</ele>
        <time>2021-05-30T13:11:51Z</time>
      </trkpt>
      <trkpt lat="49.04313" lon="2.0198">
        <ele>77.79</ele>
        <time>2021-05-30T13:12:13Z</time>
      </trkpt>
      <trkpt lat="49.04329" lon="2.0197">
        <ele>77.76</ele>
        <time>2021-05-30T13:12:30Z</time>
      </trkpt>
      <trkpt lat="49.04333" lon="2.01976">
        <ele>77.93</ele>
        <time>2021-05-30T13:12:35Z</time>
      </trkpt>
      <trkpt lat="49.04343" lon="2.01975">
        <ele>78.62</ele>
        <time>2021-05-30T13:12:45Z</time>
      </trkpt>
      <trkpt lat="49.04359" lon="2.01969">
        <ele>80.3</ele>
        <time>2021-05-30T13:12:58Z</time>
      </trkpt>
      <trkpt lat="49.04365" lon="2.01964">
        <ele>79.73</ele>
        <time>2021-05-30T13:13:03Z</time>
      </trkpt>
      <trkpt lat="49.04368" lon="2.01962">
        <ele>80.47</ele>
        <time>2021-05-30T13:13:07Z</time>
      </trkpt>
      <trkpt lat="49.04374" lon="2.01958">
        <ele>80.08</ele>
        <time>2021-05-30T13:13:13Z</time>
      </trkpt>
      <trkpt lat="49.04381" lon="2.01935">
        <ele>80.31</ele>
        <time>2021-05-30T13:13:28Z</time>
      </trkpt>
      <trkpt lat="49.04381" lon="2.01917">
        <ele>80.69</ele>
        <time>2021-05-30T13:13:43Z</time>
      </trkpt>
      <trkpt lat="49.04382" lon="2.019">
        <ele>80.47</ele>
        <time>2021-05-30T13:13:58Z</time>
      </trkpt>
      <trkpt lat="49.04383" lon="2.019">
        <ele>80.42</ele>
        <time>2021-05-30T13:13:59Z</time>
      </trkpt>
      <trkpt lat="49.04387" lon="2.01885">
        <ele>81.28</ele>
        <time>2021-05-30T13:14:16Z</time>
      </trkpt>
      <trkpt lat="49.04406" lon="2.01879">
        <ele>80.88</ele>
        <time>2021-05-30T13:14:35Z</time>
      </trkpt>
      <trkpt lat="49.04406" lon="2.0186">
        <ele>81.47</ele>
        <time>2021-05-30T13:14:56Z</time>
      </trkpt>
      <trkpt lat="49.04417" lon="2.0185">
        <ele>81.96</ele>
        <time>2021-05-30T13:15:09Z</time>
      </trkpt>
      <trkpt lat="49.0442" lon="2.0185">
        <ele>82.09</ele>
        <time>2021-05-30T13:15:11Z</time>
      </trkpt>
      <trkpt lat="49.04438" lon="2.01846">
        <ele>81.66</ele>
        <time>2021-05-30T13:15:26Z</time>
      </trkpt>
      <trkpt lat="49.04452" lon="2.01843">
        <ele>82.28</ele>
        <time>2021-05-30T13:15:39Z</time>
      </trkpt>
      <trkpt lat="49.04458" lon="2.01841">
        <ele>83.16</ele>
        <time>2021-05-30T13:15:44Z</time>
      </trkpt>
      <trkpt lat="49.04462" lon="2.01834">
        <ele>82.6</ele>
        <time>2021-05-30T13:15:53Z</time>
      </trkpt>
      <trkpt lat="49.04464" lon="2.01831">
        <ele>83.1</ele>
        <time>2021-05-30T13:15:55Z</time>
      </trkpt>
      <trkpt lat="49.04472" lon="2.01821">
        <ele>82.94</ele>
        <time>2021-05-30T13:16:04Z</time>
      </trkpt>
      <trkpt lat="49.04474" lon="2.01815">
        <ele>83.29</ele>
        <time>2021-05-30T13:16:08Z</time>
      </trkpt>
      <trkpt lat="49.04478" lon="2.0181">
        <ele>82.84</ele>
        <time>2021-05-30T13:16:13Z</time>
      </trkpt>
      <trkpt lat="49.04481" lon="2.01807">
        <ele>82.86</ele>
        <time>2021-05-30T13:16:16Z</time>
      </trkpt>
      <trkpt lat="49.04489" lon="2.01802">
        <ele>82.8</ele>
        <time>2021-05-30T13:16:24Z</time>
      </trkpt>
      <trkpt lat="49.04499" lon="2.01785">
        <ele>83.73</ele>
        <time>2021-05-30T13:16:41Z</time>
      </trkpt>
      <trkpt lat="49.04511" lon="2.01769">
        <ele>84.53</ele>
        <time>2021-05-30T13:16:59Z</time>
      </trkpt>
      <trkpt lat="49.04514" lon="2.01757">
        <ele>84.58</ele>
        <time>2021-05-30T13:17:06Z</time>
      </trkpt>
      <trkpt lat="49.04524" lon="2.01734">
        <ele>85.31</ele>
        <time>2021-05-30T13:17:23Z</time>
      </trkpt>
      <trkpt lat="49.04527" lon="2.01723">
        <ele>85.14</ele>
        <time>2021-05-30T13:17:38Z</time>
      </trkpt>
      <trkpt lat="49.04536" lon="2.01717">
        <ele>85.21</ele>
        <time>2021-05-30T13:17:47Z</time>
      </trkpt>
      <trkpt lat="49.04539" lon="2.01713">
        <ele>85.54</ele>
        <time>2021-05-30T13:17:52Z</time>
      </trkpt>
      <trkpt lat="49.04555" lon="2.01692">
        <ele>85.15</ele>
        <time>2021-05-30T13:18:11Z</time>
      </trkpt>
      <trkpt lat="49.04565" lon="2.01683">
        <ele>85.32</ele>
        <time>2021-05-30T13:18:22Z</time>
      </trkpt>
      <trkpt lat="49.04574" lon="2.01669">
        <ele>85.38</ele>
        <time>2021-05-30T13:18:37Z</time>
      </trkpt>
      <trkpt lat="49.04592" lon="2.01655">
        <ele>85.75</ele>
        <time>2021-05-30T13:18:59Z</time>
      </trkpt>
      <trkpt lat="49.04597" lon="2.01641">
        <ele>85.43</ele>
        <time>2021-05-30T13:19:08Z</time>
      </trkpt>
      <trkpt lat="49.04602" lon="2.01621">
        <ele>85.06</ele>
        <time>2021-05-30T13:19:16Z</time>
      </trkpt>
      <trkpt lat="49.04611" lon="2.01604">
        <ele>85.72</ele>
        <time>2021-05-30T13:19:31Z</time>
      </trkpt>
      <trkpt lat="49.04624" lon="2.01594">
        <ele>86.21</ele>
        <time>2021-05-30T13:19:44Z</time>
      </trkpt>
      <trkpt lat="49.04639" lon="2.01576">
        <ele>85.57</ele>
        <time>2021-05-30T13:20:03Z</time>
      </trkpt>
      <trkpt lat="49.04649" lon="2.01541">
        <ele>85.47</ele>
        <time>2021-05-30T13:20:21Z</time>
      </trkpt>
      <trkpt lat="49.0466" lon="2.01518">
        <ele>86.35</ele>
        <time>2021-05-30T13:20:38Z</time>
      </trkpt>
      <trkpt lat="49.04673" lon="2.015">
        <ele>86.52</ele>
        <time>2021-05-30T13:20:57Z</time>
      </trkpt>
      <trkpt lat="49.04691" lon="2.01486">
        <ele>86.94</ele>
        <time>2021-05-30T13:21:17Z</time>
      </trkpt>
      <trkpt lat="49.04692" lon="2.01461">
        <ele>86.58</ele>
        <time>2021-05-30T13:21:25Z</time>
      </trkpt>
      <trkpt lat="49.04701" lon="2.01427">
        <ele>86.81</ele>
        <time>2021-05-30T13:21:45Z</time>
      </trkpt>
      <trkpt lat="49.04703" lon="2.01418">
        <ele>86.76</ele>
        <time>2021-05-30T13:22:05Z</time>
      </trkpt>
      <trkpt lat="49.04708" lon="2.01417">
        <ele>86.89</ele>
        <time>2021-05-30T13:22:31Z</time>
      </trkpt>
      <trkpt lat="49.04711" lon="2.01415">
        <ele>87.12</ele>
        <time>2021-05-30T13:22:55Z</time>
      </trkpt>
      <trkpt lat="49.04716" lon="2.01411">
        <ele>87.44</ele>
        <time>2021-05-30T13:23:20Z</time>
      </trkpt>
      <trkpt lat="49.04707" lon="2.01394">
        <ele>86.52</ele>
        <time>2021-05-30T13:23:39Z</time>
      </trkpt>
      <trkpt lat="49.04705" lon="2.01391">
        <ele>86.52</ele>
        <time>2021-05-30T13:23:42Z</time>
      </trkpt>
      <trkpt lat="49.04695" lon="2.01375">
        <ele>85.51</ele>
        <time>2021-05-30T13:23:58Z</time>
      </trkpt>
      <trkpt lat="49.04685" lon="2.01357">
        <ele>86</ele>
        <time>2021-05-30T13:24:19Z</time>
      </trkpt>
      <trkpt lat="49.04683" lon="2.01355">
        <ele>85.98</ele>
        <time>2021-05-30T13:24:21Z</time>
      </trkpt>
      <trkpt lat="49.04672" lon="2.01347">
        <ele>86.51</ele>
        <time>2021-05-30T13:24:38Z</time>
      </trkpt>
      <trkpt lat="49.04672" lon="2.01346">
        <ele>86.01</ele>
        <time>2021-05-30T13:24:39Z</time>
      </trkpt>
      <trkpt lat="49.04672" lon="2.0134">
        <ele>86.05</ele>
        <time>2021-05-30T13:24:43Z</time>
      </trkpt>
      <trkpt lat="49.04669" lon="2.01322">
        <ele>85.95</ele>
        <time>2021-05-30T13:24:51Z</time>
      </trkpt>
      <trkpt lat="49.04667" lon="2.01317">
        <ele>86.73</ele>
        <time>2021-05-30T13:24:54Z</time>
      </trkpt>
      <trkpt lat="49.04659" lon="2.01289">
        <ele>86.67</ele>
        <time>2021-05-30T13:25:13Z</time>
      </trkpt>
      <trkpt lat="49.04646" lon="2.01261">
        <ele>87.06</ele>
        <time>2021-05-30T13:25:33Z</time>
      </trkpt>
      <trkpt lat="49.04641" lon="2.01243">
        <ele>87.28</ele>
        <time>2021-05-30T13:25:55Z</time>
      </trkpt>
      <trkpt lat="49.04638" lon="2.01217">
        <ele>87.31</ele>
        <time>2021-05-30T13:26:12Z</time>
      </trkpt>
      <trkpt lat="49.04642" lon="2.01204">
        <ele>88.27</ele>
        <time>2021-05-30T13:26:24Z</time>
      </trkpt>
      <trkpt lat="49.04642" lon="2.01201">
        <ele>87.99</ele>
        <time>2021-05-30T13:26:26Z</time>
      </trkpt>
      <trkpt lat="49.04641" lon="2.01198">
        <ele>88.25</ele>
        <time>2021-05-30T13:26:28Z</time>
      </trkpt>
      <trkpt lat="49.04645" lon="2.01168">
        <ele>89.86</ele>
        <time>2021-05-30T13:26:50Z</time>
      </trkpt>
      <trkpt lat="49.0465" lon="2.01146">
        <ele>90.99</ele>
        <time>2021-05-30T13:27:06Z</time>
      </trkpt>
      <trkpt lat="49.04659" lon="2.01116">
        <ele>90.83</ele>
        <time>2021-05-30T13:27:25Z</time>
      </trkpt>
      <trkpt lat="49.04667" lon="2.01089">
        <ele>91.93</ele>
        <time>2021-05-30T13:27:41Z</time>
      </trkpt>
      <trkpt lat="49.04675" lon="2.01065">
        <ele>93.78</ele>
        <time>2021-05-30T13:27:57Z</time>
      </trkpt>
      <trkpt lat="49.04685" lon="2.01051">
        <ele>94.59</ele>
        <time>2021-05-30T13:28:13Z</time>
      </trkpt>
      <trkpt lat="49.04687" lon="2.01051">
        <ele>94.66</ele>
        <time>2021-05-30T13:28:15Z</time>
      </trkpt>
      <trkpt lat="49.04693" lon="2.01021">
        <ele>94.69</ele>
        <time>2021-05-30T13:28:30Z</time>
      </trkpt>
      <trkpt lat="49.04707" lon="2.01006">
        <ele>94.97</ele>
        <time>2021-05-30T13:28:45Z</time>
      </trkpt>
      <trkpt lat="49.04724" lon="2.00979">
        <ele>94.74</ele>
        <time>2021-05-30T13:29:06Z</time>
      </trkpt>
      <trkpt lat="49.04725" lon="2.00979">
        <ele>94.72</ele>
        <time>2021-05-30T13:29:07Z</time>
      </trkpt>
      <trkpt lat="49.04732" lon="2.00975">
        <ele>94.21</ele>
        <time>2021-05-30T13:29:13Z</time>
      </trkpt>
      <trkpt lat="49.0475" lon="2.00981">
        <ele>94.71</ele>
        <time>2021-05-30T13:29:26Z</time>
      </trkpt>
      <trkpt lat="49.04756" lon="2.00988">
        <ele>94.81</ele>
        <time>2021-05-30T13:29:32Z</time>
      </trkpt>
      <trkpt lat="49.04771" lon="2.01">
        <ele>94.29</ele>
        <time>2021-05-30T13:29:47Z</time>
      </trkpt>
      <trkpt lat="49.04786" lon="2.01018">
        <ele>94.44</ele>
        <time>2021-05-30T13:30:06Z</time>
      </trkpt>
      <trkpt lat="49.0479" lon="2.01026">
        <ele>93.85</ele>
        <time>2021-05-30T13:30:12Z</time>
      </trkpt>
      <trkpt lat="49.04793" lon="2.01029">
        <ele>93.69</ele>
        <time>2021-05-30T13:30:15Z</time>
      </trkpt>
      <trkpt lat="49.04806" lon="2.01044">
        <ele>94.36</ele>
        <time>2021-05-30T13:30:29Z</time>
      </trkpt>
      <trkpt lat="49.04818" lon="2.01062">
        <ele>93.94</ele>
        <time>2021-05-30T13:30:48Z</time>
      </trkpt>
      <trkpt lat="49.04817" lon="2.01096">
        <ele>93.85</ele>
        <time>2021-05-30T13:31:06Z</time>
      </trkpt>
      <trkpt lat="49.04817" lon="2.01096">
        <ele>94.23</ele>
        <time>2021-05-30T13:31:07Z</time>
      </trkpt>
      <trkpt lat="49.04817" lon="2.01099">
        <ele>93.97</ele>
        <time>2021-05-30T13:31:28Z</time>
      </trkpt>
    </trkseg>
  </trk>
</gpx>